<?xml version="1.0" encoding="UTF-8"?>
<gpx version="1.1" creator="Endomondo.com" xsi:schemaLocation="http://www.topografix.com/GPX/1/1 http://www.topografix.com/GPX/1/1/gpx.xsd http://www.garmin.com/xmlschemas/GpxExtensions/v3 http://www.garmin.com/xmlschemas/GpxExtensionsv3.xsd http://www.garmin.com/xmlschemas/TrackPointExtension/v1 http://www.garmin.com/xmlschemas/TrackPointExtensionv1.xsd" xmlns="http://www.topografix.com/GPX/1/1" xmlns:gpxtpx="http://www.garmin.com/xmlschemas/TrackPointExtension/v1" xmlns:gpxx="http://www.garmin.com/xmlschemas/GpxExtensions/v3" xmlns:xsi="http://www.w3.org/2001/XMLSchema-instance">
  <metadata>
    <author>
      <name>Slava Yonov</name>
      <email id="yonoff" domain="gmail.com"/>
    </author>
    <link href="http://www.endomondo.com">
      <text>Endomondo</text>
    </link>
    <time>2011-06-30T21:07:23Z</time>
    <bounds minlat="32.647725" minlon="35.119048" maxlat="32.647682" maxlon="35.119058"/>
  </metadata>
  <trk>
    <src>http://www.endomondo.com/</src>
    <link href="http://www.endomondo.com/workouts/gxhqH97sH30">
      <text>endomondo</text>
    </link>
    <type>MOUNTAIN_BIKING</type>
    <trkseg>
      <trkpt lat="32.647725" lon="35.119048">
        <time>2011-06-30T16:27:15Z</time>
      </trkpt>
      <trkpt lat="32.647725" lon="35.119048">
        <ele>75.0</ele>
        <time>2011-06-30T16:27:26Z</time>
      </trkpt>
      <trkpt lat="32.64773" lon="35.118833">
        <ele>75.0</ele>
        <time>2011-06-30T16:29:31Z</time>
      </trkpt>
      <trkpt lat="32.647703" lon="35.118747">
        <ele>75.0</ele>
        <time>2011-06-30T16:29:35Z</time>
      </trkpt>
      <trkpt lat="32.647655" lon="35.118667">
        <ele>76.0</ele>
        <time>2011-06-30T16:29:38Z</time>
      </trkpt>
      <trkpt lat="32.647612" lon="35.118597">
        <ele>76.0</ele>
        <time>2011-06-30T16:29:41Z</time>
      </trkpt>
      <trkpt lat="32.647569" lon="35.118522">
        <ele>78.0</ele>
        <time>2011-06-30T16:29:45Z</time>
      </trkpt>
      <trkpt lat="32.647532" lon="35.118442">
        <ele>78.0</ele>
        <time>2011-06-30T16:29:49Z</time>
      </trkpt>
      <trkpt lat="32.647499" lon="35.118356">
        <ele>79.0</ele>
        <time>2011-06-30T16:29:53Z</time>
      </trkpt>
      <trkpt lat="32.647424" lon="35.118216">
        <ele>80.0</ele>
        <time>2011-06-30T16:29:59Z</time>
      </trkpt>
      <trkpt lat="32.647387" lon="35.11813">
        <ele>79.0</ele>
        <time>2011-06-30T16:30:02Z</time>
      </trkpt>
      <trkpt lat="32.647333" lon="35.118061">
        <ele>79.0</ele>
        <time>2011-06-30T16:30:05Z</time>
      </trkpt>
      <trkpt lat="32.647269" lon="35.1179">
        <ele>79.0</ele>
        <time>2011-06-30T16:30:11Z</time>
      </trkpt>
      <trkpt lat="32.647237" lon="35.117825">
        <ele>79.0</ele>
        <time>2011-06-30T16:30:14Z</time>
      </trkpt>
      <trkpt lat="32.647199" lon="35.117744">
        <ele>79.0</ele>
        <time>2011-06-30T16:30:17Z</time>
      </trkpt>
      <trkpt lat="32.647135" lon="35.117589">
        <ele>80.0</ele>
        <time>2011-06-30T16:30:23Z</time>
      </trkpt>
      <trkpt lat="32.647097" lon="35.117497">
        <ele>81.0</ele>
        <time>2011-06-30T16:30:26Z</time>
      </trkpt>
      <trkpt lat="32.647027" lon="35.117337">
        <ele>81.0</ele>
        <time>2011-06-30T16:30:31Z</time>
      </trkpt>
      <trkpt lat="32.646958" lon="35.117208">
        <ele>80.0</ele>
        <time>2011-06-30T16:30:35Z</time>
      </trkpt>
      <trkpt lat="32.64692" lon="35.117138">
        <ele>80.0</ele>
        <time>2011-06-30T16:30:38Z</time>
      </trkpt>
      <trkpt lat="32.646893" lon="35.117063">
        <ele>81.0</ele>
        <time>2011-06-30T16:30:41Z</time>
      </trkpt>
      <trkpt lat="32.646824" lon="35.116897">
        <ele>82.0</ele>
        <time>2011-06-30T16:30:47Z</time>
      </trkpt>
      <trkpt lat="32.646791" lon="35.116805">
        <ele>84.0</ele>
        <time>2011-06-30T16:30:50Z</time>
      </trkpt>
      <trkpt lat="32.646754" lon="35.116725">
        <ele>85.0</ele>
        <time>2011-06-30T16:30:53Z</time>
      </trkpt>
      <trkpt lat="32.646684" lon="35.116559">
        <ele>86.0</ele>
        <time>2011-06-30T16:30:59Z</time>
      </trkpt>
      <trkpt lat="32.646657" lon="35.116484">
        <ele>86.0</ele>
        <time>2011-06-30T16:31:02Z</time>
      </trkpt>
      <trkpt lat="32.646641" lon="35.116403">
        <ele>85.0</ele>
        <time>2011-06-30T16:31:05Z</time>
      </trkpt>
      <trkpt lat="32.646598" lon="35.116333">
        <ele>85.0</ele>
        <time>2011-06-30T16:31:09Z</time>
      </trkpt>
      <trkpt lat="32.646534" lon="35.116183">
        <ele>86.0</ele>
        <time>2011-06-30T16:31:15Z</time>
      </trkpt>
      <trkpt lat="32.646491" lon="35.116108">
        <ele>86.0</ele>
        <time>2011-06-30T16:31:18Z</time>
      </trkpt>
      <trkpt lat="32.646448" lon="35.116022">
        <ele>86.0</ele>
        <time>2011-06-30T16:31:21Z</time>
      </trkpt>
      <trkpt lat="32.646378" lon="35.115877">
        <ele>88.0</ele>
        <time>2011-06-30T16:31:27Z</time>
      </trkpt>
      <trkpt lat="32.646346" lon="35.115792">
        <ele>89.0</ele>
        <time>2011-06-30T16:31:30Z</time>
      </trkpt>
      <trkpt lat="32.646314" lon="35.115695">
        <ele>91.0</ele>
        <time>2011-06-30T16:31:34Z</time>
      </trkpt>
      <trkpt lat="32.646282" lon="35.115631">
        <ele>92.0</ele>
        <time>2011-06-30T16:31:37Z</time>
      </trkpt>
      <trkpt lat="32.646212" lon="35.115593">
        <ele>92.0</ele>
        <time>2011-06-30T16:31:40Z</time>
      </trkpt>
      <trkpt lat="32.646094" lon="35.115502">
        <ele>94.0</ele>
        <time>2011-06-30T16:31:48Z</time>
      </trkpt>
      <trkpt lat="32.64596" lon="35.115448">
        <ele>94.0</ele>
        <time>2011-06-30T16:31:53Z</time>
      </trkpt>
      <trkpt lat="32.64574" lon="35.115405">
        <ele>98.0</ele>
        <time>2011-06-30T16:32:07Z</time>
      </trkpt>
      <trkpt lat="32.64567" lon="35.115411">
        <ele>100.0</ele>
        <time>2011-06-30T16:32:11Z</time>
      </trkpt>
      <trkpt lat="32.6456" lon="35.115373">
        <ele>103.0</ele>
        <time>2011-06-30T16:32:16Z</time>
      </trkpt>
      <trkpt lat="32.645536" lon="35.115325">
        <ele>102.0</ele>
        <time>2011-06-30T16:32:20Z</time>
      </trkpt>
      <trkpt lat="32.645466" lon="35.115298">
        <ele>103.0</ele>
        <time>2011-06-30T16:32:25Z</time>
      </trkpt>
      <trkpt lat="32.645397" lon="35.115271">
        <ele>104.0</ele>
        <time>2011-06-30T16:32:29Z</time>
      </trkpt>
      <trkpt lat="32.645327" lon="35.11525">
        <ele>105.0</ele>
        <time>2011-06-30T16:32:33Z</time>
      </trkpt>
      <trkpt lat="32.645257" lon="35.115218">
        <ele>106.0</ele>
        <time>2011-06-30T16:32:36Z</time>
      </trkpt>
      <trkpt lat="32.645128" lon="35.115175">
        <ele>109.0</ele>
        <time>2011-06-30T16:32:43Z</time>
      </trkpt>
      <trkpt lat="32.645064" lon="35.115148">
        <ele>110.0</ele>
        <time>2011-06-30T16:32:47Z</time>
      </trkpt>
      <trkpt lat="32.644984" lon="35.115105">
        <ele>111.0</ele>
        <time>2011-06-30T16:32:53Z</time>
      </trkpt>
      <trkpt lat="32.644849" lon="35.115019">
        <ele>109.0</ele>
        <time>2011-06-30T16:32:59Z</time>
      </trkpt>
      <trkpt lat="32.644726" lon="35.114982">
        <ele>108.0</ele>
        <time>2011-06-30T16:33:03Z</time>
      </trkpt>
      <trkpt lat="32.644651" lon="35.114939">
        <ele>108.0</ele>
        <time>2011-06-30T16:33:06Z</time>
      </trkpt>
      <trkpt lat="32.644587" lon="35.11488">
        <ele>111.0</ele>
        <time>2011-06-30T16:33:13Z</time>
      </trkpt>
      <trkpt lat="32.644522" lon="35.114847">
        <ele>110.0</ele>
        <time>2011-06-30T16:33:17Z</time>
      </trkpt>
      <trkpt lat="32.644479" lon="35.114783">
        <ele>108.0</ele>
        <time>2011-06-30T16:33:20Z</time>
      </trkpt>
      <trkpt lat="32.644351" lon="35.114686">
        <ele>108.0</ele>
        <time>2011-06-30T16:33:27Z</time>
      </trkpt>
      <trkpt lat="32.644281" lon="35.114644">
        <ele>109.0</ele>
        <time>2011-06-30T16:33:31Z</time>
      </trkpt>
      <trkpt lat="32.644147" lon="35.114563">
        <ele>110.0</ele>
        <time>2011-06-30T16:33:38Z</time>
      </trkpt>
      <trkpt lat="32.644077" lon="35.114526">
        <ele>111.0</ele>
        <time>2011-06-30T16:33:41Z</time>
      </trkpt>
      <trkpt lat="32.643937" lon="35.11444">
        <ele>110.0</ele>
        <time>2011-06-30T16:33:47Z</time>
      </trkpt>
      <trkpt lat="32.643857" lon="35.114391">
        <ele>109.0</ele>
        <time>2011-06-30T16:33:50Z</time>
      </trkpt>
      <trkpt lat="32.643648" lon="35.114284">
        <ele>111.0</ele>
        <time>2011-06-30T16:33:59Z</time>
      </trkpt>
      <trkpt lat="32.643514" lon="35.114252">
        <ele>109.0</ele>
        <time>2011-06-30T16:34:03Z</time>
      </trkpt>
      <trkpt lat="32.643358" lon="35.114236">
        <ele>108.0</ele>
        <time>2011-06-30T16:34:07Z</time>
      </trkpt>
      <trkpt lat="32.643176" lon="35.114214">
        <ele>106.0</ele>
        <time>2011-06-30T16:34:11Z</time>
      </trkpt>
      <trkpt lat="32.642983" lon="35.114209">
        <ele>107.0</ele>
        <time>2011-06-30T16:34:15Z</time>
      </trkpt>
      <trkpt lat="32.642811" lon="35.114231">
        <ele>107.0</ele>
        <time>2011-06-30T16:34:19Z</time>
      </trkpt>
      <trkpt lat="32.642639" lon="35.1143">
        <ele>107.0</ele>
        <time>2011-06-30T16:34:23Z</time>
      </trkpt>
      <trkpt lat="32.642543" lon="35.114338">
        <ele>107.0</ele>
        <time>2011-06-30T16:34:25Z</time>
      </trkpt>
      <trkpt lat="32.642344" lon="35.114467">
        <ele>108.0</ele>
        <time>2011-06-30T16:34:31Z</time>
      </trkpt>
      <trkpt lat="32.64228" lon="35.114504">
        <ele>108.0</ele>
        <time>2011-06-30T16:34:33Z</time>
      </trkpt>
      <trkpt lat="32.642033" lon="35.114563">
        <ele>108.0</ele>
        <time>2011-06-30T16:34:38Z</time>
      </trkpt>
      <trkpt lat="32.641738" lon="35.114579">
        <ele>109.0</ele>
        <time>2011-06-30T16:34:43Z</time>
      </trkpt>
      <trkpt lat="32.641545" lon="35.114585">
        <ele>109.0</ele>
        <time>2011-06-30T16:34:47Z</time>
      </trkpt>
      <trkpt lat="32.641336" lon="35.114579">
        <ele>106.0</ele>
        <time>2011-06-30T16:34:51Z</time>
      </trkpt>
      <trkpt lat="32.64118" lon="35.114579">
        <ele>106.0</ele>
        <time>2011-06-30T16:34:55Z</time>
      </trkpt>
      <trkpt lat="32.6411" lon="35.114585">
        <ele>107.0</ele>
        <time>2011-06-30T16:34:58Z</time>
      </trkpt>
      <trkpt lat="32.640923" lon="35.114611">
        <ele>111.0</ele>
        <time>2011-06-30T16:35:06Z</time>
      </trkpt>
      <trkpt lat="32.640778" lon="35.114563">
        <ele>112.0</ele>
        <time>2011-06-30T16:35:10Z</time>
      </trkpt>
      <trkpt lat="32.640644" lon="35.114488">
        <ele>110.0</ele>
        <time>2011-06-30T16:35:15Z</time>
      </trkpt>
      <trkpt lat="32.640461" lon="35.114391">
        <ele>108.0</ele>
        <time>2011-06-30T16:35:19Z</time>
      </trkpt>
      <trkpt lat="32.640397" lon="35.114343">
        <ele>110.0</ele>
        <time>2011-06-30T16:35:22Z</time>
      </trkpt>
      <trkpt lat="32.640268" lon="35.114273">
        <ele>110.0</ele>
        <time>2011-06-30T16:35:27Z</time>
      </trkpt>
      <trkpt lat="32.640118" lon="35.114209">
        <ele>115.0</ele>
        <time>2011-06-30T16:35:31Z</time>
      </trkpt>
      <trkpt lat="32.640048" lon="35.114139">
        <ele>116.0</ele>
        <time>2011-06-30T16:35:34Z</time>
      </trkpt>
      <trkpt lat="32.640005" lon="35.11408">
        <ele>118.0</ele>
        <time>2011-06-30T16:35:37Z</time>
      </trkpt>
      <trkpt lat="32.639866" lon="35.113968">
        <ele>120.0</ele>
        <time>2011-06-30T16:35:43Z</time>
      </trkpt>
      <trkpt lat="32.639791" lon="35.113909">
        <ele>119.0</ele>
        <time>2011-06-30T16:35:46Z</time>
      </trkpt>
      <trkpt lat="32.639732" lon="35.113812">
        <ele>119.0</ele>
        <time>2011-06-30T16:35:50Z</time>
      </trkpt>
      <trkpt lat="32.639683" lon="35.113748">
        <ele>118.0</ele>
        <time>2011-06-30T16:35:52Z</time>
      </trkpt>
      <trkpt lat="32.639641" lon="35.113689">
        <ele>118.0</ele>
        <time>2011-06-30T16:35:56Z</time>
      </trkpt>
      <trkpt lat="32.639592" lon="35.113517">
        <ele>118.0</ele>
        <time>2011-06-30T16:36:04Z</time>
      </trkpt>
      <trkpt lat="32.639576" lon="35.113426">
        <ele>118.0</ele>
        <time>2011-06-30T16:36:07Z</time>
      </trkpt>
      <trkpt lat="32.639555" lon="35.113329">
        <ele>120.0</ele>
        <time>2011-06-30T16:36:11Z</time>
      </trkpt>
      <trkpt lat="32.639453" lon="35.113093">
        <ele>122.0</ele>
        <time>2011-06-30T16:36:18Z</time>
      </trkpt>
      <trkpt lat="32.639394" lon="35.112916">
        <ele>126.0</ele>
        <time>2011-06-30T16:36:24Z</time>
      </trkpt>
      <trkpt lat="32.63934" lon="35.112718">
        <ele>126.0</ele>
        <time>2011-06-30T16:36:29Z</time>
      </trkpt>
      <trkpt lat="32.639088" lon="35.11246">
        <ele>122.0</ele>
        <time>2011-06-30T16:36:35Z</time>
      </trkpt>
      <trkpt lat="32.638975" lon="35.112337">
        <ele>119.0</ele>
        <time>2011-06-30T16:36:38Z</time>
      </trkpt>
      <trkpt lat="32.638831" lon="35.112208">
        <ele>118.0</ele>
        <time>2011-06-30T16:36:42Z</time>
      </trkpt>
      <trkpt lat="32.63868" lon="35.112106">
        <ele>119.0</ele>
        <time>2011-06-30T16:36:48Z</time>
      </trkpt>
      <trkpt lat="32.638616" lon="35.112063">
        <ele>119.0</ele>
        <time>2011-06-30T16:36:50Z</time>
      </trkpt>
      <trkpt lat="32.638471" lon="35.112026">
        <ele>118.0</ele>
        <time>2011-06-30T16:36:56Z</time>
      </trkpt>
      <trkpt lat="32.638401" lon="35.11202">
        <ele>116.0</ele>
        <time>2011-06-30T16:36:58Z</time>
      </trkpt>
      <trkpt lat="32.638326" lon="35.112031">
        <ele>116.0</ele>
        <time>2011-06-30T16:37:02Z</time>
      </trkpt>
      <trkpt lat="32.638246" lon="35.112042">
        <ele>116.0</ele>
        <time>2011-06-30T16:37:06Z</time>
      </trkpt>
      <trkpt lat="32.63808" lon="35.112058">
        <ele>117.0</ele>
        <time>2011-06-30T16:37:11Z</time>
      </trkpt>
      <trkpt lat="32.637913" lon="35.112026">
        <ele>116.0</ele>
        <time>2011-06-30T16:37:16Z</time>
      </trkpt>
      <trkpt lat="32.637827" lon="35.112036">
        <ele>116.0</ele>
        <time>2011-06-30T16:37:19Z</time>
      </trkpt>
      <trkpt lat="32.637704" lon="35.112031">
        <ele>113.0</ele>
        <time>2011-06-30T16:37:22Z</time>
      </trkpt>
      <trkpt lat="32.637548" lon="35.112063">
        <ele>115.0</ele>
        <time>2011-06-30T16:37:27Z</time>
      </trkpt>
      <trkpt lat="32.637414" lon="35.112063">
        <ele>115.0</ele>
        <time>2011-06-30T16:37:31Z</time>
      </trkpt>
      <trkpt lat="32.637318" lon="35.112047">
        <ele>116.0</ele>
        <time>2011-06-30T16:37:34Z</time>
      </trkpt>
      <trkpt lat="32.637168" lon="35.11202">
        <ele>118.0</ele>
        <time>2011-06-30T16:37:40Z</time>
      </trkpt>
      <trkpt lat="32.637109" lon="35.111988">
        <ele>118.0</ele>
        <time>2011-06-30T16:37:43Z</time>
      </trkpt>
      <trkpt lat="32.637044" lon="35.111956">
        <ele>118.0</ele>
        <time>2011-06-30T16:37:47Z</time>
      </trkpt>
      <trkpt lat="32.636958" lon="35.111956">
        <ele>119.0</ele>
        <time>2011-06-30T16:37:50Z</time>
      </trkpt>
      <trkpt lat="32.636878" lon="35.111956">
        <ele>119.0</ele>
        <time>2011-06-30T16:37:53Z</time>
      </trkpt>
      <trkpt lat="32.636744" lon="35.111945">
        <ele>119.0</ele>
        <time>2011-06-30T16:37:58Z</time>
      </trkpt>
      <trkpt lat="32.636577" lon="35.111886">
        <ele>115.0</ele>
        <time>2011-06-30T16:38:03Z</time>
      </trkpt>
      <trkpt lat="32.636497" lon="35.111881">
        <ele>113.0</ele>
        <time>2011-06-30T16:38:05Z</time>
      </trkpt>
      <trkpt lat="32.636331" lon="35.111876">
        <ele>116.0</ele>
        <time>2011-06-30T16:38:12Z</time>
      </trkpt>
      <trkpt lat="32.636272" lon="35.1118">
        <ele>117.0</ele>
        <time>2011-06-30T16:38:16Z</time>
      </trkpt>
      <trkpt lat="32.636186" lon="35.111747">
        <ele>116.0</ele>
        <time>2011-06-30T16:38:19Z</time>
      </trkpt>
      <trkpt lat="32.636068" lon="35.111629">
        <ele>116.0</ele>
        <time>2011-06-30T16:38:24Z</time>
      </trkpt>
      <trkpt lat="32.635998" lon="35.111564">
        <ele>116.0</ele>
        <time>2011-06-30T16:38:27Z</time>
      </trkpt>
      <trkpt lat="32.635907" lon="35.111446">
        <ele>116.0</ele>
        <time>2011-06-30T16:38:31Z</time>
      </trkpt>
      <trkpt lat="32.635778" lon="35.111361">
        <ele>116.0</ele>
        <time>2011-06-30T16:38:36Z</time>
      </trkpt>
      <trkpt lat="32.635644" lon="35.111302">
        <ele>113.0</ele>
        <time>2011-06-30T16:38:40Z</time>
      </trkpt>
      <trkpt lat="32.635553" lon="35.111275">
        <ele>111.0</ele>
        <time>2011-06-30T16:38:43Z</time>
      </trkpt>
      <trkpt lat="32.635494" lon="35.111243">
        <ele>110.0</ele>
        <time>2011-06-30T16:38:45Z</time>
      </trkpt>
      <trkpt lat="32.635328" lon="35.111151">
        <ele>107.0</ele>
        <time>2011-06-30T16:38:51Z</time>
      </trkpt>
      <trkpt lat="32.635269" lon="35.111114">
        <ele>106.0</ele>
        <time>2011-06-30T16:38:54Z</time>
      </trkpt>
      <trkpt lat="32.635199" lon="35.111066">
        <ele>105.0</ele>
        <time>2011-06-30T16:38:57Z</time>
      </trkpt>
      <trkpt lat="32.635145" lon="35.111006">
        <ele>106.0</ele>
        <time>2011-06-30T16:39:00Z</time>
      </trkpt>
      <trkpt lat="32.635086" lon="35.110947">
        <ele>107.0</ele>
        <time>2011-06-30T16:39:04Z</time>
      </trkpt>
      <trkpt lat="32.635134" lon="35.110883">
        <ele>106.0</ele>
        <time>2011-06-30T16:39:09Z</time>
      </trkpt>
      <trkpt lat="32.635199" lon="35.110824">
        <ele>108.0</ele>
        <time>2011-06-30T16:39:13Z</time>
      </trkpt>
      <trkpt lat="32.635258" lon="35.110765">
        <ele>111.0</ele>
        <time>2011-06-30T16:39:17Z</time>
      </trkpt>
      <trkpt lat="32.635306" lon="35.110706">
        <ele>112.0</ele>
        <time>2011-06-30T16:39:20Z</time>
      </trkpt>
      <trkpt lat="32.635408" lon="35.110567">
        <ele>114.0</ele>
        <time>2011-06-30T16:39:31Z</time>
      </trkpt>
      <trkpt lat="32.635456" lon="35.110497">
        <ele>116.0</ele>
        <time>2011-06-30T16:39:35Z</time>
      </trkpt>
      <trkpt lat="32.635499" lon="35.110438">
        <ele>117.0</ele>
        <time>2011-06-30T16:39:38Z</time>
      </trkpt>
      <trkpt lat="32.635531" lon="35.110373">
        <ele>116.0</ele>
        <time>2011-06-30T16:39:42Z</time>
      </trkpt>
      <trkpt lat="32.635564" lon="35.110309">
        <ele>115.0</ele>
        <time>2011-06-30T16:39:46Z</time>
      </trkpt>
      <trkpt lat="32.635596" lon="35.110239">
        <ele>115.0</ele>
        <time>2011-06-30T16:39:50Z</time>
      </trkpt>
      <trkpt lat="32.635628" lon="35.110148">
        <ele>115.0</ele>
        <time>2011-06-30T16:39:54Z</time>
      </trkpt>
      <trkpt lat="32.635655" lon="35.110062">
        <ele>116.0</ele>
        <time>2011-06-30T16:39:58Z</time>
      </trkpt>
      <trkpt lat="32.635837" lon="35.109977">
        <ele>117.0</ele>
        <time>2011-06-30T16:40:10Z</time>
      </trkpt>
      <trkpt lat="32.635912" lon="35.109971">
        <ele>118.0</ele>
        <time>2011-06-30T16:40:13Z</time>
      </trkpt>
      <trkpt lat="32.63595" lon="35.109891">
        <ele>118.0</ele>
        <time>2011-06-30T16:40:17Z</time>
      </trkpt>
      <trkpt lat="32.635971" lon="35.109816">
        <ele>118.0</ele>
        <time>2011-06-30T16:40:21Z</time>
      </trkpt>
      <trkpt lat="32.636036" lon="35.109665">
        <ele>119.0</ele>
        <time>2011-06-30T16:40:31Z</time>
      </trkpt>
      <trkpt lat="32.636063" lon="35.109596">
        <ele>120.0</ele>
        <time>2011-06-30T16:40:35Z</time>
      </trkpt>
      <trkpt lat="32.636105" lon="35.109526">
        <ele>121.0</ele>
        <time>2011-06-30T16:40:41Z</time>
      </trkpt>
      <trkpt lat="32.636148" lon="35.109462">
        <ele>120.0</ele>
        <time>2011-06-30T16:40:47Z</time>
      </trkpt>
      <trkpt lat="32.636181" lon="35.109392">
        <ele>120.0</ele>
        <time>2011-06-30T16:40:54Z</time>
      </trkpt>
      <trkpt lat="32.636245" lon="35.109258">
        <ele>120.0</ele>
        <time>2011-06-30T16:41:00Z</time>
      </trkpt>
      <trkpt lat="32.636293" lon="35.109204">
        <ele>120.0</ele>
        <time>2011-06-30T16:41:07Z</time>
      </trkpt>
      <trkpt lat="32.63625" lon="35.109081">
        <ele>120.0</ele>
        <time>2011-06-30T16:41:16Z</time>
      </trkpt>
      <trkpt lat="32.636218" lon="35.109">
        <ele>122.0</ele>
        <time>2011-06-30T16:41:21Z</time>
      </trkpt>
      <trkpt lat="32.636154" lon="35.108941">
        <ele>123.0</ele>
        <time>2011-06-30T16:41:25Z</time>
      </trkpt>
      <trkpt lat="32.63602" lon="35.108684">
        <ele>129.0</ele>
        <time>2011-06-30T16:41:39Z</time>
      </trkpt>
      <trkpt lat="32.636003" lon="35.108609">
        <ele>130.0</ele>
        <time>2011-06-30T16:41:44Z</time>
      </trkpt>
      <trkpt lat="32.635998" lon="35.108534">
        <ele>131.0</ele>
        <time>2011-06-30T16:41:49Z</time>
      </trkpt>
      <trkpt lat="32.635987" lon="35.108373">
        <ele>135.0</ele>
        <time>2011-06-30T16:41:57Z</time>
      </trkpt>
      <trkpt lat="32.635987" lon="35.108185">
        <ele>136.0</ele>
        <time>2011-06-30T16:42:06Z</time>
      </trkpt>
      <trkpt lat="32.635998" lon="35.108019">
        <ele>134.0</ele>
        <time>2011-06-30T16:42:13Z</time>
      </trkpt>
      <trkpt lat="32.635971" lon="35.107938">
        <ele>133.0</ele>
        <time>2011-06-30T16:42:19Z</time>
      </trkpt>
      <trkpt lat="32.635971" lon="35.107863">
        <ele>135.0</ele>
        <time>2011-06-30T16:42:24Z</time>
      </trkpt>
      <trkpt lat="32.63595" lon="35.107788">
        <ele>135.0</ele>
        <time>2011-06-30T16:42:29Z</time>
      </trkpt>
      <trkpt lat="32.635923" lon="35.107713">
        <ele>136.0</ele>
        <time>2011-06-30T16:42:33Z</time>
      </trkpt>
      <trkpt lat="32.635891" lon="35.107643">
        <ele>136.0</ele>
        <time>2011-06-30T16:42:37Z</time>
      </trkpt>
      <trkpt lat="32.635875" lon="35.107568">
        <ele>137.0</ele>
        <time>2011-06-30T16:42:41Z</time>
      </trkpt>
      <trkpt lat="32.635859" lon="35.107482">
        <ele>136.0</ele>
        <time>2011-06-30T16:42:46Z</time>
      </trkpt>
      <trkpt lat="32.635837" lon="35.107391">
        <ele>135.0</ele>
        <time>2011-06-30T16:42:51Z</time>
      </trkpt>
      <trkpt lat="32.6358" lon="35.107321">
        <ele>135.0</ele>
        <time>2011-06-30T16:42:55Z</time>
      </trkpt>
      <trkpt lat="32.635762" lon="35.107246">
        <ele>136.0</ele>
        <time>2011-06-30T16:43:01Z</time>
      </trkpt>
      <trkpt lat="32.63573" lon="35.107176">
        <ele>137.0</ele>
        <time>2011-06-30T16:43:06Z</time>
      </trkpt>
      <trkpt lat="32.635687" lon="35.107107">
        <ele>139.0</ele>
        <time>2011-06-30T16:43:12Z</time>
      </trkpt>
      <trkpt lat="32.635644" lon="35.107037">
        <ele>140.0</ele>
        <time>2011-06-30T16:43:17Z</time>
      </trkpt>
      <trkpt lat="32.635607" lon="35.106972">
        <ele>143.0</ele>
        <time>2011-06-30T16:43:23Z</time>
      </trkpt>
      <trkpt lat="32.635574" lon="35.106892">
        <ele>144.0</ele>
        <time>2011-06-30T16:43:30Z</time>
      </trkpt>
      <trkpt lat="32.635542" lon="35.106817">
        <ele>146.0</ele>
        <time>2011-06-30T16:43:35Z</time>
      </trkpt>
      <trkpt lat="32.63551" lon="35.106747">
        <ele>148.0</ele>
        <time>2011-06-30T16:43:40Z</time>
      </trkpt>
      <trkpt lat="32.635456" lon="35.106688">
        <ele>151.0</ele>
        <time>2011-06-30T16:43:45Z</time>
      </trkpt>
      <trkpt lat="32.635392" lon="35.106645">
        <ele>153.0</ele>
        <time>2011-06-30T16:43:49Z</time>
      </trkpt>
      <trkpt lat="32.635279" lon="35.106527">
        <ele>153.0</ele>
        <time>2011-06-30T16:43:58Z</time>
      </trkpt>
      <trkpt lat="32.635274" lon="35.106452">
        <ele>157.0</ele>
        <time>2011-06-30T16:44:05Z</time>
      </trkpt>
      <trkpt lat="32.635242" lon="35.106388">
        <ele>157.0</ele>
        <time>2011-06-30T16:44:10Z</time>
      </trkpt>
      <trkpt lat="32.635204" lon="35.106323">
        <ele>159.0</ele>
        <time>2011-06-30T16:44:16Z</time>
      </trkpt>
      <trkpt lat="32.635156" lon="35.106259">
        <ele>159.0</ele>
        <time>2011-06-30T16:44:21Z</time>
      </trkpt>
      <trkpt lat="32.635129" lon="35.106184">
        <ele>161.0</ele>
        <time>2011-06-30T16:44:27Z</time>
      </trkpt>
      <trkpt lat="32.635081" lon="35.106039">
        <ele>164.0</ele>
        <time>2011-06-30T16:44:38Z</time>
      </trkpt>
      <trkpt lat="32.635038" lon="35.105959">
        <ele>167.0</ele>
        <time>2011-06-30T16:44:44Z</time>
      </trkpt>
      <trkpt lat="32.635011" lon="35.105878">
        <ele>169.0</ele>
        <time>2011-06-30T16:44:50Z</time>
      </trkpt>
      <trkpt lat="32.634968" lon="35.105814">
        <ele>169.0</ele>
        <time>2011-06-30T16:44:55Z</time>
      </trkpt>
      <trkpt lat="32.634936" lon="35.105749">
        <ele>171.0</ele>
        <time>2011-06-30T16:45:01Z</time>
      </trkpt>
      <trkpt lat="32.634931" lon="35.105664">
        <ele>172.0</ele>
        <time>2011-06-30T16:45:07Z</time>
      </trkpt>
      <trkpt lat="32.634872" lon="35.105524">
        <ele>175.0</ele>
        <time>2011-06-30T16:45:17Z</time>
      </trkpt>
      <trkpt lat="32.634856" lon="35.105449">
        <ele>175.0</ele>
        <time>2011-06-30T16:45:23Z</time>
      </trkpt>
      <trkpt lat="32.634807" lon="35.105374">
        <ele>177.0</ele>
        <time>2011-06-30T16:45:29Z</time>
      </trkpt>
      <trkpt lat="32.634797" lon="35.105299">
        <ele>179.0</ele>
        <time>2011-06-30T16:45:34Z</time>
      </trkpt>
      <trkpt lat="32.634754" lon="35.10524">
        <ele>181.0</ele>
        <time>2011-06-30T16:45:39Z</time>
      </trkpt>
      <trkpt lat="32.634721" lon="35.105159">
        <ele>183.0</ele>
        <time>2011-06-30T16:45:44Z</time>
      </trkpt>
      <trkpt lat="32.634657" lon="35.105111">
        <ele>183.0</ele>
        <time>2011-06-30T16:45:49Z</time>
      </trkpt>
      <trkpt lat="32.634603" lon="35.105068">
        <ele>182.0</ele>
        <time>2011-06-30T16:45:55Z</time>
      </trkpt>
      <trkpt lat="32.634593" lon="35.104988">
        <ele>184.0</ele>
        <time>2011-06-30T16:46:01Z</time>
      </trkpt>
      <trkpt lat="32.634571" lon="35.104913">
        <ele>185.0</ele>
        <time>2011-06-30T16:46:06Z</time>
      </trkpt>
      <trkpt lat="32.634528" lon="35.104837">
        <ele>186.0</ele>
        <time>2011-06-30T16:46:11Z</time>
      </trkpt>
      <trkpt lat="32.634512" lon="35.104762">
        <ele>188.0</ele>
        <time>2011-06-30T16:46:16Z</time>
      </trkpt>
      <trkpt lat="32.634491" lon="35.104687">
        <ele>189.0</ele>
        <time>2011-06-30T16:46:22Z</time>
      </trkpt>
      <trkpt lat="32.634432" lon="35.104623">
        <ele>190.0</ele>
        <time>2011-06-30T16:46:27Z</time>
      </trkpt>
      <trkpt lat="32.634373" lon="35.104564">
        <ele>190.0</ele>
        <time>2011-06-30T16:46:32Z</time>
      </trkpt>
      <trkpt lat="32.63433" lon="35.104499">
        <ele>189.0</ele>
        <time>2011-06-30T16:46:37Z</time>
      </trkpt>
      <trkpt lat="32.634276" lon="35.10443">
        <ele>190.0</ele>
        <time>2011-06-30T16:46:43Z</time>
      </trkpt>
      <trkpt lat="32.634223" lon="35.104371">
        <ele>190.0</ele>
        <time>2011-06-30T16:46:48Z</time>
      </trkpt>
      <trkpt lat="32.634158" lon="35.104349">
        <ele>190.0</ele>
        <time>2011-06-30T16:46:52Z</time>
      </trkpt>
      <trkpt lat="32.634083" lon="35.104317">
        <ele>190.0</ele>
        <time>2011-06-30T16:46:57Z</time>
      </trkpt>
      <trkpt lat="32.634024" lon="35.104285">
        <ele>191.0</ele>
        <time>2011-06-30T16:47:02Z</time>
      </trkpt>
      <trkpt lat="32.63396" lon="35.104296">
        <ele>190.0</ele>
        <time>2011-06-30T16:47:07Z</time>
      </trkpt>
      <trkpt lat="32.633895" lon="35.104296">
        <ele>189.0</ele>
        <time>2011-06-30T16:47:12Z</time>
      </trkpt>
      <trkpt lat="32.633831" lon="35.104301">
        <ele>189.0</ele>
        <time>2011-06-30T16:47:19Z</time>
      </trkpt>
      <trkpt lat="32.633767" lon="35.10428">
        <ele>188.0</ele>
        <time>2011-06-30T16:47:45Z</time>
      </trkpt>
      <trkpt lat="32.633697" lon="35.104285">
        <ele>188.0</ele>
        <time>2011-06-30T16:47:53Z</time>
      </trkpt>
      <trkpt lat="32.633632" lon="35.104269">
        <ele>188.0</ele>
        <time>2011-06-30T16:47:59Z</time>
      </trkpt>
      <trkpt lat="32.633568" lon="35.104274">
        <ele>188.0</ele>
        <time>2011-06-30T16:48:04Z</time>
      </trkpt>
      <trkpt lat="32.633498" lon="35.104301">
        <ele>187.0</ele>
        <time>2011-06-30T16:48:08Z</time>
      </trkpt>
      <trkpt lat="32.63338" lon="35.10443">
        <ele>187.0</ele>
        <time>2011-06-30T16:48:17Z</time>
      </trkpt>
      <trkpt lat="32.633316" lon="35.104473">
        <ele>188.0</ele>
        <time>2011-06-30T16:48:22Z</time>
      </trkpt>
      <trkpt lat="32.633235" lon="35.104505">
        <ele>191.0</ele>
        <time>2011-06-30T16:48:28Z</time>
      </trkpt>
      <trkpt lat="32.633134" lon="35.104596">
        <ele>195.0</ele>
        <time>2011-06-30T16:48:37Z</time>
      </trkpt>
      <trkpt lat="32.632994" lon="35.104666">
        <ele>197.0</ele>
        <time>2011-06-30T16:48:46Z</time>
      </trkpt>
      <trkpt lat="32.632957" lon="35.104741">
        <ele>197.0</ele>
        <time>2011-06-30T16:48:50Z</time>
      </trkpt>
      <trkpt lat="32.632908" lon="35.104805">
        <ele>198.0</ele>
        <time>2011-06-30T16:48:53Z</time>
      </trkpt>
      <trkpt lat="32.632855" lon="35.104864">
        <ele>199.0</ele>
        <time>2011-06-30T16:48:57Z</time>
      </trkpt>
      <trkpt lat="32.632742" lon="35.104998">
        <ele>197.0</ele>
        <time>2011-06-30T16:49:05Z</time>
      </trkpt>
      <trkpt lat="32.632694" lon="35.105068">
        <ele>197.0</ele>
        <time>2011-06-30T16:49:10Z</time>
      </trkpt>
      <trkpt lat="32.63264" lon="35.105116">
        <ele>199.0</ele>
        <time>2011-06-30T16:49:17Z</time>
      </trkpt>
      <trkpt lat="32.632602" lon="35.105293">
        <ele>199.0</ele>
        <time>2011-06-30T16:49:29Z</time>
      </trkpt>
      <trkpt lat="32.632629" lon="35.105368">
        <ele>202.0</ele>
        <time>2011-06-30T16:49:34Z</time>
      </trkpt>
      <trkpt lat="32.632656" lon="35.105438">
        <ele>204.0</ele>
        <time>2011-06-30T16:49:38Z</time>
      </trkpt>
      <trkpt lat="32.63272" lon="35.105438">
        <ele>207.0</ele>
        <time>2011-06-30T16:49:44Z</time>
      </trkpt>
      <trkpt lat="32.63279" lon="35.105411">
        <ele>206.0</ele>
        <time>2011-06-30T16:49:49Z</time>
      </trkpt>
      <trkpt lat="32.63286" lon="35.105379">
        <ele>206.0</ele>
        <time>2011-06-30T16:49:53Z</time>
      </trkpt>
      <trkpt lat="32.632892" lon="35.105309">
        <ele>208.0</ele>
        <time>2011-06-30T16:49:58Z</time>
      </trkpt>
      <trkpt lat="32.632935" lon="35.10525">
        <ele>208.0</ele>
        <time>2011-06-30T16:50:02Z</time>
      </trkpt>
      <trkpt lat="32.632994" lon="35.105191">
        <ele>209.0</ele>
        <time>2011-06-30T16:50:10Z</time>
      </trkpt>
      <trkpt lat="32.633048" lon="35.105149">
        <ele>212.0</ele>
        <time>2011-06-30T16:50:17Z</time>
      </trkpt>
      <trkpt lat="32.633112" lon="35.105116">
        <ele>216.0</ele>
        <time>2011-06-30T16:50:23Z</time>
      </trkpt>
      <trkpt lat="32.633182" lon="35.105111">
        <ele>219.0</ele>
        <time>2011-06-30T16:50:27Z</time>
      </trkpt>
      <trkpt lat="32.633386" lon="35.105132">
        <ele>218.0</ele>
        <time>2011-06-30T16:50:35Z</time>
      </trkpt>
      <trkpt lat="32.633504" lon="35.105208">
        <ele>216.0</ele>
        <time>2011-06-30T16:50:41Z</time>
      </trkpt>
      <trkpt lat="32.633579" lon="35.105234">
        <ele>212.0</ele>
        <time>2011-06-30T16:50:48Z</time>
      </trkpt>
      <trkpt lat="32.633654" lon="35.105224">
        <ele>210.0</ele>
        <time>2011-06-30T16:50:52Z</time>
      </trkpt>
      <trkpt lat="32.63367" lon="35.105299">
        <ele>212.0</ele>
        <time>2011-06-30T16:50:58Z</time>
      </trkpt>
      <trkpt lat="32.633659" lon="35.105385">
        <ele>214.0</ele>
        <time>2011-06-30T16:51:04Z</time>
      </trkpt>
      <trkpt lat="32.63367" lon="35.10546">
        <ele>218.0</ele>
        <time>2011-06-30T16:51:09Z</time>
      </trkpt>
      <trkpt lat="32.63367" lon="35.105621">
        <ele>219.0</ele>
        <time>2011-06-30T16:51:17Z</time>
      </trkpt>
      <trkpt lat="32.633691" lon="35.105696">
        <ele>218.0</ele>
        <time>2011-06-30T16:51:21Z</time>
      </trkpt>
      <trkpt lat="32.633708" lon="35.105776">
        <ele>218.0</ele>
        <time>2011-06-30T16:51:26Z</time>
      </trkpt>
      <trkpt lat="32.633718" lon="35.105862">
        <ele>216.0</ele>
        <time>2011-06-30T16:51:30Z</time>
      </trkpt>
      <trkpt lat="32.633729" lon="35.105937">
        <ele>217.0</ele>
        <time>2011-06-30T16:51:35Z</time>
      </trkpt>
      <trkpt lat="32.633702" lon="35.106012">
        <ele>222.0</ele>
        <time>2011-06-30T16:51:39Z</time>
      </trkpt>
      <trkpt lat="32.633729" lon="35.106087">
        <ele>224.0</ele>
        <time>2011-06-30T16:51:44Z</time>
      </trkpt>
      <trkpt lat="32.633745" lon="35.106179">
        <ele>225.0</ele>
        <time>2011-06-30T16:51:50Z</time>
      </trkpt>
      <trkpt lat="32.633761" lon="35.106259">
        <ele>226.0</ele>
        <time>2011-06-30T16:51:57Z</time>
      </trkpt>
      <trkpt lat="32.633783" lon="35.10642">
        <ele>228.0</ele>
        <time>2011-06-30T16:52:11Z</time>
      </trkpt>
      <trkpt lat="32.633804" lon="35.106511">
        <ele>229.0</ele>
        <time>2011-06-30T16:52:17Z</time>
      </trkpt>
      <trkpt lat="32.633836" lon="35.106586">
        <ele>224.0</ele>
        <time>2011-06-30T16:52:24Z</time>
      </trkpt>
      <trkpt lat="32.633847" lon="35.106677">
        <ele>225.0</ele>
        <time>2011-06-30T16:52:29Z</time>
      </trkpt>
      <trkpt lat="32.633852" lon="35.106871">
        <ele>226.0</ele>
        <time>2011-06-30T16:52:37Z</time>
      </trkpt>
      <trkpt lat="32.633863" lon="35.106946">
        <ele>225.0</ele>
        <time>2011-06-30T16:52:40Z</time>
      </trkpt>
      <trkpt lat="32.633858" lon="35.107026">
        <ele>227.0</ele>
        <time>2011-06-30T16:52:45Z</time>
      </trkpt>
      <trkpt lat="32.633852" lon="35.107123">
        <ele>228.0</ele>
        <time>2011-06-30T16:52:50Z</time>
      </trkpt>
      <trkpt lat="32.633879" lon="35.107208">
        <ele>229.0</ele>
        <time>2011-06-30T16:52:55Z</time>
      </trkpt>
      <trkpt lat="32.63389" lon="35.107294">
        <ele>230.0</ele>
        <time>2011-06-30T16:52:59Z</time>
      </trkpt>
      <trkpt lat="32.633895" lon="35.107375">
        <ele>230.0</ele>
        <time>2011-06-30T16:53:04Z</time>
      </trkpt>
      <trkpt lat="32.633885" lon="35.10745">
        <ele>231.0</ele>
        <time>2011-06-30T16:53:08Z</time>
      </trkpt>
      <trkpt lat="32.633863" lon="35.10753">
        <ele>232.0</ele>
        <time>2011-06-30T16:53:14Z</time>
      </trkpt>
      <trkpt lat="32.633868" lon="35.107611">
        <ele>230.0</ele>
        <time>2011-06-30T16:53:18Z</time>
      </trkpt>
      <trkpt lat="32.633831" lon="35.107675">
        <ele>235.0</ele>
        <time>2011-06-30T16:53:27Z</time>
      </trkpt>
      <trkpt lat="32.633767" lon="35.107691">
        <ele>234.0</ele>
        <time>2011-06-30T16:53:32Z</time>
      </trkpt>
      <trkpt lat="32.633697" lon="35.10767">
        <ele>234.0</ele>
        <time>2011-06-30T16:53:39Z</time>
      </trkpt>
      <trkpt lat="32.633632" lon="35.107664">
        <ele>234.0</ele>
        <time>2011-06-30T16:53:46Z</time>
      </trkpt>
      <trkpt lat="32.633504" lon="35.107681">
        <ele>236.0</ele>
        <time>2011-06-30T16:54:35Z</time>
      </trkpt>
      <trkpt lat="32.633429" lon="35.107579">
        <ele>229.0</ele>
        <time>2011-06-30T16:57:09Z</time>
      </trkpt>
      <trkpt lat="32.633359" lon="35.107445">
        <ele>228.0</ele>
        <time>2011-06-30T16:58:23Z</time>
      </trkpt>
      <trkpt lat="32.633343" lon="35.107246">
        <ele>228.0</ele>
        <time>2011-06-30T16:58:27Z</time>
      </trkpt>
      <trkpt lat="32.633391" lon="35.106989">
        <ele>226.0</ele>
        <time>2011-06-30T16:58:31Z</time>
      </trkpt>
      <trkpt lat="32.63338" lon="35.106812">
        <ele>225.0</ele>
        <time>2011-06-30T16:58:35Z</time>
      </trkpt>
      <trkpt lat="32.633321" lon="35.106667">
        <ele>225.0</ele>
        <time>2011-06-30T16:58:39Z</time>
      </trkpt>
      <trkpt lat="32.633311" lon="35.106554">
        <ele>225.0</ele>
        <time>2011-06-30T16:58:42Z</time>
      </trkpt>
      <trkpt lat="32.633284" lon="35.106447">
        <ele>222.0</ele>
        <time>2011-06-30T16:58:45Z</time>
      </trkpt>
      <trkpt lat="32.633262" lon="35.106366">
        <ele>221.0</ele>
        <time>2011-06-30T16:58:48Z</time>
      </trkpt>
      <trkpt lat="32.633235" lon="35.10627">
        <ele>221.0</ele>
        <time>2011-06-30T16:58:52Z</time>
      </trkpt>
      <trkpt lat="32.63323" lon="35.106082">
        <ele>221.0</ele>
        <time>2011-06-30T16:58:59Z</time>
      </trkpt>
      <trkpt lat="32.633235" lon="35.105975">
        <ele>221.0</ele>
        <time>2011-06-30T16:59:02Z</time>
      </trkpt>
      <trkpt lat="32.633225" lon="35.105798">
        <ele>220.0</ele>
        <time>2011-06-30T16:59:07Z</time>
      </trkpt>
      <trkpt lat="32.633203" lon="35.105701">
        <ele>219.0</ele>
        <time>2011-06-30T16:59:09Z</time>
      </trkpt>
      <trkpt lat="32.633139" lon="35.105647">
        <ele>217.0</ele>
        <time>2011-06-30T16:59:13Z</time>
      </trkpt>
      <trkpt lat="32.633064" lon="35.10568">
        <ele>217.0</ele>
        <time>2011-06-30T16:59:17Z</time>
      </trkpt>
      <trkpt lat="32.632983" lon="35.105835">
        <ele>217.0</ele>
        <time>2011-06-30T16:59:22Z</time>
      </trkpt>
      <trkpt lat="32.632919" lon="35.105985">
        <ele>216.0</ele>
        <time>2011-06-30T16:59:28Z</time>
      </trkpt>
      <trkpt lat="32.632876" lon="35.10605">
        <ele>218.0</ele>
        <time>2011-06-30T16:59:33Z</time>
      </trkpt>
      <trkpt lat="32.632849" lon="35.10612">
        <ele>218.0</ele>
        <time>2011-06-30T16:59:37Z</time>
      </trkpt>
      <trkpt lat="32.632812" lon="35.106184">
        <ele>219.0</ele>
        <time>2011-06-30T16:59:42Z</time>
      </trkpt>
      <trkpt lat="32.632769" lon="35.106243">
        <ele>218.0</ele>
        <time>2011-06-30T16:59:48Z</time>
      </trkpt>
      <trkpt lat="32.632801" lon="35.106398">
        <ele>206.0</ele>
        <time>2011-06-30T17:01:20Z</time>
      </trkpt>
      <trkpt lat="32.632763" lon="35.106468">
        <ele>209.0</ele>
        <time>2011-06-30T17:01:51Z</time>
      </trkpt>
      <trkpt lat="32.632694" lon="35.106511">
        <ele>210.0</ele>
        <time>2011-06-30T17:01:54Z</time>
      </trkpt>
      <trkpt lat="32.632645" lon="35.10657">
        <ele>213.0</ele>
        <time>2011-06-30T17:01:59Z</time>
      </trkpt>
      <trkpt lat="32.632613" lon="35.106634">
        <ele>214.0</ele>
        <time>2011-06-30T17:02:03Z</time>
      </trkpt>
      <trkpt lat="32.632576" lon="35.10671">
        <ele>214.0</ele>
        <time>2011-06-30T17:02:07Z</time>
      </trkpt>
      <trkpt lat="32.632533" lon="35.106774">
        <ele>218.0</ele>
        <time>2011-06-30T17:02:12Z</time>
      </trkpt>
      <trkpt lat="32.632501" lon="35.106849">
        <ele>219.0</ele>
        <time>2011-06-30T17:02:17Z</time>
      </trkpt>
      <trkpt lat="32.632399" lon="35.106994">
        <ele>220.0</ele>
        <time>2011-06-30T17:02:25Z</time>
      </trkpt>
      <trkpt lat="32.632372" lon="35.10709">
        <ele>220.0</ele>
        <time>2011-06-30T17:02:29Z</time>
      </trkpt>
      <trkpt lat="32.632222" lon="35.107327">
        <ele>220.0</ele>
        <time>2011-06-30T17:02:39Z</time>
      </trkpt>
      <trkpt lat="32.632168" lon="35.107412">
        <ele>220.0</ele>
        <time>2011-06-30T17:02:42Z</time>
      </trkpt>
      <trkpt lat="32.632125" lon="35.107487">
        <ele>220.0</ele>
        <time>2011-06-30T17:02:45Z</time>
      </trkpt>
      <trkpt lat="32.632071" lon="35.107584">
        <ele>222.0</ele>
        <time>2011-06-30T17:02:49Z</time>
      </trkpt>
      <trkpt lat="32.631894" lon="35.107804">
        <ele>219.0</ele>
        <time>2011-06-30T17:02:55Z</time>
      </trkpt>
      <trkpt lat="32.631755" lon="35.107965">
        <ele>217.0</ele>
        <time>2011-06-30T17:02:59Z</time>
      </trkpt>
      <trkpt lat="32.631631" lon="35.10812">
        <ele>218.0</ele>
        <time>2011-06-30T17:03:03Z</time>
      </trkpt>
      <trkpt lat="32.631471" lon="35.108271">
        <ele>217.0</ele>
        <time>2011-06-30T17:03:07Z</time>
      </trkpt>
      <trkpt lat="32.63139" lon="35.108415">
        <ele>215.0</ele>
        <time>2011-06-30T17:03:11Z</time>
      </trkpt>
      <trkpt lat="32.631299" lon="35.108474">
        <ele>215.0</ele>
        <time>2011-06-30T17:03:14Z</time>
      </trkpt>
      <trkpt lat="32.631138" lon="35.108555">
        <ele>215.0</ele>
        <time>2011-06-30T17:03:18Z</time>
      </trkpt>
      <trkpt lat="32.630939" lon="35.108673">
        <ele>213.0</ele>
        <time>2011-06-30T17:03:22Z</time>
      </trkpt>
      <trkpt lat="32.630746" lon="35.108743">
        <ele>212.0</ele>
        <time>2011-06-30T17:03:26Z</time>
      </trkpt>
      <trkpt lat="32.630569" lon="35.108893">
        <ele>208.0</ele>
        <time>2011-06-30T17:03:30Z</time>
      </trkpt>
      <trkpt lat="32.630301" lon="35.109043">
        <ele>206.0</ele>
        <time>2011-06-30T17:03:35Z</time>
      </trkpt>
      <trkpt lat="32.63006" lon="35.109193">
        <ele>205.0</ele>
        <time>2011-06-30T17:03:39Z</time>
      </trkpt>
      <trkpt lat="32.629877" lon="35.109333">
        <ele>202.0</ele>
        <time>2011-06-30T17:03:43Z</time>
      </trkpt>
      <trkpt lat="32.629749" lon="35.109472">
        <ele>200.0</ele>
        <time>2011-06-30T17:03:47Z</time>
      </trkpt>
      <trkpt lat="32.629647" lon="35.109585">
        <ele>199.0</ele>
        <time>2011-06-30T17:03:51Z</time>
      </trkpt>
      <trkpt lat="32.629539" lon="35.109703">
        <ele>199.0</ele>
        <time>2011-06-30T17:03:55Z</time>
      </trkpt>
      <trkpt lat="32.629416" lon="35.109859">
        <ele>198.0</ele>
        <time>2011-06-30T17:03:59Z</time>
      </trkpt>
      <trkpt lat="32.629309" lon="35.110041">
        <ele>197.0</ele>
        <time>2011-06-30T17:04:03Z</time>
      </trkpt>
      <trkpt lat="32.629212" lon="35.110223">
        <ele>198.0</ele>
        <time>2011-06-30T17:04:07Z</time>
      </trkpt>
      <trkpt lat="32.629218" lon="35.110298">
        <ele>200.0</ele>
        <time>2011-06-30T17:04:09Z</time>
      </trkpt>
      <trkpt lat="32.629319" lon="35.110459">
        <ele>202.0</ele>
        <time>2011-06-30T17:04:15Z</time>
      </trkpt>
      <trkpt lat="32.629373" lon="35.110513">
        <ele>201.0</ele>
        <time>2011-06-30T17:04:19Z</time>
      </trkpt>
      <trkpt lat="32.629427" lon="35.110561">
        <ele>202.0</ele>
        <time>2011-06-30T17:04:22Z</time>
      </trkpt>
      <trkpt lat="32.629582" lon="35.110819">
        <ele>203.0</ele>
        <time>2011-06-30T17:04:31Z</time>
      </trkpt>
      <trkpt lat="32.629695" lon="35.110921">
        <ele>202.0</ele>
        <time>2011-06-30T17:04:38Z</time>
      </trkpt>
      <trkpt lat="32.629754" lon="35.110974">
        <ele>202.0</ele>
        <time>2011-06-30T17:04:43Z</time>
      </trkpt>
      <trkpt lat="32.629797" lon="35.111039">
        <ele>204.0</ele>
        <time>2011-06-30T17:04:48Z</time>
      </trkpt>
      <trkpt lat="32.62984" lon="35.111114">
        <ele>206.0</ele>
        <time>2011-06-30T17:04:53Z</time>
      </trkpt>
      <trkpt lat="32.629888" lon="35.111178">
        <ele>206.0</ele>
        <time>2011-06-30T17:04:57Z</time>
      </trkpt>
      <trkpt lat="32.629942" lon="35.111243">
        <ele>206.0</ele>
        <time>2011-06-30T17:05:01Z</time>
      </trkpt>
      <trkpt lat="32.630124" lon="35.111382">
        <ele>206.0</ele>
        <time>2011-06-30T17:05:11Z</time>
      </trkpt>
      <trkpt lat="32.630253" lon="35.111452">
        <ele>206.0</ele>
        <time>2011-06-30T17:05:18Z</time>
      </trkpt>
      <trkpt lat="32.630328" lon="35.111479">
        <ele>207.0</ele>
        <time>2011-06-30T17:05:22Z</time>
      </trkpt>
      <trkpt lat="32.630398" lon="35.111527">
        <ele>207.0</ele>
        <time>2011-06-30T17:05:26Z</time>
      </trkpt>
      <trkpt lat="32.630521" lon="35.111597">
        <ele>207.0</ele>
        <time>2011-06-30T17:05:30Z</time>
      </trkpt>
      <trkpt lat="32.630677" lon="35.111575">
        <ele>209.0</ele>
        <time>2011-06-30T17:05:35Z</time>
      </trkpt>
      <trkpt lat="32.630746" lon="35.111554">
        <ele>209.0</ele>
        <time>2011-06-30T17:05:38Z</time>
      </trkpt>
      <trkpt lat="32.630821" lon="35.111532">
        <ele>208.0</ele>
        <time>2011-06-30T17:05:42Z</time>
      </trkpt>
      <trkpt lat="32.630945" lon="35.111409">
        <ele>209.0</ele>
        <time>2011-06-30T17:05:51Z</time>
      </trkpt>
      <trkpt lat="32.630988" lon="35.111339">
        <ele>211.0</ele>
        <time>2011-06-30T17:05:55Z</time>
      </trkpt>
      <trkpt lat="32.63102" lon="35.111264">
        <ele>214.0</ele>
        <time>2011-06-30T17:05:59Z</time>
      </trkpt>
      <trkpt lat="32.631047" lon="35.111184">
        <ele>215.0</ele>
        <time>2011-06-30T17:06:03Z</time>
      </trkpt>
      <trkpt lat="32.63109" lon="35.111125">
        <ele>214.0</ele>
        <time>2011-06-30T17:06:07Z</time>
      </trkpt>
      <trkpt lat="32.631133" lon="35.111049">
        <ele>213.0</ele>
        <time>2011-06-30T17:06:11Z</time>
      </trkpt>
      <trkpt lat="32.631176" lon="35.110974">
        <ele>213.0</ele>
        <time>2011-06-30T17:06:15Z</time>
      </trkpt>
      <trkpt lat="32.631218" lon="35.11091">
        <ele>213.0</ele>
        <time>2011-06-30T17:06:20Z</time>
      </trkpt>
      <trkpt lat="32.63132" lon="35.110787">
        <ele>214.0</ele>
        <time>2011-06-30T17:06:30Z</time>
      </trkpt>
      <trkpt lat="32.631406" lon="35.110647">
        <ele>213.0</ele>
        <time>2011-06-30T17:06:35Z</time>
      </trkpt>
      <trkpt lat="32.631454" lon="35.110572">
        <ele>213.0</ele>
        <time>2011-06-30T17:06:38Z</time>
      </trkpt>
      <trkpt lat="32.631594" lon="35.110406">
        <ele>215.0</ele>
        <time>2011-06-30T17:06:47Z</time>
      </trkpt>
      <trkpt lat="32.631648" lon="35.110325">
        <ele>216.0</ele>
        <time>2011-06-30T17:06:50Z</time>
      </trkpt>
      <trkpt lat="32.631691" lon="35.110255">
        <ele>216.0</ele>
        <time>2011-06-30T17:06:53Z</time>
      </trkpt>
      <trkpt lat="32.631739" lon="35.11018">
        <ele>214.0</ele>
        <time>2011-06-30T17:06:57Z</time>
      </trkpt>
      <trkpt lat="32.631825" lon="35.110009">
        <ele>215.0</ele>
        <time>2011-06-30T17:07:03Z</time>
      </trkpt>
      <trkpt lat="32.631889" lon="35.109939">
        <ele>215.0</ele>
        <time>2011-06-30T17:07:06Z</time>
      </trkpt>
      <trkpt lat="32.631948" lon="35.109848">
        <ele>214.0</ele>
        <time>2011-06-30T17:07:09Z</time>
      </trkpt>
      <trkpt lat="32.632007" lon="35.109655">
        <ele>214.0</ele>
        <time>2011-06-30T17:07:15Z</time>
      </trkpt>
      <trkpt lat="32.632039" lon="35.109574">
        <ele>214.0</ele>
        <time>2011-06-30T17:07:18Z</time>
      </trkpt>
      <trkpt lat="32.632087" lon="35.109526">
        <ele>216.0</ele>
        <time>2011-06-30T17:07:22Z</time>
      </trkpt>
      <trkpt lat="32.632146" lon="35.109445">
        <ele>216.0</ele>
        <time>2011-06-30T17:07:26Z</time>
      </trkpt>
      <trkpt lat="32.632179" lon="35.10937">
        <ele>219.0</ele>
        <time>2011-06-30T17:07:29Z</time>
      </trkpt>
      <trkpt lat="32.632205" lon="35.109285">
        <ele>220.0</ele>
        <time>2011-06-30T17:07:33Z</time>
      </trkpt>
      <trkpt lat="32.632243" lon="35.109209">
        <ele>219.0</ele>
        <time>2011-06-30T17:07:37Z</time>
      </trkpt>
      <trkpt lat="32.632361" lon="35.109091">
        <ele>217.0</ele>
        <time>2011-06-30T17:07:45Z</time>
      </trkpt>
      <trkpt lat="32.632409" lon="35.109043">
        <ele>216.0</ele>
        <time>2011-06-30T17:07:49Z</time>
      </trkpt>
      <trkpt lat="32.63249" lon="35.109016">
        <ele>217.0</ele>
        <time>2011-06-30T17:07:52Z</time>
      </trkpt>
      <trkpt lat="32.632624" lon="35.108979">
        <ele>218.0</ele>
        <time>2011-06-30T17:07:59Z</time>
      </trkpt>
      <trkpt lat="32.632763" lon="35.108904">
        <ele>219.0</ele>
        <time>2011-06-30T17:08:07Z</time>
      </trkpt>
      <trkpt lat="32.632844" lon="35.108888">
        <ele>219.0</ele>
        <time>2011-06-30T17:08:10Z</time>
      </trkpt>
      <trkpt lat="32.632914" lon="35.108882">
        <ele>218.0</ele>
        <time>2011-06-30T17:08:15Z</time>
      </trkpt>
      <trkpt lat="32.633075" lon="35.108834">
        <ele>217.0</ele>
        <time>2011-06-30T17:08:22Z</time>
      </trkpt>
      <trkpt lat="32.633214" lon="35.108807">
        <ele>219.0</ele>
        <time>2011-06-30T17:08:27Z</time>
      </trkpt>
      <trkpt lat="32.633289" lon="35.108796">
        <ele>218.0</ele>
        <time>2011-06-30T17:08:30Z</time>
      </trkpt>
      <trkpt lat="32.633353" lon="35.108791">
        <ele>217.0</ele>
        <time>2011-06-30T17:08:33Z</time>
      </trkpt>
      <trkpt lat="32.633423" lon="35.108796">
        <ele>217.0</ele>
        <time>2011-06-30T17:08:37Z</time>
      </trkpt>
      <trkpt lat="32.633563" lon="35.108732">
        <ele>215.0</ele>
        <time>2011-06-30T17:08:43Z</time>
      </trkpt>
      <trkpt lat="32.633702" lon="35.1087">
        <ele>218.0</ele>
        <time>2011-06-30T17:08:50Z</time>
      </trkpt>
      <trkpt lat="32.633767" lon="35.108668">
        <ele>220.0</ele>
        <time>2011-06-30T17:08:54Z</time>
      </trkpt>
      <trkpt lat="32.633842" lon="35.108635">
        <ele>220.0</ele>
        <time>2011-06-30T17:08:57Z</time>
      </trkpt>
      <trkpt lat="32.633917" lon="35.108635">
        <ele>222.0</ele>
        <time>2011-06-30T17:09:01Z</time>
      </trkpt>
      <trkpt lat="32.634056" lon="35.108566">
        <ele>219.0</ele>
        <time>2011-06-30T17:09:07Z</time>
      </trkpt>
      <trkpt lat="32.634249" lon="35.108437">
        <ele>223.0</ele>
        <time>2011-06-30T17:09:15Z</time>
      </trkpt>
      <trkpt lat="32.634303" lon="35.108373">
        <ele>224.0</ele>
        <time>2011-06-30T17:09:19Z</time>
      </trkpt>
      <trkpt lat="32.634308" lon="35.108281">
        <ele>226.0</ele>
        <time>2011-06-30T17:09:22Z</time>
      </trkpt>
      <trkpt lat="32.634335" lon="35.10811">
        <ele>227.0</ele>
        <time>2011-06-30T17:09:29Z</time>
      </trkpt>
      <trkpt lat="32.634335" lon="35.108002">
        <ele>225.0</ele>
        <time>2011-06-30T17:09:32Z</time>
      </trkpt>
      <trkpt lat="32.634287" lon="35.107927">
        <ele>223.0</ele>
        <time>2011-06-30T17:09:37Z</time>
      </trkpt>
      <trkpt lat="32.634228" lon="35.107766">
        <ele>230.0</ele>
        <time>2011-06-30T17:09:47Z</time>
      </trkpt>
      <trkpt lat="32.634223" lon="35.107681">
        <ele>228.0</ele>
        <time>2011-06-30T17:09:50Z</time>
      </trkpt>
      <trkpt lat="32.634201" lon="35.107589">
        <ele>227.0</ele>
        <time>2011-06-30T17:09:54Z</time>
      </trkpt>
      <trkpt lat="32.634163" lon="35.107428">
        <ele>225.0</ele>
        <time>2011-06-30T17:10:01Z</time>
      </trkpt>
      <trkpt lat="32.634158" lon="35.107348">
        <ele>225.0</ele>
        <time>2011-06-30T17:10:05Z</time>
      </trkpt>
      <trkpt lat="32.634131" lon="35.107267">
        <ele>227.0</ele>
        <time>2011-06-30T17:10:08Z</time>
      </trkpt>
      <trkpt lat="32.634088" lon="35.107187">
        <ele>227.0</ele>
        <time>2011-06-30T17:10:12Z</time>
      </trkpt>
      <trkpt lat="32.634056" lon="35.107026">
        <ele>223.0</ele>
        <time>2011-06-30T17:10:19Z</time>
      </trkpt>
      <trkpt lat="32.634035" lon="35.106946">
        <ele>223.0</ele>
        <time>2011-06-30T17:10:23Z</time>
      </trkpt>
      <trkpt lat="32.633997" lon="35.106871">
        <ele>220.0</ele>
        <time>2011-06-30T17:10:27Z</time>
      </trkpt>
      <trkpt lat="32.633933" lon="35.106736">
        <ele>221.0</ele>
        <time>2011-06-30T17:10:33Z</time>
      </trkpt>
      <trkpt lat="32.633863" lon="35.106549">
        <ele>220.0</ele>
        <time>2011-06-30T17:10:39Z</time>
      </trkpt>
      <trkpt lat="32.633831" lon="35.106452">
        <ele>221.0</ele>
        <time>2011-06-30T17:10:42Z</time>
      </trkpt>
      <trkpt lat="32.633826" lon="35.106366">
        <ele>222.0</ele>
        <time>2011-06-30T17:10:45Z</time>
      </trkpt>
      <trkpt lat="32.633804" lon="35.106179">
        <ele>223.0</ele>
        <time>2011-06-30T17:10:50Z</time>
      </trkpt>
      <trkpt lat="32.633761" lon="35.106077">
        <ele>223.0</ele>
        <time>2011-06-30T17:10:53Z</time>
      </trkpt>
      <trkpt lat="32.63374" lon="35.106001">
        <ele>225.0</ele>
        <time>2011-06-30T17:10:58Z</time>
      </trkpt>
      <trkpt lat="32.633734" lon="35.105921">
        <ele>226.0</ele>
        <time>2011-06-30T17:11:02Z</time>
      </trkpt>
      <trkpt lat="32.633756" lon="35.10583">
        <ele>226.0</ele>
        <time>2011-06-30T17:11:06Z</time>
      </trkpt>
      <trkpt lat="32.633772" lon="35.105653">
        <ele>228.0</ele>
        <time>2011-06-30T17:11:11Z</time>
      </trkpt>
      <trkpt lat="32.633761" lon="35.105454">
        <ele>222.0</ele>
        <time>2011-06-30T17:11:16Z</time>
      </trkpt>
      <trkpt lat="32.633643" lon="35.105267">
        <ele>215.0</ele>
        <time>2011-06-30T17:11:20Z</time>
      </trkpt>
      <trkpt lat="32.633541" lon="35.105084">
        <ele>207.0</ele>
        <time>2011-06-30T17:11:24Z</time>
      </trkpt>
      <trkpt lat="32.633488" lon="35.105031">
        <ele>205.0</ele>
        <time>2011-06-30T17:11:26Z</time>
      </trkpt>
      <trkpt lat="32.633219" lon="35.105014">
        <ele>202.0</ele>
        <time>2011-06-30T17:11:32Z</time>
      </trkpt>
      <trkpt lat="32.633064" lon="35.105052">
        <ele>207.0</ele>
        <time>2011-06-30T17:11:36Z</time>
      </trkpt>
      <trkpt lat="32.632962" lon="35.105165">
        <ele>207.0</ele>
        <time>2011-06-30T17:11:40Z</time>
      </trkpt>
      <trkpt lat="32.632919" lon="35.105234">
        <ele>207.0</ele>
        <time>2011-06-30T17:11:42Z</time>
      </trkpt>
      <trkpt lat="32.632855" lon="35.105309">
        <ele>206.0</ele>
        <time>2011-06-30T17:11:45Z</time>
      </trkpt>
      <trkpt lat="32.63272" lon="35.105374">
        <ele>204.0</ele>
        <time>2011-06-30T17:11:51Z</time>
      </trkpt>
      <trkpt lat="32.632597" lon="35.105406">
        <ele>203.0</ele>
        <time>2011-06-30T17:11:59Z</time>
      </trkpt>
      <trkpt lat="32.632479" lon="35.105546">
        <ele>202.0</ele>
        <time>2011-06-30T17:12:04Z</time>
      </trkpt>
      <trkpt lat="32.632436" lon="35.105647">
        <ele>202.0</ele>
        <time>2011-06-30T17:12:06Z</time>
      </trkpt>
      <trkpt lat="32.632275" lon="35.105819">
        <ele>200.0</ele>
        <time>2011-06-30T17:12:10Z</time>
      </trkpt>
      <trkpt lat="32.632098" lon="35.106082">
        <ele>199.0</ele>
        <time>2011-06-30T17:12:15Z</time>
      </trkpt>
      <trkpt lat="32.631964" lon="35.106259">
        <ele>201.0</ele>
        <time>2011-06-30T17:12:19Z</time>
      </trkpt>
      <trkpt lat="32.631905" lon="35.106431">
        <ele>200.0</ele>
        <time>2011-06-30T17:12:23Z</time>
      </trkpt>
      <trkpt lat="32.631825" lon="35.106592">
        <ele>198.0</ele>
        <time>2011-06-30T17:12:27Z</time>
      </trkpt>
      <trkpt lat="32.63175" lon="35.106667">
        <ele>197.0</ele>
        <time>2011-06-30T17:12:29Z</time>
      </trkpt>
      <trkpt lat="32.631551" lon="35.106876">
        <ele>199.0</ele>
        <time>2011-06-30T17:12:35Z</time>
      </trkpt>
      <trkpt lat="32.631444" lon="35.107005">
        <ele>201.0</ele>
        <time>2011-06-30T17:12:37Z</time>
      </trkpt>
      <trkpt lat="32.631294" lon="35.1073">
        <ele>200.0</ele>
        <time>2011-06-30T17:12:43Z</time>
      </trkpt>
      <trkpt lat="32.631245" lon="35.107353">
        <ele>199.0</ele>
        <time>2011-06-30T17:12:45Z</time>
      </trkpt>
      <trkpt lat="32.6311" lon="35.107605">
        <ele>196.0</ele>
        <time>2011-06-30T17:12:51Z</time>
      </trkpt>
      <trkpt lat="32.630945" lon="35.107788">
        <ele>195.0</ele>
        <time>2011-06-30T17:12:55Z</time>
      </trkpt>
      <trkpt lat="32.630736" lon="35.107938">
        <ele>196.0</ele>
        <time>2011-06-30T17:12:59Z</time>
      </trkpt>
      <trkpt lat="32.630585" lon="35.108056">
        <ele>197.0</ele>
        <time>2011-06-30T17:13:03Z</time>
      </trkpt>
      <trkpt lat="32.63051" lon="35.10811">
        <ele>197.0</ele>
        <time>2011-06-30T17:13:05Z</time>
      </trkpt>
      <trkpt lat="32.630398" lon="35.108233">
        <ele>197.0</ele>
        <time>2011-06-30T17:13:11Z</time>
      </trkpt>
      <trkpt lat="32.630344" lon="35.108276">
        <ele>193.0</ele>
        <time>2011-06-30T17:13:24Z</time>
      </trkpt>
      <trkpt lat="32.630205" lon="35.108399">
        <ele>190.0</ele>
        <time>2011-06-30T17:13:39Z</time>
      </trkpt>
      <trkpt lat="32.630087" lon="35.108512">
        <ele>189.0</ele>
        <time>2011-06-30T17:13:43Z</time>
      </trkpt>
      <trkpt lat="32.630011" lon="35.10856">
        <ele>189.0</ele>
        <time>2011-06-30T17:13:45Z</time>
      </trkpt>
      <trkpt lat="32.629947" lon="35.108619">
        <ele>189.0</ele>
        <time>2011-06-30T17:13:48Z</time>
      </trkpt>
      <trkpt lat="32.629883" lon="35.108646">
        <ele>197.0</ele>
        <time>2011-06-30T17:13:56Z</time>
      </trkpt>
      <trkpt lat="32.629824" lon="35.108684">
        <ele>197.0</ele>
        <time>2011-06-30T17:14:02Z</time>
      </trkpt>
      <trkpt lat="32.629765" lon="35.108732">
        <ele>197.0</ele>
        <time>2011-06-30T17:14:11Z</time>
      </trkpt>
      <trkpt lat="32.629647" lon="35.108823">
        <ele>194.0</ele>
        <time>2011-06-30T17:14:26Z</time>
      </trkpt>
      <trkpt lat="32.629641" lon="35.108904">
        <ele>193.0</ele>
        <time>2011-06-30T17:14:31Z</time>
      </trkpt>
      <trkpt lat="32.629598" lon="35.108968">
        <ele>191.0</ele>
        <time>2011-06-30T17:14:36Z</time>
      </trkpt>
      <trkpt lat="32.629545" lon="35.109016">
        <ele>191.0</ele>
        <time>2011-06-30T17:14:43Z</time>
      </trkpt>
      <trkpt lat="32.629529" lon="35.109091">
        <ele>184.0</ele>
        <time>2011-06-30T17:15:21Z</time>
      </trkpt>
      <trkpt lat="32.629405" lon="35.109177">
        <ele>181.0</ele>
        <time>2011-06-30T17:31:43Z</time>
      </trkpt>
      <trkpt lat="32.629346" lon="35.109226">
        <ele>182.0</ele>
        <time>2011-06-30T17:31:48Z</time>
      </trkpt>
      <trkpt lat="32.629282" lon="35.109263">
        <ele>184.0</ele>
        <time>2011-06-30T17:31:52Z</time>
      </trkpt>
      <trkpt lat="32.629148" lon="35.109333">
        <ele>184.0</ele>
        <time>2011-06-30T17:31:57Z</time>
      </trkpt>
      <trkpt lat="32.629035" lon="35.109456">
        <ele>186.0</ele>
        <time>2011-06-30T17:32:02Z</time>
      </trkpt>
      <trkpt lat="32.628917" lon="35.109574">
        <ele>186.0</ele>
        <time>2011-06-30T17:32:06Z</time>
      </trkpt>
      <trkpt lat="32.628804" lon="35.109703">
        <ele>184.0</ele>
        <time>2011-06-30T17:32:10Z</time>
      </trkpt>
      <trkpt lat="32.628713" lon="35.109885">
        <ele>182.0</ele>
        <time>2011-06-30T17:32:14Z</time>
      </trkpt>
      <trkpt lat="32.628644" lon="35.110046">
        <ele>181.0</ele>
        <time>2011-06-30T17:32:19Z</time>
      </trkpt>
      <trkpt lat="32.628601" lon="35.110105">
        <ele>179.0</ele>
        <time>2011-06-30T17:32:22Z</time>
      </trkpt>
      <trkpt lat="32.628542" lon="35.110078">
        <ele>176.0</ele>
        <time>2011-06-30T17:32:27Z</time>
      </trkpt>
      <trkpt lat="32.628536" lon="35.110003">
        <ele>175.0</ele>
        <time>2011-06-30T17:32:30Z</time>
      </trkpt>
      <trkpt lat="32.628547" lon="35.109928">
        <ele>174.0</ele>
        <time>2011-06-30T17:32:33Z</time>
      </trkpt>
      <trkpt lat="32.628579" lon="35.109762">
        <ele>174.0</ele>
        <time>2011-06-30T17:32:40Z</time>
      </trkpt>
      <trkpt lat="32.628681" lon="35.109526">
        <ele>175.0</ele>
        <time>2011-06-30T17:32:47Z</time>
      </trkpt>
      <trkpt lat="32.628778" lon="35.109349">
        <ele>176.0</ele>
        <time>2011-06-30T17:32:51Z</time>
      </trkpt>
      <trkpt lat="32.628847" lon="35.109193">
        <ele>176.0</ele>
        <time>2011-06-30T17:32:55Z</time>
      </trkpt>
      <trkpt lat="32.628928" lon="35.109027">
        <ele>175.0</ele>
        <time>2011-06-30T17:32:59Z</time>
      </trkpt>
      <trkpt lat="32.62904" lon="35.108866">
        <ele>175.0</ele>
        <time>2011-06-30T17:33:03Z</time>
      </trkpt>
      <trkpt lat="32.629126" lon="35.108705">
        <ele>175.0</ele>
        <time>2011-06-30T17:33:07Z</time>
      </trkpt>
      <trkpt lat="32.629239" lon="35.10855">
        <ele>175.0</ele>
        <time>2011-06-30T17:33:11Z</time>
      </trkpt>
      <trkpt lat="32.629352" lon="35.108389">
        <ele>175.0</ele>
        <time>2011-06-30T17:33:15Z</time>
      </trkpt>
      <trkpt lat="32.629491" lon="35.108249">
        <ele>174.0</ele>
        <time>2011-06-30T17:33:19Z</time>
      </trkpt>
      <trkpt lat="32.629566" lon="35.108201">
        <ele>173.0</ele>
        <time>2011-06-30T17:33:22Z</time>
      </trkpt>
      <trkpt lat="32.62969" lon="35.108067">
        <ele>173.0</ele>
        <time>2011-06-30T17:33:26Z</time>
      </trkpt>
      <trkpt lat="32.629834" lon="35.107976">
        <ele>171.0</ele>
        <time>2011-06-30T17:33:30Z</time>
      </trkpt>
      <trkpt lat="32.629877" lon="35.107901">
        <ele>171.0</ele>
        <time>2011-06-30T17:33:33Z</time>
      </trkpt>
      <trkpt lat="32.629979" lon="35.10774">
        <ele>172.0</ele>
        <time>2011-06-30T17:33:39Z</time>
      </trkpt>
      <trkpt lat="32.630038" lon="35.107681">
        <ele>171.0</ele>
        <time>2011-06-30T17:33:42Z</time>
      </trkpt>
      <trkpt lat="32.630103" lon="35.107627">
        <ele>171.0</ele>
        <time>2011-06-30T17:33:44Z</time>
      </trkpt>
      <trkpt lat="32.630215" lon="35.107482">
        <ele>168.0</ele>
        <time>2011-06-30T17:33:51Z</time>
      </trkpt>
      <trkpt lat="32.630312" lon="35.10731">
        <ele>166.0</ele>
        <time>2011-06-30T17:33:55Z</time>
      </trkpt>
      <trkpt lat="32.630376" lon="35.107155">
        <ele>160.0</ele>
        <time>2011-06-30T17:33:59Z</time>
      </trkpt>
      <trkpt lat="32.629915" lon="35.107375">
        <ele>158.0</ele>
        <time>2011-06-30T17:34:07Z</time>
      </trkpt>
      <trkpt lat="32.629496" lon="35.107691">
        <ele>151.0</ele>
        <time>2011-06-30T17:34:11Z</time>
      </trkpt>
      <trkpt lat="32.629287" lon="35.107863">
        <ele>149.0</ele>
        <time>2011-06-30T17:34:14Z</time>
      </trkpt>
      <trkpt lat="32.629148" lon="35.107901">
        <ele>147.0</ele>
        <time>2011-06-30T17:34:18Z</time>
      </trkpt>
      <trkpt lat="32.628874" lon="35.107686">
        <ele>145.0</ele>
        <time>2011-06-30T17:34:23Z</time>
      </trkpt>
      <trkpt lat="32.628713" lon="35.107514">
        <ele>141.0</ele>
        <time>2011-06-30T17:34:27Z</time>
      </trkpt>
      <trkpt lat="32.628649" lon="35.10745">
        <ele>140.0</ele>
        <time>2011-06-30T17:34:30Z</time>
      </trkpt>
      <trkpt lat="32.628595" lon="35.107391">
        <ele>139.0</ele>
        <time>2011-06-30T17:34:33Z</time>
      </trkpt>
      <trkpt lat="32.628536" lon="35.107353">
        <ele>139.0</ele>
        <time>2011-06-30T17:34:37Z</time>
      </trkpt>
      <trkpt lat="32.628461" lon="35.107359">
        <ele>138.0</ele>
        <time>2011-06-30T17:34:41Z</time>
      </trkpt>
      <trkpt lat="32.628327" lon="35.107439">
        <ele>138.0</ele>
        <time>2011-06-30T17:34:48Z</time>
      </trkpt>
      <trkpt lat="32.628214" lon="35.107568">
        <ele>138.0</ele>
        <time>2011-06-30T17:34:54Z</time>
      </trkpt>
      <trkpt lat="32.628155" lon="35.107627">
        <ele>138.0</ele>
        <time>2011-06-30T17:34:57Z</time>
      </trkpt>
      <trkpt lat="32.628059" lon="35.107761">
        <ele>138.0</ele>
        <time>2011-06-30T17:35:02Z</time>
      </trkpt>
      <trkpt lat="32.627957" lon="35.107879">
        <ele>138.0</ele>
        <time>2011-06-30T17:35:06Z</time>
      </trkpt>
      <trkpt lat="32.627876" lon="35.10804">
        <ele>137.0</ele>
        <time>2011-06-30T17:35:10Z</time>
      </trkpt>
      <trkpt lat="32.627769" lon="35.108147">
        <ele>137.0</ele>
        <time>2011-06-30T17:35:14Z</time>
      </trkpt>
      <trkpt lat="32.62764" lon="35.108271">
        <ele>137.0</ele>
        <time>2011-06-30T17:35:18Z</time>
      </trkpt>
      <trkpt lat="32.627533" lon="35.108399">
        <ele>137.0</ele>
        <time>2011-06-30T17:35:23Z</time>
      </trkpt>
      <trkpt lat="32.627458" lon="35.108464">
        <ele>137.0</ele>
        <time>2011-06-30T17:35:26Z</time>
      </trkpt>
      <trkpt lat="32.62741" lon="35.108512">
        <ele>137.0</ele>
        <time>2011-06-30T17:35:29Z</time>
      </trkpt>
      <trkpt lat="32.627356" lon="35.108593">
        <ele>137.0</ele>
        <time>2011-06-30T17:35:33Z</time>
      </trkpt>
      <trkpt lat="32.627329" lon="35.108662">
        <ele>137.0</ele>
        <time>2011-06-30T17:35:37Z</time>
      </trkpt>
      <trkpt lat="32.627265" lon="35.108711">
        <ele>137.0</ele>
        <time>2011-06-30T17:35:41Z</time>
      </trkpt>
      <trkpt lat="32.627195" lon="35.108861">
        <ele>138.0</ele>
        <time>2011-06-30T17:35:47Z</time>
      </trkpt>
      <trkpt lat="32.627125" lon="35.109006">
        <ele>137.0</ele>
        <time>2011-06-30T17:35:51Z</time>
      </trkpt>
      <trkpt lat="32.627023" lon="35.109209">
        <ele>138.0</ele>
        <time>2011-06-30T17:35:55Z</time>
      </trkpt>
      <trkpt lat="32.626927" lon="35.109397">
        <ele>137.0</ele>
        <time>2011-06-30T17:35:59Z</time>
      </trkpt>
      <trkpt lat="32.626852" lon="35.10958">
        <ele>137.0</ele>
        <time>2011-06-30T17:36:03Z</time>
      </trkpt>
      <trkpt lat="32.62683" lon="35.109665">
        <ele>137.0</ele>
        <time>2011-06-30T17:36:05Z</time>
      </trkpt>
      <trkpt lat="32.626761" lon="35.109864">
        <ele>137.0</ele>
        <time>2011-06-30T17:36:11Z</time>
      </trkpt>
      <trkpt lat="32.626766" lon="35.10996">
        <ele>136.0</ele>
        <time>2011-06-30T17:36:14Z</time>
      </trkpt>
      <trkpt lat="32.626766" lon="35.110057">
        <ele>136.0</ele>
        <time>2011-06-30T17:36:17Z</time>
      </trkpt>
      <trkpt lat="32.626777" lon="35.110234">
        <ele>137.0</ele>
        <time>2011-06-30T17:36:23Z</time>
      </trkpt>
      <trkpt lat="32.626793" lon="35.110314">
        <ele>137.0</ele>
        <time>2011-06-30T17:36:26Z</time>
      </trkpt>
      <trkpt lat="32.626755" lon="35.110411">
        <ele>138.0</ele>
        <time>2011-06-30T17:36:29Z</time>
      </trkpt>
      <trkpt lat="32.626718" lon="35.110593">
        <ele>138.0</ele>
        <time>2011-06-30T17:36:35Z</time>
      </trkpt>
      <trkpt lat="32.626723" lon="35.110674">
        <ele>137.0</ele>
        <time>2011-06-30T17:36:38Z</time>
      </trkpt>
      <trkpt lat="32.626696" lon="35.110744">
        <ele>138.0</ele>
        <time>2011-06-30T17:36:41Z</time>
      </trkpt>
      <trkpt lat="32.62668" lon="35.110926">
        <ele>139.0</ele>
        <time>2011-06-30T17:36:47Z</time>
      </trkpt>
      <trkpt lat="32.62668" lon="35.111001">
        <ele>143.0</ele>
        <time>2011-06-30T17:36:51Z</time>
      </trkpt>
      <trkpt lat="32.626648" lon="35.111066">
        <ele>146.0</ele>
        <time>2011-06-30T17:36:55Z</time>
      </trkpt>
      <trkpt lat="32.626573" lon="35.111114">
        <ele>150.0</ele>
        <time>2011-06-30T17:36:59Z</time>
      </trkpt>
      <trkpt lat="32.626498" lon="35.111141">
        <ele>151.0</ele>
        <time>2011-06-30T17:37:02Z</time>
      </trkpt>
      <trkpt lat="32.626428" lon="35.111189">
        <ele>153.0</ele>
        <time>2011-06-30T17:37:07Z</time>
      </trkpt>
      <trkpt lat="32.626358" lon="35.111221">
        <ele>156.0</ele>
        <time>2011-06-30T17:37:13Z</time>
      </trkpt>
      <trkpt lat="32.626305" lon="35.111275">
        <ele>157.0</ele>
        <time>2011-06-30T17:37:20Z</time>
      </trkpt>
      <trkpt lat="32.626208" lon="35.111414">
        <ele>157.0</ele>
        <time>2011-06-30T17:37:27Z</time>
      </trkpt>
      <trkpt lat="32.626138" lon="35.111457">
        <ele>158.0</ele>
        <time>2011-06-30T17:37:31Z</time>
      </trkpt>
      <trkpt lat="32.626079" lon="35.111484">
        <ele>159.0</ele>
        <time>2011-06-30T17:37:35Z</time>
      </trkpt>
      <trkpt lat="32.62587" lon="35.111527">
        <ele>165.0</ele>
        <time>2011-06-30T17:37:53Z</time>
      </trkpt>
      <trkpt lat="32.625795" lon="35.111586">
        <ele>166.0</ele>
        <time>2011-06-30T17:37:59Z</time>
      </trkpt>
      <trkpt lat="32.62572" lon="35.111575">
        <ele>166.0</ele>
        <time>2011-06-30T17:38:03Z</time>
      </trkpt>
      <trkpt lat="32.62565" lon="35.111602">
        <ele>166.0</ele>
        <time>2011-06-30T17:38:07Z</time>
      </trkpt>
      <trkpt lat="32.625591" lon="35.111645">
        <ele>167.0</ele>
        <time>2011-06-30T17:38:12Z</time>
      </trkpt>
      <trkpt lat="32.625532" lon="35.111672">
        <ele>168.0</ele>
        <time>2011-06-30T17:38:18Z</time>
      </trkpt>
      <trkpt lat="32.625462" lon="35.111682">
        <ele>168.0</ele>
        <time>2011-06-30T17:38:23Z</time>
      </trkpt>
      <trkpt lat="32.625387" lon="35.11165">
        <ele>169.0</ele>
        <time>2011-06-30T17:38:27Z</time>
      </trkpt>
      <trkpt lat="32.625323" lon="35.111656">
        <ele>171.0</ele>
        <time>2011-06-30T17:38:32Z</time>
      </trkpt>
      <trkpt lat="32.625253" lon="35.111682">
        <ele>174.0</ele>
        <time>2011-06-30T17:38:37Z</time>
      </trkpt>
      <trkpt lat="32.6252" lon="35.111731">
        <ele>176.0</ele>
        <time>2011-06-30T17:38:46Z</time>
      </trkpt>
      <trkpt lat="32.625124" lon="35.111731">
        <ele>177.0</ele>
        <time>2011-06-30T17:38:50Z</time>
      </trkpt>
      <trkpt lat="32.625055" lon="35.111768">
        <ele>176.0</ele>
        <time>2011-06-30T17:38:54Z</time>
      </trkpt>
      <trkpt lat="32.624996" lon="35.111806">
        <ele>177.0</ele>
        <time>2011-06-30T17:38:58Z</time>
      </trkpt>
      <trkpt lat="32.624937" lon="35.111849">
        <ele>178.0</ele>
        <time>2011-06-30T17:39:02Z</time>
      </trkpt>
      <trkpt lat="32.624872" lon="35.111902">
        <ele>176.0</ele>
        <time>2011-06-30T17:39:06Z</time>
      </trkpt>
      <trkpt lat="32.624792" lon="35.111913">
        <ele>176.0</ele>
        <time>2011-06-30T17:39:14Z</time>
      </trkpt>
      <trkpt lat="32.624733" lon="35.111972">
        <ele>173.0</ele>
        <time>2011-06-30T17:39:25Z</time>
      </trkpt>
      <trkpt lat="32.62469" lon="35.112042">
        <ele>176.0</ele>
        <time>2011-06-30T17:39:31Z</time>
      </trkpt>
      <trkpt lat="32.624652" lon="35.112106">
        <ele>176.0</ele>
        <time>2011-06-30T17:39:36Z</time>
      </trkpt>
      <trkpt lat="32.624465" lon="35.112267">
        <ele>176.0</ele>
        <time>2011-06-30T17:39:51Z</time>
      </trkpt>
      <trkpt lat="32.624422" lon="35.112326">
        <ele>178.0</ele>
        <time>2011-06-30T17:39:59Z</time>
      </trkpt>
      <trkpt lat="32.62439" lon="35.112391">
        <ele>177.0</ele>
        <time>2011-06-30T17:40:04Z</time>
      </trkpt>
      <trkpt lat="32.624347" lon="35.112455">
        <ele>175.0</ele>
        <time>2011-06-30T17:40:09Z</time>
      </trkpt>
      <trkpt lat="32.624202" lon="35.112605">
        <ele>175.0</ele>
        <time>2011-06-30T17:40:22Z</time>
      </trkpt>
      <trkpt lat="32.624218" lon="35.112691">
        <ele>180.0</ele>
        <time>2011-06-30T17:40:27Z</time>
      </trkpt>
      <trkpt lat="32.62417" lon="35.112761">
        <ele>180.0</ele>
        <time>2011-06-30T17:40:33Z</time>
      </trkpt>
      <trkpt lat="32.624111" lon="35.11283">
        <ele>182.0</ele>
        <time>2011-06-30T17:40:39Z</time>
      </trkpt>
      <trkpt lat="32.624052" lon="35.112895">
        <ele>183.0</ele>
        <time>2011-06-30T17:40:44Z</time>
      </trkpt>
      <trkpt lat="32.624019" lon="35.11297">
        <ele>184.0</ele>
        <time>2011-06-30T17:40:49Z</time>
      </trkpt>
      <trkpt lat="32.623928" lon="35.113083">
        <ele>183.0</ele>
        <time>2011-06-30T17:41:01Z</time>
      </trkpt>
      <trkpt lat="32.62388" lon="35.113131">
        <ele>180.0</ele>
        <time>2011-06-30T17:41:06Z</time>
      </trkpt>
      <trkpt lat="32.623821" lon="35.113174">
        <ele>183.0</ele>
        <time>2011-06-30T17:41:15Z</time>
      </trkpt>
      <trkpt lat="32.623746" lon="35.113201">
        <ele>185.0</ele>
        <time>2011-06-30T17:41:21Z</time>
      </trkpt>
      <trkpt lat="32.623692" lon="35.113254">
        <ele>187.0</ele>
        <time>2011-06-30T17:41:26Z</time>
      </trkpt>
      <trkpt lat="32.623655" lon="35.11334">
        <ele>187.0</ele>
        <time>2011-06-30T17:41:31Z</time>
      </trkpt>
      <trkpt lat="32.623606" lon="35.113388">
        <ele>185.0</ele>
        <time>2011-06-30T17:41:35Z</time>
      </trkpt>
      <trkpt lat="32.623569" lon="35.113469">
        <ele>181.0</ele>
        <time>2011-06-30T17:41:38Z</time>
      </trkpt>
      <trkpt lat="32.623531" lon="35.113549">
        <ele>181.0</ele>
        <time>2011-06-30T17:41:45Z</time>
      </trkpt>
      <trkpt lat="32.623483" lon="35.113598">
        <ele>183.0</ele>
        <time>2011-06-30T17:41:51Z</time>
      </trkpt>
      <trkpt lat="32.623435" lon="35.113651">
        <ele>188.0</ele>
        <time>2011-06-30T17:41:58Z</time>
      </trkpt>
      <trkpt lat="32.623376" lon="35.113721">
        <ele>190.0</ele>
        <time>2011-06-30T17:42:03Z</time>
      </trkpt>
      <trkpt lat="32.623338" lon="35.113785">
        <ele>189.0</ele>
        <time>2011-06-30T17:42:08Z</time>
      </trkpt>
      <trkpt lat="32.623199" lon="35.113828">
        <ele>187.0</ele>
        <time>2011-06-30T17:42:17Z</time>
      </trkpt>
      <trkpt lat="32.623134" lon="35.113817">
        <ele>189.0</ele>
        <time>2011-06-30T17:42:23Z</time>
      </trkpt>
      <trkpt lat="32.623065" lon="35.113834">
        <ele>190.0</ele>
        <time>2011-06-30T17:42:28Z</time>
      </trkpt>
      <trkpt lat="32.622995" lon="35.113834">
        <ele>191.0</ele>
        <time>2011-06-30T17:42:33Z</time>
      </trkpt>
      <trkpt lat="32.622855" lon="35.113807">
        <ele>193.0</ele>
        <time>2011-06-30T17:42:45Z</time>
      </trkpt>
      <trkpt lat="32.62278" lon="35.113807">
        <ele>194.0</ele>
        <time>2011-06-30T17:42:50Z</time>
      </trkpt>
      <trkpt lat="32.622705" lon="35.113828">
        <ele>194.0</ele>
        <time>2011-06-30T17:42:55Z</time>
      </trkpt>
      <trkpt lat="32.62263" lon="35.113823">
        <ele>194.0</ele>
        <time>2011-06-30T17:42:58Z</time>
      </trkpt>
      <trkpt lat="32.622566" lon="35.113796">
        <ele>195.0</ele>
        <time>2011-06-30T17:43:03Z</time>
      </trkpt>
      <trkpt lat="32.620372" lon="35.113657">
        <ele>225.0</ele>
        <time>2011-06-30T18:03:26Z</time>
      </trkpt>
      <trkpt lat="32.620361" lon="35.113565">
        <ele>225.0</ele>
        <time>2011-06-30T18:03:30Z</time>
      </trkpt>
      <trkpt lat="32.620361" lon="35.113485">
        <ele>225.0</ele>
        <time>2011-06-30T18:03:33Z</time>
      </trkpt>
      <trkpt lat="32.62035" lon="35.113404">
        <ele>226.0</ele>
        <time>2011-06-30T18:03:37Z</time>
      </trkpt>
      <trkpt lat="32.620302" lon="35.113254">
        <ele>224.0</ele>
        <time>2011-06-30T18:03:43Z</time>
      </trkpt>
      <trkpt lat="32.620275" lon="35.113168">
        <ele>222.0</ele>
        <time>2011-06-30T18:03:47Z</time>
      </trkpt>
      <trkpt lat="32.620184" lon="35.11304">
        <ele>220.0</ele>
        <time>2011-06-30T18:03:51Z</time>
      </trkpt>
      <trkpt lat="32.620125" lon="35.112954">
        <ele>219.0</ele>
        <time>2011-06-30T18:03:54Z</time>
      </trkpt>
      <trkpt lat="32.620044" lon="35.112793">
        <ele>218.0</ele>
        <time>2011-06-30T18:03:59Z</time>
      </trkpt>
      <trkpt lat="32.619953" lon="35.112546">
        <ele>220.0</ele>
        <time>2011-06-30T18:04:07Z</time>
      </trkpt>
      <trkpt lat="32.61991" lon="35.112471">
        <ele>220.0</ele>
        <time>2011-06-30T18:04:10Z</time>
      </trkpt>
      <trkpt lat="32.619846" lon="35.112407">
        <ele>221.0</ele>
        <time>2011-06-30T18:04:14Z</time>
      </trkpt>
      <trkpt lat="32.619787" lon="35.112374">
        <ele>222.0</ele>
        <time>2011-06-30T18:04:17Z</time>
      </trkpt>
      <trkpt lat="32.619653" lon="35.112332">
        <ele>222.0</ele>
        <time>2011-06-30T18:04:22Z</time>
      </trkpt>
      <trkpt lat="32.619492" lon="35.112332">
        <ele>221.0</ele>
        <time>2011-06-30T18:04:26Z</time>
      </trkpt>
      <trkpt lat="32.619191" lon="35.11246">
        <ele>221.0</ele>
        <time>2011-06-30T18:04:31Z</time>
      </trkpt>
      <trkpt lat="32.618961" lon="35.112535">
        <ele>219.0</ele>
        <time>2011-06-30T18:04:35Z</time>
      </trkpt>
      <trkpt lat="32.618794" lon="35.112412">
        <ele>218.0</ele>
        <time>2011-06-30T18:04:39Z</time>
      </trkpt>
      <trkpt lat="32.618671" lon="35.112262">
        <ele>218.0</ele>
        <time>2011-06-30T18:04:43Z</time>
      </trkpt>
      <trkpt lat="32.618569" lon="35.112112">
        <ele>219.0</ele>
        <time>2011-06-30T18:04:47Z</time>
      </trkpt>
      <trkpt lat="32.618494" lon="35.111913">
        <ele>219.0</ele>
        <time>2011-06-30T18:04:51Z</time>
      </trkpt>
      <trkpt lat="32.61851" lon="35.111693">
        <ele>219.0</ele>
        <time>2011-06-30T18:04:55Z</time>
      </trkpt>
      <trkpt lat="32.618505" lon="35.1115">
        <ele>220.0</ele>
        <time>2011-06-30T18:04:59Z</time>
      </trkpt>
      <trkpt lat="32.61844" lon="35.111296">
        <ele>221.0</ele>
        <time>2011-06-30T18:05:03Z</time>
      </trkpt>
      <trkpt lat="32.618424" lon="35.111012">
        <ele>221.0</ele>
        <time>2011-06-30T18:05:07Z</time>
      </trkpt>
      <trkpt lat="32.618424" lon="35.110803">
        <ele>216.0</ele>
        <time>2011-06-30T18:05:10Z</time>
      </trkpt>
      <trkpt lat="32.618253" lon="35.110722">
        <ele>212.0</ele>
        <time>2011-06-30T18:05:15Z</time>
      </trkpt>
      <trkpt lat="32.618129" lon="35.110878">
        <ele>211.0</ele>
        <time>2011-06-30T18:05:19Z</time>
      </trkpt>
      <trkpt lat="32.618065" lon="35.111119">
        <ele>209.0</ele>
        <time>2011-06-30T18:05:22Z</time>
      </trkpt>
      <trkpt lat="32.618027" lon="35.111312">
        <ele>205.0</ele>
        <time>2011-06-30T18:05:27Z</time>
      </trkpt>
      <trkpt lat="32.617904" lon="35.111398">
        <ele>202.0</ele>
        <time>2011-06-30T18:05:33Z</time>
      </trkpt>
      <trkpt lat="32.617807" lon="35.111554">
        <ele>202.0</ele>
        <time>2011-06-30T18:05:39Z</time>
      </trkpt>
      <trkpt lat="32.617775" lon="35.111634">
        <ele>202.0</ele>
        <time>2011-06-30T18:05:42Z</time>
      </trkpt>
      <trkpt lat="32.617743" lon="35.111699">
        <ele>203.0</ele>
        <time>2011-06-30T18:05:44Z</time>
      </trkpt>
      <trkpt lat="32.617754" lon="35.111886">
        <ele>204.0</ele>
        <time>2011-06-30T18:05:52Z</time>
      </trkpt>
      <trkpt lat="32.6177" lon="35.11209">
        <ele>206.0</ele>
        <time>2011-06-30T18:05:59Z</time>
      </trkpt>
      <trkpt lat="32.617722" lon="35.112181">
        <ele>206.0</ele>
        <time>2011-06-30T18:06:03Z</time>
      </trkpt>
      <trkpt lat="32.617759" lon="35.112262">
        <ele>206.0</ele>
        <time>2011-06-30T18:06:07Z</time>
      </trkpt>
      <trkpt lat="32.617748" lon="35.112342">
        <ele>208.0</ele>
        <time>2011-06-30T18:06:11Z</time>
      </trkpt>
      <trkpt lat="32.617732" lon="35.112444">
        <ele>209.0</ele>
        <time>2011-06-30T18:06:15Z</time>
      </trkpt>
      <trkpt lat="32.617759" lon="35.112519">
        <ele>209.0</ele>
        <time>2011-06-30T18:06:18Z</time>
      </trkpt>
      <trkpt lat="32.617657" lon="35.112675">
        <ele>208.0</ele>
        <time>2011-06-30T18:06:23Z</time>
      </trkpt>
      <trkpt lat="32.617625" lon="35.112766">
        <ele>207.0</ele>
        <time>2011-06-30T18:06:26Z</time>
      </trkpt>
      <trkpt lat="32.617555" lon="35.113072">
        <ele>206.0</ele>
        <time>2011-06-30T18:06:32Z</time>
      </trkpt>
      <trkpt lat="32.617459" lon="35.113415">
        <ele>201.0</ele>
        <time>2011-06-30T18:06:38Z</time>
      </trkpt>
      <trkpt lat="32.617394" lon="35.113598">
        <ele>203.0</ele>
        <time>2011-06-30T18:06:42Z</time>
      </trkpt>
      <trkpt lat="32.617362" lon="35.113683">
        <ele>204.0</ele>
        <time>2011-06-30T18:06:45Z</time>
      </trkpt>
      <trkpt lat="32.617341" lon="35.113758">
        <ele>204.0</ele>
        <time>2011-06-30T18:06:48Z</time>
      </trkpt>
      <trkpt lat="32.617335" lon="35.113952">
        <ele>202.0</ele>
        <time>2011-06-30T18:06:55Z</time>
      </trkpt>
      <trkpt lat="32.617335" lon="35.114048">
        <ele>204.0</ele>
        <time>2011-06-30T18:06:58Z</time>
      </trkpt>
      <trkpt lat="32.617394" lon="35.114241">
        <ele>204.0</ele>
        <time>2011-06-30T18:07:03Z</time>
      </trkpt>
      <trkpt lat="32.617437" lon="35.114429">
        <ele>205.0</ele>
        <time>2011-06-30T18:07:08Z</time>
      </trkpt>
      <trkpt lat="32.617432" lon="35.114536">
        <ele>204.0</ele>
        <time>2011-06-30T18:07:11Z</time>
      </trkpt>
      <trkpt lat="32.617459" lon="35.114627">
        <ele>203.0</ele>
        <time>2011-06-30T18:07:14Z</time>
      </trkpt>
      <trkpt lat="32.617491" lon="35.114703">
        <ele>204.0</ele>
        <time>2011-06-30T18:07:17Z</time>
      </trkpt>
      <trkpt lat="32.617389" lon="35.11489">
        <ele>203.0</ele>
        <time>2011-06-30T18:07:24Z</time>
      </trkpt>
      <trkpt lat="32.6174" lon="35.114976">
        <ele>203.0</ele>
        <time>2011-06-30T18:07:27Z</time>
      </trkpt>
      <trkpt lat="32.617378" lon="35.115153">
        <ele>205.0</ele>
        <time>2011-06-30T18:07:34Z</time>
      </trkpt>
      <trkpt lat="32.61733" lon="35.115293">
        <ele>205.0</ele>
        <time>2011-06-30T18:07:39Z</time>
      </trkpt>
      <trkpt lat="32.617308" lon="35.115368">
        <ele>206.0</ele>
        <time>2011-06-30T18:07:42Z</time>
      </trkpt>
      <trkpt lat="32.617298" lon="35.115459">
        <ele>207.0</ele>
        <time>2011-06-30T18:07:46Z</time>
      </trkpt>
      <trkpt lat="32.617287" lon="35.115561">
        <ele>207.0</ele>
        <time>2011-06-30T18:07:49Z</time>
      </trkpt>
      <trkpt lat="32.617228" lon="35.115647">
        <ele>208.0</ele>
        <time>2011-06-30T18:07:53Z</time>
      </trkpt>
      <trkpt lat="32.617201" lon="35.115727">
        <ele>209.0</ele>
        <time>2011-06-30T18:07:57Z</time>
      </trkpt>
      <trkpt lat="32.61711" lon="35.115872">
        <ele>212.0</ele>
        <time>2011-06-30T18:08:03Z</time>
      </trkpt>
      <trkpt lat="32.617056" lon="35.115931">
        <ele>211.0</ele>
        <time>2011-06-30T18:08:05Z</time>
      </trkpt>
      <trkpt lat="32.616928" lon="35.116044">
        <ele>209.0</ele>
        <time>2011-06-30T18:08:10Z</time>
      </trkpt>
      <trkpt lat="32.616879" lon="35.116113">
        <ele>210.0</ele>
        <time>2011-06-30T18:08:13Z</time>
      </trkpt>
      <trkpt lat="32.616783" lon="35.116248">
        <ele>209.0</ele>
        <time>2011-06-30T18:08:19Z</time>
      </trkpt>
      <trkpt lat="32.616622" lon="35.116387">
        <ele>210.0</ele>
        <time>2011-06-30T18:08:23Z</time>
      </trkpt>
      <trkpt lat="32.616434" lon="35.116441">
        <ele>211.0</ele>
        <time>2011-06-30T18:08:27Z</time>
      </trkpt>
      <trkpt lat="32.616289" lon="35.116371">
        <ele>210.0</ele>
        <time>2011-06-30T18:08:31Z</time>
      </trkpt>
      <trkpt lat="32.616102" lon="35.116215">
        <ele>209.0</ele>
        <time>2011-06-30T18:08:35Z</time>
      </trkpt>
      <trkpt lat="32.615903" lon="35.115952">
        <ele>207.0</ele>
        <time>2011-06-30T18:08:39Z</time>
      </trkpt>
      <trkpt lat="32.615742" lon="35.115684">
        <ele>205.0</ele>
        <time>2011-06-30T18:08:43Z</time>
      </trkpt>
      <trkpt lat="32.615624" lon="35.115405">
        <ele>202.0</ele>
        <time>2011-06-30T18:08:47Z</time>
      </trkpt>
      <trkpt lat="32.615522" lon="35.115121">
        <ele>200.0</ele>
        <time>2011-06-30T18:08:51Z</time>
      </trkpt>
      <trkpt lat="32.615485" lon="35.114976">
        <ele>199.0</ele>
        <time>2011-06-30T18:08:54Z</time>
      </trkpt>
      <trkpt lat="32.615334" lon="35.11459">
        <ele>198.0</ele>
        <time>2011-06-30T18:08:59Z</time>
      </trkpt>
      <trkpt lat="32.615163" lon="35.114429">
        <ele>196.0</ele>
        <time>2011-06-30T18:09:03Z</time>
      </trkpt>
      <trkpt lat="32.614986" lon="35.114322">
        <ele>196.0</ele>
        <time>2011-06-30T18:09:07Z</time>
      </trkpt>
      <trkpt lat="32.614819" lon="35.114257">
        <ele>196.0</ele>
        <time>2011-06-30T18:09:11Z</time>
      </trkpt>
      <trkpt lat="32.614717" lon="35.11437">
        <ele>197.0</ele>
        <time>2011-06-30T18:09:21Z</time>
      </trkpt>
      <trkpt lat="32.614637" lon="35.11459">
        <ele>200.0</ele>
        <time>2011-06-30T18:09:35Z</time>
      </trkpt>
      <trkpt lat="32.614599" lon="35.11467">
        <ele>201.0</ele>
        <time>2011-06-30T18:09:39Z</time>
      </trkpt>
      <trkpt lat="32.614551" lon="35.114756">
        <ele>200.0</ele>
        <time>2011-06-30T18:09:41Z</time>
      </trkpt>
      <trkpt lat="32.614449" lon="35.114885">
        <ele>199.0</ele>
        <time>2011-06-30T18:09:47Z</time>
      </trkpt>
      <trkpt lat="32.614412" lon="35.114949">
        <ele>201.0</ele>
        <time>2011-06-30T18:09:51Z</time>
      </trkpt>
      <trkpt lat="32.614412" lon="35.115041">
        <ele>203.0</ele>
        <time>2011-06-30T18:09:55Z</time>
      </trkpt>
      <trkpt lat="32.614406" lon="35.115132">
        <ele>203.0</ele>
        <time>2011-06-30T18:09:58Z</time>
      </trkpt>
      <trkpt lat="32.614433" lon="35.115201">
        <ele>204.0</ele>
        <time>2011-06-30T18:10:01Z</time>
      </trkpt>
      <trkpt lat="32.614455" lon="35.115293">
        <ele>204.0</ele>
        <time>2011-06-30T18:10:04Z</time>
      </trkpt>
      <trkpt lat="32.614519" lon="35.115438">
        <ele>203.0</ele>
        <time>2011-06-30T18:10:11Z</time>
      </trkpt>
      <trkpt lat="32.614524" lon="35.115539">
        <ele>205.0</ele>
        <time>2011-06-30T18:10:15Z</time>
      </trkpt>
      <trkpt lat="32.614567" lon="35.115625">
        <ele>207.0</ele>
        <time>2011-06-30T18:10:18Z</time>
      </trkpt>
      <trkpt lat="32.614616" lon="35.115684">
        <ele>208.0</ele>
        <time>2011-06-30T18:10:22Z</time>
      </trkpt>
      <trkpt lat="32.614675" lon="35.115759">
        <ele>208.0</ele>
        <time>2011-06-30T18:10:26Z</time>
      </trkpt>
      <trkpt lat="32.614717" lon="35.115834">
        <ele>209.0</ele>
        <time>2011-06-30T18:10:29Z</time>
      </trkpt>
      <trkpt lat="32.614744" lon="35.115926">
        <ele>210.0</ele>
        <time>2011-06-30T18:10:32Z</time>
      </trkpt>
      <trkpt lat="32.614862" lon="35.116044">
        <ele>212.0</ele>
        <time>2011-06-30T18:10:39Z</time>
      </trkpt>
      <trkpt lat="32.614889" lon="35.116135">
        <ele>214.0</ele>
        <time>2011-06-30T18:10:42Z</time>
      </trkpt>
      <trkpt lat="32.614884" lon="35.116226">
        <ele>213.0</ele>
        <time>2011-06-30T18:10:46Z</time>
      </trkpt>
      <trkpt lat="32.614916" lon="35.116323">
        <ele>215.0</ele>
        <time>2011-06-30T18:10:50Z</time>
      </trkpt>
      <trkpt lat="32.614996" lon="35.116467">
        <ele>215.0</ele>
        <time>2011-06-30T18:10:54Z</time>
      </trkpt>
      <trkpt lat="32.615088" lon="35.116575">
        <ele>215.0</ele>
        <time>2011-06-30T18:10:58Z</time>
      </trkpt>
      <trkpt lat="32.615131" lon="35.11665">
        <ele>217.0</ele>
        <time>2011-06-30T18:11:01Z</time>
      </trkpt>
      <trkpt lat="32.615147" lon="35.116805">
        <ele>216.0</ele>
        <time>2011-06-30T18:11:06Z</time>
      </trkpt>
      <trkpt lat="32.615072" lon="35.117149">
        <ele>210.0</ele>
        <time>2011-06-30T18:11:11Z</time>
      </trkpt>
      <trkpt lat="32.615077" lon="35.117406">
        <ele>208.0</ele>
        <time>2011-06-30T18:11:15Z</time>
      </trkpt>
      <trkpt lat="32.615082" lon="35.117524">
        <ele>207.0</ele>
        <time>2011-06-30T18:11:17Z</time>
      </trkpt>
      <trkpt lat="32.614975" lon="35.117798">
        <ele>205.0</ele>
        <time>2011-06-30T18:11:23Z</time>
      </trkpt>
      <trkpt lat="32.614911" lon="35.117873">
        <ele>203.0</ele>
        <time>2011-06-30T18:11:26Z</time>
      </trkpt>
      <trkpt lat="32.614782" lon="35.117953">
        <ele>202.0</ele>
        <time>2011-06-30T18:11:31Z</time>
      </trkpt>
      <trkpt lat="32.614701" lon="35.11798">
        <ele>203.0</ele>
        <time>2011-06-30T18:11:33Z</time>
      </trkpt>
      <trkpt lat="32.61453" lon="35.118029">
        <ele>202.0</ele>
        <time>2011-06-30T18:11:38Z</time>
      </trkpt>
      <trkpt lat="32.614122" lon="35.118114">
        <ele>204.0</ele>
        <time>2011-06-30T18:11:47Z</time>
      </trkpt>
      <trkpt lat="32.613918" lon="35.118152">
        <ele>204.0</ele>
        <time>2011-06-30T18:11:51Z</time>
      </trkpt>
      <trkpt lat="32.613757" lon="35.118147">
        <ele>204.0</ele>
        <time>2011-06-30T18:11:55Z</time>
      </trkpt>
      <trkpt lat="32.613618" lon="35.118147">
        <ele>206.0</ele>
        <time>2011-06-30T18:11:58Z</time>
      </trkpt>
      <trkpt lat="32.613414" lon="35.118125">
        <ele>206.0</ele>
        <time>2011-06-30T18:12:02Z</time>
      </trkpt>
      <trkpt lat="32.613248" lon="35.118082">
        <ele>205.0</ele>
        <time>2011-06-30T18:12:07Z</time>
      </trkpt>
      <trkpt lat="32.613199" lon="35.118023">
        <ele>204.0</ele>
        <time>2011-06-30T18:12:09Z</time>
      </trkpt>
      <trkpt lat="32.613124" lon="35.11798">
        <ele>204.0</ele>
        <time>2011-06-30T18:12:12Z</time>
      </trkpt>
      <trkpt lat="32.613049" lon="35.117959">
        <ele>204.0</ele>
        <time>2011-06-30T18:12:16Z</time>
      </trkpt>
      <trkpt lat="32.612979" lon="35.117948">
        <ele>202.0</ele>
        <time>2011-06-30T18:12:27Z</time>
      </trkpt>
      <trkpt lat="32.612936" lon="35.117884">
        <ele>202.0</ele>
        <time>2011-06-30T18:13:11Z</time>
      </trkpt>
      <trkpt lat="32.612835" lon="35.11775">
        <ele>198.0</ele>
        <time>2011-06-30T18:13:19Z</time>
      </trkpt>
      <trkpt lat="32.61277" lon="35.117669">
        <ele>199.0</ele>
        <time>2011-06-30T18:13:22Z</time>
      </trkpt>
      <trkpt lat="32.612684" lon="35.117535">
        <ele>199.0</ele>
        <time>2011-06-30T18:13:26Z</time>
      </trkpt>
      <trkpt lat="32.612572" lon="35.117358">
        <ele>197.0</ele>
        <time>2011-06-30T18:13:30Z</time>
      </trkpt>
      <trkpt lat="32.612481" lon="35.117181">
        <ele>195.0</ele>
        <time>2011-06-30T18:13:34Z</time>
      </trkpt>
      <trkpt lat="32.612373" lon="35.117004">
        <ele>195.0</ele>
        <time>2011-06-30T18:13:39Z</time>
      </trkpt>
      <trkpt lat="32.612234" lon="35.116923">
        <ele>195.0</ele>
        <time>2011-06-30T18:13:43Z</time>
      </trkpt>
      <trkpt lat="32.612062" lon="35.116859">
        <ele>195.0</ele>
        <time>2011-06-30T18:13:47Z</time>
      </trkpt>
      <trkpt lat="32.611896" lon="35.1168">
        <ele>195.0</ele>
        <time>2011-06-30T18:13:50Z</time>
      </trkpt>
      <trkpt lat="32.611756" lon="35.11672">
        <ele>196.0</ele>
        <time>2011-06-30T18:13:54Z</time>
      </trkpt>
      <trkpt lat="32.611628" lon="35.116569">
        <ele>197.0</ele>
        <time>2011-06-30T18:13:58Z</time>
      </trkpt>
      <trkpt lat="32.611563" lon="35.116473">
        <ele>197.0</ele>
        <time>2011-06-30T18:14:00Z</time>
      </trkpt>
      <trkpt lat="32.611456" lon="35.116001">
        <ele>196.0</ele>
        <time>2011-06-30T18:14:07Z</time>
      </trkpt>
      <trkpt lat="32.611392" lon="35.115765">
        <ele>196.0</ele>
        <time>2011-06-30T18:14:11Z</time>
      </trkpt>
      <trkpt lat="32.611375" lon="35.115663">
        <ele>195.0</ele>
        <time>2011-06-30T18:14:13Z</time>
      </trkpt>
      <trkpt lat="32.611359" lon="35.115566">
        <ele>195.0</ele>
        <time>2011-06-30T18:14:16Z</time>
      </trkpt>
      <trkpt lat="32.611359" lon="35.115234">
        <ele>193.0</ele>
        <time>2011-06-30T18:14:22Z</time>
      </trkpt>
      <trkpt lat="32.611327" lon="35.115024">
        <ele>192.0</ele>
        <time>2011-06-30T18:14:27Z</time>
      </trkpt>
      <trkpt lat="32.611268" lon="35.114901">
        <ele>191.0</ele>
        <time>2011-06-30T18:14:30Z</time>
      </trkpt>
      <trkpt lat="32.611236" lon="35.114831">
        <ele>189.0</ele>
        <time>2011-06-30T18:14:32Z</time>
      </trkpt>
      <trkpt lat="32.61107" lon="35.114842">
        <ele>185.0</ele>
        <time>2011-06-30T18:14:39Z</time>
      </trkpt>
      <trkpt lat="32.611005" lon="35.114864">
        <ele>184.0</ele>
        <time>2011-06-30T18:14:42Z</time>
      </trkpt>
      <trkpt lat="32.610946" lon="35.115024">
        <ele>184.0</ele>
        <time>2011-06-30T18:14:47Z</time>
      </trkpt>
      <trkpt lat="32.610946" lon="35.115196">
        <ele>184.0</ele>
        <time>2011-06-30T18:14:51Z</time>
      </trkpt>
      <trkpt lat="32.610941" lon="35.115378">
        <ele>185.0</ele>
        <time>2011-06-30T18:14:55Z</time>
      </trkpt>
      <trkpt lat="32.610914" lon="35.115566">
        <ele>185.0</ele>
        <time>2011-06-30T18:14:59Z</time>
      </trkpt>
      <trkpt lat="32.610834" lon="35.115893">
        <ele>185.0</ele>
        <time>2011-06-30T18:15:07Z</time>
      </trkpt>
      <trkpt lat="32.610769" lon="35.116092">
        <ele>183.0</ele>
        <time>2011-06-30T18:15:11Z</time>
      </trkpt>
      <trkpt lat="32.610721" lon="35.116194">
        <ele>183.0</ele>
        <time>2011-06-30T18:15:14Z</time>
      </trkpt>
      <trkpt lat="32.610662" lon="35.116344">
        <ele>185.0</ele>
        <time>2011-06-30T18:15:19Z</time>
      </trkpt>
      <trkpt lat="32.61063" lon="35.116408">
        <ele>186.0</ele>
        <time>2011-06-30T18:15:21Z</time>
      </trkpt>
      <trkpt lat="32.610528" lon="35.116569">
        <ele>184.0</ele>
        <time>2011-06-30T18:15:27Z</time>
      </trkpt>
      <trkpt lat="32.610464" lon="35.116612">
        <ele>181.0</ele>
        <time>2011-06-30T18:15:31Z</time>
      </trkpt>
      <trkpt lat="32.610399" lon="35.116634">
        <ele>181.0</ele>
        <time>2011-06-30T18:15:35Z</time>
      </trkpt>
      <trkpt lat="32.610233" lon="35.116661">
        <ele>182.0</ele>
        <time>2011-06-30T18:15:39Z</time>
      </trkpt>
      <trkpt lat="32.610093" lon="35.116709">
        <ele>183.0</ele>
        <time>2011-06-30T18:15:42Z</time>
      </trkpt>
      <trkpt lat="32.6099" lon="35.116757">
        <ele>184.0</ele>
        <time>2011-06-30T18:15:46Z</time>
      </trkpt>
      <trkpt lat="32.60975" lon="35.116822">
        <ele>185.0</ele>
        <time>2011-06-30T18:15:50Z</time>
      </trkpt>
      <trkpt lat="32.609594" lon="35.116811">
        <ele>184.0</ele>
        <time>2011-06-30T18:15:55Z</time>
      </trkpt>
      <trkpt lat="32.609514" lon="35.116822">
        <ele>185.0</ele>
        <time>2011-06-30T18:15:58Z</time>
      </trkpt>
      <trkpt lat="32.60945" lon="35.116773">
        <ele>185.0</ele>
        <time>2011-06-30T18:16:05Z</time>
      </trkpt>
      <trkpt lat="32.609316" lon="35.116789">
        <ele>187.0</ele>
        <time>2011-06-30T18:16:11Z</time>
      </trkpt>
      <trkpt lat="32.609171" lon="35.116763">
        <ele>185.0</ele>
        <time>2011-06-30T18:16:19Z</time>
      </trkpt>
      <trkpt lat="32.609079" lon="35.116768">
        <ele>186.0</ele>
        <time>2011-06-30T18:16:22Z</time>
      </trkpt>
      <trkpt lat="32.608994" lon="35.116779">
        <ele>187.0</ele>
        <time>2011-06-30T18:16:24Z</time>
      </trkpt>
      <trkpt lat="32.608935" lon="35.116746">
        <ele>186.0</ele>
        <time>2011-06-30T18:16:28Z</time>
      </trkpt>
      <trkpt lat="32.608865" lon="35.116698">
        <ele>186.0</ele>
        <time>2011-06-30T18:16:33Z</time>
      </trkpt>
      <trkpt lat="32.608784" lon="35.116666">
        <ele>185.0</ele>
        <time>2011-06-30T18:16:37Z</time>
      </trkpt>
      <trkpt lat="32.608704" lon="35.11665">
        <ele>186.0</ele>
        <time>2011-06-30T18:16:40Z</time>
      </trkpt>
      <trkpt lat="32.608516" lon="35.116634">
        <ele>184.0</ele>
        <time>2011-06-30T18:16:47Z</time>
      </trkpt>
      <trkpt lat="32.608446" lon="35.116623">
        <ele>183.0</ele>
        <time>2011-06-30T18:16:51Z</time>
      </trkpt>
      <trkpt lat="32.608377" lon="35.116618">
        <ele>184.0</ele>
        <time>2011-06-30T18:16:54Z</time>
      </trkpt>
      <trkpt lat="32.608296" lon="35.116596">
        <ele>182.0</ele>
        <time>2011-06-30T18:16:59Z</time>
      </trkpt>
      <trkpt lat="32.608221" lon="35.11658">
        <ele>182.0</ele>
        <time>2011-06-30T18:17:03Z</time>
      </trkpt>
      <trkpt lat="32.608146" lon="35.116548">
        <ele>181.0</ele>
        <time>2011-06-30T18:17:06Z</time>
      </trkpt>
      <trkpt lat="32.607964" lon="35.116548">
        <ele>180.0</ele>
        <time>2011-06-30T18:17:11Z</time>
      </trkpt>
      <trkpt lat="32.607835" lon="35.116484">
        <ele>180.0</ele>
        <time>2011-06-30T18:17:15Z</time>
      </trkpt>
      <trkpt lat="32.60776" lon="35.116446">
        <ele>181.0</ele>
        <time>2011-06-30T18:17:18Z</time>
      </trkpt>
      <trkpt lat="32.607701" lon="35.116414">
        <ele>181.0</ele>
        <time>2011-06-30T18:17:21Z</time>
      </trkpt>
      <trkpt lat="32.607642" lon="35.116344">
        <ele>182.0</ele>
        <time>2011-06-30T18:17:25Z</time>
      </trkpt>
      <trkpt lat="32.607572" lon="35.116301">
        <ele>184.0</ele>
        <time>2011-06-30T18:17:28Z</time>
      </trkpt>
      <trkpt lat="32.607497" lon="35.116237">
        <ele>182.0</ele>
        <time>2011-06-30T18:17:33Z</time>
      </trkpt>
      <trkpt lat="32.607358" lon="35.116178">
        <ele>182.0</ele>
        <time>2011-06-30T18:17:39Z</time>
      </trkpt>
      <trkpt lat="32.607298" lon="35.116146">
        <ele>181.0</ele>
        <time>2011-06-30T18:17:42Z</time>
      </trkpt>
      <trkpt lat="32.607132" lon="35.116119">
        <ele>183.0</ele>
        <time>2011-06-30T18:17:47Z</time>
      </trkpt>
      <trkpt lat="32.607062" lon="35.116087">
        <ele>185.0</ele>
        <time>2011-06-30T18:17:50Z</time>
      </trkpt>
      <trkpt lat="32.607003" lon="35.116033">
        <ele>185.0</ele>
        <time>2011-06-30T18:17:54Z</time>
      </trkpt>
      <trkpt lat="32.606961" lon="35.115963">
        <ele>185.0</ele>
        <time>2011-06-30T18:17:57Z</time>
      </trkpt>
      <trkpt lat="32.606896" lon="35.115904">
        <ele>185.0</ele>
        <time>2011-06-30T18:18:01Z</time>
      </trkpt>
      <trkpt lat="32.606832" lon="35.115834">
        <ele>188.0</ele>
        <time>2011-06-30T18:18:05Z</time>
      </trkpt>
      <trkpt lat="32.606773" lon="35.115781">
        <ele>190.0</ele>
        <time>2011-06-30T18:18:09Z</time>
      </trkpt>
      <trkpt lat="32.606644" lon="35.115674">
        <ele>191.0</ele>
        <time>2011-06-30T18:18:16Z</time>
      </trkpt>
      <trkpt lat="32.60658" lon="35.115657">
        <ele>193.0</ele>
        <time>2011-06-30T18:18:19Z</time>
      </trkpt>
      <trkpt lat="32.60651" lon="35.115604">
        <ele>194.0</ele>
        <time>2011-06-30T18:18:23Z</time>
      </trkpt>
      <trkpt lat="32.606322" lon="35.115454">
        <ele>198.0</ele>
        <time>2011-06-30T18:18:32Z</time>
      </trkpt>
      <trkpt lat="32.606258" lon="35.115411">
        <ele>199.0</ele>
        <time>2011-06-30T18:18:36Z</time>
      </trkpt>
      <trkpt lat="32.606199" lon="35.115346">
        <ele>198.0</ele>
        <time>2011-06-30T18:18:39Z</time>
      </trkpt>
      <trkpt lat="32.606091" lon="35.115255">
        <ele>200.0</ele>
        <time>2011-06-30T18:18:44Z</time>
      </trkpt>
      <trkpt lat="32.606038" lon="35.115212">
        <ele>202.0</ele>
        <time>2011-06-30T18:18:46Z</time>
      </trkpt>
      <trkpt lat="32.605931" lon="35.1151">
        <ele>198.0</ele>
        <time>2011-06-30T18:18:52Z</time>
      </trkpt>
      <trkpt lat="32.605877" lon="35.115041">
        <ele>199.0</ele>
        <time>2011-06-30T18:18:55Z</time>
      </trkpt>
      <trkpt lat="32.605839" lon="35.114976">
        <ele>200.0</ele>
        <time>2011-06-30T18:18:58Z</time>
      </trkpt>
      <trkpt lat="32.60577" lon="35.11489">
        <ele>197.0</ele>
        <time>2011-06-30T18:19:02Z</time>
      </trkpt>
      <trkpt lat="32.605727" lon="35.114831">
        <ele>193.0</ele>
        <time>2011-06-30T18:19:05Z</time>
      </trkpt>
      <trkpt lat="32.605678" lon="35.114745">
        <ele>196.0</ele>
        <time>2011-06-30T18:19:10Z</time>
      </trkpt>
      <trkpt lat="32.605652" lon="35.114574">
        <ele>196.0</ele>
        <time>2011-06-30T18:19:16Z</time>
      </trkpt>
      <trkpt lat="32.60563" lon="35.114493">
        <ele>195.0</ele>
        <time>2011-06-30T18:19:19Z</time>
      </trkpt>
      <trkpt lat="32.605609" lon="35.114408">
        <ele>197.0</ele>
        <time>2011-06-30T18:19:23Z</time>
      </trkpt>
      <trkpt lat="32.60556" lon="35.114247">
        <ele>194.0</ele>
        <time>2011-06-30T18:19:28Z</time>
      </trkpt>
      <trkpt lat="32.60555" lon="35.114161">
        <ele>193.0</ele>
        <time>2011-06-30T18:19:31Z</time>
      </trkpt>
      <trkpt lat="32.60555" lon="35.114005">
        <ele>192.0</ele>
        <time>2011-06-30T18:19:36Z</time>
      </trkpt>
      <trkpt lat="32.605555" lon="35.113914">
        <ele>191.0</ele>
        <time>2011-06-30T18:19:39Z</time>
      </trkpt>
      <trkpt lat="32.605566" lon="35.113823">
        <ele>191.0</ele>
        <time>2011-06-30T18:19:42Z</time>
      </trkpt>
      <trkpt lat="32.60555" lon="35.113539">
        <ele>194.0</ele>
        <time>2011-06-30T18:19:52Z</time>
      </trkpt>
      <trkpt lat="32.605555" lon="35.113453">
        <ele>194.0</ele>
        <time>2011-06-30T18:19:55Z</time>
      </trkpt>
      <trkpt lat="32.60556" lon="35.113367">
        <ele>194.0</ele>
        <time>2011-06-30T18:19:59Z</time>
      </trkpt>
      <trkpt lat="32.605577" lon="35.11327">
        <ele>196.0</ele>
        <time>2011-06-30T18:20:03Z</time>
      </trkpt>
      <trkpt lat="32.605582" lon="35.113018">
        <ele>198.0</ele>
        <time>2011-06-30T18:20:12Z</time>
      </trkpt>
      <trkpt lat="32.605614" lon="35.112954">
        <ele>196.0</ele>
        <time>2011-06-30T18:20:15Z</time>
      </trkpt>
      <trkpt lat="32.605614" lon="35.112857">
        <ele>196.0</ele>
        <time>2011-06-30T18:20:19Z</time>
      </trkpt>
      <trkpt lat="32.605625" lon="35.112782">
        <ele>198.0</ele>
        <time>2011-06-30T18:20:22Z</time>
      </trkpt>
      <trkpt lat="32.605668" lon="35.112696">
        <ele>199.0</ele>
        <time>2011-06-30T18:20:26Z</time>
      </trkpt>
      <trkpt lat="32.605711" lon="35.112546">
        <ele>199.0</ele>
        <time>2011-06-30T18:20:32Z</time>
      </trkpt>
      <trkpt lat="32.605711" lon="35.112466">
        <ele>199.0</ele>
        <time>2011-06-30T18:20:35Z</time>
      </trkpt>
      <trkpt lat="32.605807" lon="35.112278">
        <ele>200.0</ele>
        <time>2011-06-30T18:20:47Z</time>
      </trkpt>
      <trkpt lat="32.605882" lon="35.112095">
        <ele>201.0</ele>
        <time>2011-06-30T18:20:52Z</time>
      </trkpt>
      <trkpt lat="32.605909" lon="35.111988">
        <ele>201.0</ele>
        <time>2011-06-30T18:20:55Z</time>
      </trkpt>
      <trkpt lat="32.605995" lon="35.111843">
        <ele>203.0</ele>
        <time>2011-06-30T18:21:00Z</time>
      </trkpt>
      <trkpt lat="32.606054" lon="35.111758">
        <ele>204.0</ele>
        <time>2011-06-30T18:21:04Z</time>
      </trkpt>
      <trkpt lat="32.606097" lon="35.111677">
        <ele>202.0</ele>
        <time>2011-06-30T18:21:08Z</time>
      </trkpt>
      <trkpt lat="32.606151" lon="35.111618">
        <ele>203.0</ele>
        <time>2011-06-30T18:21:11Z</time>
      </trkpt>
      <trkpt lat="32.606199" lon="35.111559">
        <ele>202.0</ele>
        <time>2011-06-30T18:21:14Z</time>
      </trkpt>
      <trkpt lat="32.606247" lon="35.1115">
        <ele>202.0</ele>
        <time>2011-06-30T18:21:18Z</time>
      </trkpt>
      <trkpt lat="32.606328" lon="35.111366">
        <ele>205.0</ele>
        <time>2011-06-30T18:22:15Z</time>
      </trkpt>
      <trkpt lat="32.606365" lon="35.111296">
        <ele>205.0</ele>
        <time>2011-06-30T18:22:19Z</time>
      </trkpt>
      <trkpt lat="32.606392" lon="35.111205">
        <ele>206.0</ele>
        <time>2011-06-30T18:22:23Z</time>
      </trkpt>
      <trkpt lat="32.606526" lon="35.111017">
        <ele>206.0</ele>
        <time>2011-06-30T18:22:39Z</time>
      </trkpt>
      <trkpt lat="32.606569" lon="35.110942">
        <ele>205.0</ele>
        <time>2011-06-30T18:22:42Z</time>
      </trkpt>
      <trkpt lat="32.606542" lon="35.110835">
        <ele>205.0</ele>
        <time>2011-06-30T18:22:49Z</time>
      </trkpt>
      <trkpt lat="32.606564" lon="35.110642">
        <ele>207.0</ele>
        <time>2011-06-30T18:22:54Z</time>
      </trkpt>
      <trkpt lat="32.606649" lon="35.110518">
        <ele>207.0</ele>
        <time>2011-06-30T18:22:59Z</time>
      </trkpt>
      <trkpt lat="32.606682" lon="35.110449">
        <ele>209.0</ele>
        <time>2011-06-30T18:23:02Z</time>
      </trkpt>
      <trkpt lat="32.606703" lon="35.110368">
        <ele>209.0</ele>
        <time>2011-06-30T18:23:05Z</time>
      </trkpt>
      <trkpt lat="32.60673" lon="35.110272">
        <ele>209.0</ele>
        <time>2011-06-30T18:23:09Z</time>
      </trkpt>
      <trkpt lat="32.606778" lon="35.110111">
        <ele>210.0</ele>
        <time>2011-06-30T18:23:15Z</time>
      </trkpt>
      <trkpt lat="32.606794" lon="35.11003">
        <ele>210.0</ele>
        <time>2011-06-30T18:23:18Z</time>
      </trkpt>
      <trkpt lat="32.606816" lon="35.10995">
        <ele>211.0</ele>
        <time>2011-06-30T18:23:22Z</time>
      </trkpt>
      <trkpt lat="32.606837" lon="35.109875">
        <ele>210.0</ele>
        <time>2011-06-30T18:23:26Z</time>
      </trkpt>
      <trkpt lat="32.606859" lon="35.109783">
        <ele>210.0</ele>
        <time>2011-06-30T18:23:30Z</time>
      </trkpt>
      <trkpt lat="32.606875" lon="35.109698">
        <ele>211.0</ele>
        <time>2011-06-30T18:23:34Z</time>
      </trkpt>
      <trkpt lat="32.606891" lon="35.109606">
        <ele>212.0</ele>
        <time>2011-06-30T18:23:38Z</time>
      </trkpt>
      <trkpt lat="32.606896" lon="35.109531">
        <ele>213.0</ele>
        <time>2011-06-30T18:23:41Z</time>
      </trkpt>
      <trkpt lat="32.606896" lon="35.10944">
        <ele>212.0</ele>
        <time>2011-06-30T18:23:44Z</time>
      </trkpt>
      <trkpt lat="32.606918" lon="35.109263">
        <ele>212.0</ele>
        <time>2011-06-30T18:23:54Z</time>
      </trkpt>
      <trkpt lat="32.606859" lon="35.109231">
        <ele>209.0</ele>
        <time>2011-06-30T18:24:14Z</time>
      </trkpt>
      <trkpt lat="32.606826" lon="35.109295">
        <ele>208.0</ele>
        <time>2011-06-30T18:24:21Z</time>
      </trkpt>
      <trkpt lat="32.606805" lon="35.10958">
        <ele>209.0</ele>
        <time>2011-06-30T18:24:31Z</time>
      </trkpt>
      <trkpt lat="32.606751" lon="35.109853">
        <ele>208.0</ele>
        <time>2011-06-30T18:24:39Z</time>
      </trkpt>
      <trkpt lat="32.606692" lon="35.109977">
        <ele>207.0</ele>
        <time>2011-06-30T18:24:42Z</time>
      </trkpt>
      <trkpt lat="32.606644" lon="35.110137">
        <ele>206.0</ele>
        <time>2011-06-30T18:24:46Z</time>
      </trkpt>
      <trkpt lat="32.606633" lon="35.110245">
        <ele>207.0</ele>
        <time>2011-06-30T18:24:48Z</time>
      </trkpt>
      <trkpt lat="32.606628" lon="35.110416">
        <ele>206.0</ele>
        <time>2011-06-30T18:24:53Z</time>
      </trkpt>
      <trkpt lat="32.606537" lon="35.110588">
        <ele>204.0</ele>
        <time>2011-06-30T18:24:58Z</time>
      </trkpt>
      <trkpt lat="32.606413" lon="35.11077">
        <ele>204.0</ele>
        <time>2011-06-30T18:25:03Z</time>
      </trkpt>
      <trkpt lat="32.606311" lon="35.110942">
        <ele>202.0</ele>
        <time>2011-06-30T18:25:07Z</time>
      </trkpt>
      <trkpt lat="32.606242" lon="35.111125">
        <ele>203.0</ele>
        <time>2011-06-30T18:25:11Z</time>
      </trkpt>
      <trkpt lat="32.606172" lon="35.111269">
        <ele>203.0</ele>
        <time>2011-06-30T18:25:15Z</time>
      </trkpt>
      <trkpt lat="32.606102" lon="35.11135">
        <ele>205.0</ele>
        <time>2011-06-30T18:25:18Z</time>
      </trkpt>
      <trkpt lat="32.60599" lon="35.111516">
        <ele>205.0</ele>
        <time>2011-06-30T18:25:22Z</time>
      </trkpt>
      <trkpt lat="32.605877" lon="35.111699">
        <ele>206.0</ele>
        <time>2011-06-30T18:25:26Z</time>
      </trkpt>
      <trkpt lat="32.605748" lon="35.111865">
        <ele>206.0</ele>
        <time>2011-06-30T18:25:30Z</time>
      </trkpt>
      <trkpt lat="32.605662" lon="35.112036">
        <ele>207.0</ele>
        <time>2011-06-30T18:25:35Z</time>
      </trkpt>
      <trkpt lat="32.605625" lon="35.112165">
        <ele>207.0</ele>
        <time>2011-06-30T18:25:39Z</time>
      </trkpt>
      <trkpt lat="32.605587" lon="35.11223">
        <ele>208.0</ele>
        <time>2011-06-30T18:25:41Z</time>
      </trkpt>
      <trkpt lat="32.605507" lon="35.112407">
        <ele>210.0</ele>
        <time>2011-06-30T18:25:47Z</time>
      </trkpt>
      <trkpt lat="32.605453" lon="35.1126">
        <ele>209.0</ele>
        <time>2011-06-30T18:25:51Z</time>
      </trkpt>
      <trkpt lat="32.605405" lon="35.112798">
        <ele>210.0</ele>
        <time>2011-06-30T18:25:55Z</time>
      </trkpt>
      <trkpt lat="32.605319" lon="35.113034">
        <ele>210.0</ele>
        <time>2011-06-30T18:25:58Z</time>
      </trkpt>
      <trkpt lat="32.605287" lon="35.113217">
        <ele>208.0</ele>
        <time>2011-06-30T18:26:02Z</time>
      </trkpt>
      <trkpt lat="32.605308" lon="35.113458">
        <ele>209.0</ele>
        <time>2011-06-30T18:26:06Z</time>
      </trkpt>
      <trkpt lat="32.605357" lon="35.113678">
        <ele>205.0</ele>
        <time>2011-06-30T18:26:10Z</time>
      </trkpt>
      <trkpt lat="32.605303" lon="35.113978">
        <ele>205.0</ele>
        <time>2011-06-30T18:26:15Z</time>
      </trkpt>
      <trkpt lat="32.605287" lon="35.114225">
        <ele>202.0</ele>
        <time>2011-06-30T18:26:19Z</time>
      </trkpt>
      <trkpt lat="32.605239" lon="35.114418">
        <ele>201.0</ele>
        <time>2011-06-30T18:26:23Z</time>
      </trkpt>
      <trkpt lat="32.605217" lon="35.114601">
        <ele>199.0</ele>
        <time>2011-06-30T18:26:27Z</time>
      </trkpt>
      <trkpt lat="32.60511" lon="35.114735">
        <ele>199.0</ele>
        <time>2011-06-30T18:26:31Z</time>
      </trkpt>
      <trkpt lat="32.605062" lon="35.114799">
        <ele>200.0</ele>
        <time>2011-06-30T18:26:33Z</time>
      </trkpt>
      <trkpt lat="32.604922" lon="35.114933">
        <ele>199.0</ele>
        <time>2011-06-30T18:26:38Z</time>
      </trkpt>
      <trkpt lat="32.604799" lon="35.115051">
        <ele>200.0</ele>
        <time>2011-06-30T18:26:42Z</time>
      </trkpt>
      <trkpt lat="32.604643" lon="35.115164">
        <ele>196.0</ele>
        <time>2011-06-30T18:26:46Z</time>
      </trkpt>
      <trkpt lat="32.604493" lon="35.115223">
        <ele>195.0</ele>
        <time>2011-06-30T18:26:50Z</time>
      </trkpt>
      <trkpt lat="32.604364" lon="35.115282">
        <ele>196.0</ele>
        <time>2011-06-30T18:26:55Z</time>
      </trkpt>
      <trkpt lat="32.604289" lon="35.115287">
        <ele>196.0</ele>
        <time>2011-06-30T18:26:59Z</time>
      </trkpt>
      <trkpt lat="32.60423" lon="35.11525">
        <ele>197.0</ele>
        <time>2011-06-30T18:27:04Z</time>
      </trkpt>
      <trkpt lat="32.604155" lon="35.115255">
        <ele>199.0</ele>
        <time>2011-06-30T18:27:08Z</time>
      </trkpt>
      <trkpt lat="32.604091" lon="35.115282">
        <ele>199.0</ele>
        <time>2011-06-30T18:27:12Z</time>
      </trkpt>
      <trkpt lat="32.603758" lon="35.115411">
        <ele>201.0</ele>
        <time>2011-06-30T18:27:27Z</time>
      </trkpt>
      <trkpt lat="32.603688" lon="35.115384">
        <ele>201.0</ele>
        <time>2011-06-30T18:27:30Z</time>
      </trkpt>
      <trkpt lat="32.603613" lon="35.115395">
        <ele>202.0</ele>
        <time>2011-06-30T18:27:33Z</time>
      </trkpt>
      <trkpt lat="32.603468" lon="35.115427">
        <ele>203.0</ele>
        <time>2011-06-30T18:27:39Z</time>
      </trkpt>
      <trkpt lat="32.603409" lon="35.115475">
        <ele>204.0</ele>
        <time>2011-06-30T18:27:42Z</time>
      </trkpt>
      <trkpt lat="32.603356" lon="35.115416">
        <ele>203.0</ele>
        <time>2011-06-30T18:27:46Z</time>
      </trkpt>
      <trkpt lat="32.603286" lon="35.115411">
        <ele>200.0</ele>
        <time>2011-06-30T18:27:50Z</time>
      </trkpt>
      <trkpt lat="32.603205" lon="35.115443">
        <ele>195.0</ele>
        <time>2011-06-30T18:27:56Z</time>
      </trkpt>
      <trkpt lat="32.603168" lon="35.115513">
        <ele>194.0</ele>
        <time>2011-06-30T18:28:01Z</time>
      </trkpt>
      <trkpt lat="32.603136" lon="35.115588">
        <ele>194.0</ele>
        <time>2011-06-30T18:28:08Z</time>
      </trkpt>
      <trkpt lat="32.603093" lon="35.115663">
        <ele>194.0</ele>
        <time>2011-06-30T18:28:14Z</time>
      </trkpt>
      <trkpt lat="32.603061" lon="35.115727">
        <ele>196.0</ele>
        <time>2011-06-30T18:28:18Z</time>
      </trkpt>
      <trkpt lat="32.602996" lon="35.115738">
        <ele>196.0</ele>
        <time>2011-06-30T18:28:22Z</time>
      </trkpt>
      <trkpt lat="32.602932" lon="35.115706">
        <ele>197.0</ele>
        <time>2011-06-30T18:28:26Z</time>
      </trkpt>
      <trkpt lat="32.602867" lon="35.115706">
        <ele>198.0</ele>
        <time>2011-06-30T18:28:29Z</time>
      </trkpt>
      <trkpt lat="32.602808" lon="35.115733">
        <ele>197.0</ele>
        <time>2011-06-30T18:28:34Z</time>
      </trkpt>
      <trkpt lat="32.60268" lon="35.115775">
        <ele>198.0</ele>
        <time>2011-06-30T18:28:43Z</time>
      </trkpt>
      <trkpt lat="32.602615" lon="35.115781">
        <ele>198.0</ele>
        <time>2011-06-30T18:28:46Z</time>
      </trkpt>
      <trkpt lat="32.602535" lon="35.115802">
        <ele>198.0</ele>
        <time>2011-06-30T18:28:50Z</time>
      </trkpt>
      <trkpt lat="32.602465" lon="35.115845">
        <ele>199.0</ele>
        <time>2011-06-30T18:28:54Z</time>
      </trkpt>
      <trkpt lat="32.602395" lon="35.115861">
        <ele>197.0</ele>
        <time>2011-06-30T18:28:57Z</time>
      </trkpt>
      <trkpt lat="32.602256" lon="35.115942">
        <ele>192.0</ele>
        <time>2011-06-30T18:29:02Z</time>
      </trkpt>
      <trkpt lat="32.602122" lon="35.116022">
        <ele>188.0</ele>
        <time>2011-06-30T18:29:08Z</time>
      </trkpt>
      <trkpt lat="32.602057" lon="35.11606">
        <ele>189.0</ele>
        <time>2011-06-30T18:29:12Z</time>
      </trkpt>
      <trkpt lat="32.602015" lon="35.116119">
        <ele>191.0</ele>
        <time>2011-06-30T18:29:16Z</time>
      </trkpt>
      <trkpt lat="32.601966" lon="35.116167">
        <ele>191.0</ele>
        <time>2011-06-30T18:29:20Z</time>
      </trkpt>
      <trkpt lat="32.601918" lon="35.116226">
        <ele>190.0</ele>
        <time>2011-06-30T18:29:23Z</time>
      </trkpt>
      <trkpt lat="32.601864" lon="35.116285">
        <ele>191.0</ele>
        <time>2011-06-30T18:29:27Z</time>
      </trkpt>
      <trkpt lat="32.6018" lon="35.116312">
        <ele>194.0</ele>
        <time>2011-06-30T18:29:33Z</time>
      </trkpt>
      <trkpt lat="32.601736" lon="35.116446">
        <ele>191.0</ele>
        <time>2011-06-30T18:29:42Z</time>
      </trkpt>
      <trkpt lat="32.601601" lon="35.116494">
        <ele>189.0</ele>
        <time>2011-06-30T18:29:51Z</time>
      </trkpt>
      <trkpt lat="32.601698" lon="35.116355">
        <ele>196.0</ele>
        <time>2011-06-30T18:30:04Z</time>
      </trkpt>
      <trkpt lat="32.601821" lon="35.116253">
        <ele>196.0</ele>
        <time>2011-06-30T18:30:08Z</time>
      </trkpt>
      <trkpt lat="32.60188" lon="35.116189">
        <ele>196.0</ele>
        <time>2011-06-30T18:30:10Z</time>
      </trkpt>
      <trkpt lat="32.601945" lon="35.11614">
        <ele>195.0</ele>
        <time>2011-06-30T18:30:13Z</time>
      </trkpt>
      <trkpt lat="32.601998" lon="35.116071">
        <ele>197.0</ele>
        <time>2011-06-30T18:30:18Z</time>
      </trkpt>
      <trkpt lat="32.602175" lon="35.115936">
        <ele>197.0</ele>
        <time>2011-06-30T18:30:28Z</time>
      </trkpt>
      <trkpt lat="32.602229" lon="35.115893">
        <ele>197.0</ele>
        <time>2011-06-30T18:30:30Z</time>
      </trkpt>
      <trkpt lat="32.602369" lon="35.115829">
        <ele>198.0</ele>
        <time>2011-06-30T18:30:35Z</time>
      </trkpt>
      <trkpt lat="32.602524" lon="35.115797">
        <ele>197.0</ele>
        <time>2011-06-30T18:30:40Z</time>
      </trkpt>
      <trkpt lat="32.60261" lon="35.115802">
        <ele>196.0</ele>
        <time>2011-06-30T18:30:42Z</time>
      </trkpt>
      <trkpt lat="32.602953" lon="35.11577">
        <ele>198.0</ele>
        <time>2011-06-30T18:30:51Z</time>
      </trkpt>
      <trkpt lat="32.60313" lon="35.115781">
        <ele>198.0</ele>
        <time>2011-06-30T18:30:55Z</time>
      </trkpt>
      <trkpt lat="32.603205" lon="35.115797">
        <ele>197.0</ele>
        <time>2011-06-30T18:30:58Z</time>
      </trkpt>
      <trkpt lat="32.603372" lon="35.115792">
        <ele>197.0</ele>
        <time>2011-06-30T18:31:03Z</time>
      </trkpt>
      <trkpt lat="32.603538" lon="35.115786">
        <ele>197.0</ele>
        <time>2011-06-30T18:31:07Z</time>
      </trkpt>
      <trkpt lat="32.603704" lon="35.115775">
        <ele>197.0</ele>
        <time>2011-06-30T18:31:11Z</time>
      </trkpt>
      <trkpt lat="32.603914" lon="35.115786">
        <ele>197.0</ele>
        <time>2011-06-30T18:31:15Z</time>
      </trkpt>
      <trkpt lat="32.604107" lon="35.115749">
        <ele>198.0</ele>
        <time>2011-06-30T18:31:19Z</time>
      </trkpt>
      <trkpt lat="32.604273" lon="35.115738">
        <ele>198.0</ele>
        <time>2011-06-30T18:31:23Z</time>
      </trkpt>
      <trkpt lat="32.604402" lon="35.115711">
        <ele>198.0</ele>
        <time>2011-06-30T18:31:27Z</time>
      </trkpt>
      <trkpt lat="32.604579" lon="35.11569">
        <ele>199.0</ele>
        <time>2011-06-30T18:31:31Z</time>
      </trkpt>
      <trkpt lat="32.604745" lon="35.115727">
        <ele>198.0</ele>
        <time>2011-06-30T18:31:36Z</time>
      </trkpt>
      <trkpt lat="32.604917" lon="35.115861">
        <ele>198.0</ele>
        <time>2011-06-30T18:31:46Z</time>
      </trkpt>
      <trkpt lat="32.605072" lon="35.115963">
        <ele>203.0</ele>
        <time>2011-06-30T18:33:05Z</time>
      </trkpt>
      <trkpt lat="32.605131" lon="35.11599">
        <ele>203.0</ele>
        <time>2011-06-30T18:33:09Z</time>
      </trkpt>
      <trkpt lat="32.605201" lon="35.116022">
        <ele>198.0</ele>
        <time>2011-06-30T18:33:15Z</time>
      </trkpt>
      <trkpt lat="32.60533" lon="35.116081">
        <ele>197.0</ele>
        <time>2011-06-30T18:36:03Z</time>
      </trkpt>
      <trkpt lat="32.605378" lon="35.11613">
        <ele>192.0</ele>
        <time>2011-06-30T18:36:18Z</time>
      </trkpt>
      <trkpt lat="32.605437" lon="35.116172">
        <ele>190.0</ele>
        <time>2011-06-30T18:36:24Z</time>
      </trkpt>
      <trkpt lat="32.605507" lon="35.116194">
        <ele>194.0</ele>
        <time>2011-06-30T18:36:33Z</time>
      </trkpt>
      <trkpt lat="32.605571" lon="35.116221">
        <ele>195.0</ele>
        <time>2011-06-30T18:36:37Z</time>
      </trkpt>
      <trkpt lat="32.605641" lon="35.116248">
        <ele>195.0</ele>
        <time>2011-06-30T18:36:41Z</time>
      </trkpt>
      <trkpt lat="32.605705" lon="35.11628">
        <ele>194.0</ele>
        <time>2011-06-30T18:36:45Z</time>
      </trkpt>
      <trkpt lat="32.605775" lon="35.116312">
        <ele>193.0</ele>
        <time>2011-06-30T18:36:49Z</time>
      </trkpt>
      <trkpt lat="32.605845" lon="35.116339">
        <ele>194.0</ele>
        <time>2011-06-30T18:36:53Z</time>
      </trkpt>
      <trkpt lat="32.60592" lon="35.116371">
        <ele>193.0</ele>
        <time>2011-06-30T18:36:56Z</time>
      </trkpt>
      <trkpt lat="32.605973" lon="35.116414">
        <ele>193.0</ele>
        <time>2011-06-30T18:37:00Z</time>
      </trkpt>
      <trkpt lat="32.606043" lon="35.116451">
        <ele>193.0</ele>
        <time>2011-06-30T18:37:04Z</time>
      </trkpt>
      <trkpt lat="32.606231" lon="35.116575">
        <ele>196.0</ele>
        <time>2011-06-30T18:37:15Z</time>
      </trkpt>
      <trkpt lat="32.60629" lon="35.116607">
        <ele>196.0</ele>
        <time>2011-06-30T18:37:18Z</time>
      </trkpt>
      <trkpt lat="32.606429" lon="35.116682">
        <ele>197.0</ele>
        <time>2011-06-30T18:37:26Z</time>
      </trkpt>
      <trkpt lat="32.606569" lon="35.116763">
        <ele>195.0</ele>
        <time>2011-06-30T18:37:31Z</time>
      </trkpt>
      <trkpt lat="32.606628" lon="35.1168">
        <ele>194.0</ele>
        <time>2011-06-30T18:37:34Z</time>
      </trkpt>
      <trkpt lat="32.606676" lon="35.116848">
        <ele>194.0</ele>
        <time>2011-06-30T18:37:37Z</time>
      </trkpt>
      <trkpt lat="32.606741" lon="35.116902">
        <ele>194.0</ele>
        <time>2011-06-30T18:37:41Z</time>
      </trkpt>
      <trkpt lat="32.606859" lon="35.116999">
        <ele>195.0</ele>
        <time>2011-06-30T18:37:47Z</time>
      </trkpt>
      <trkpt lat="32.606918" lon="35.117041">
        <ele>195.0</ele>
        <time>2011-06-30T18:37:50Z</time>
      </trkpt>
      <trkpt lat="32.606971" lon="35.117095">
        <ele>195.0</ele>
        <time>2011-06-30T18:37:54Z</time>
      </trkpt>
      <trkpt lat="32.607079" lon="35.117208">
        <ele>197.0</ele>
        <time>2011-06-30T18:38:03Z</time>
      </trkpt>
      <trkpt lat="32.607121" lon="35.117272">
        <ele>197.0</ele>
        <time>2011-06-30T18:38:06Z</time>
      </trkpt>
      <trkpt lat="32.60718" lon="35.117337">
        <ele>197.0</ele>
        <time>2011-06-30T18:38:11Z</time>
      </trkpt>
      <trkpt lat="32.607213" lon="35.117406">
        <ele>198.0</ele>
        <time>2011-06-30T18:38:16Z</time>
      </trkpt>
      <trkpt lat="32.607272" lon="35.117449">
        <ele>199.0</ele>
        <time>2011-06-30T18:38:21Z</time>
      </trkpt>
      <trkpt lat="32.607481" lon="35.117674">
        <ele>204.0</ele>
        <time>2011-06-30T18:38:47Z</time>
      </trkpt>
      <trkpt lat="32.607551" lon="35.117658">
        <ele>207.0</ele>
        <time>2011-06-30T18:38:55Z</time>
      </trkpt>
      <trkpt lat="32.607631" lon="35.117664">
        <ele>210.0</ele>
        <time>2011-06-30T18:39:00Z</time>
      </trkpt>
      <trkpt lat="32.607701" lon="35.117674">
        <ele>208.0</ele>
        <time>2011-06-30T18:39:05Z</time>
      </trkpt>
      <trkpt lat="32.607781" lon="35.117701">
        <ele>206.0</ele>
        <time>2011-06-30T18:39:10Z</time>
      </trkpt>
      <trkpt lat="32.607851" lon="35.117696">
        <ele>203.0</ele>
        <time>2011-06-30T18:39:14Z</time>
      </trkpt>
      <trkpt lat="32.607921" lon="35.11768">
        <ele>203.0</ele>
        <time>2011-06-30T18:39:18Z</time>
      </trkpt>
      <trkpt lat="32.607991" lon="35.117658">
        <ele>206.0</ele>
        <time>2011-06-30T18:39:22Z</time>
      </trkpt>
      <trkpt lat="32.60806" lon="35.117658">
        <ele>205.0</ele>
        <time>2011-06-30T18:39:25Z</time>
      </trkpt>
      <trkpt lat="32.608135" lon="35.117658">
        <ele>204.0</ele>
        <time>2011-06-30T18:39:28Z</time>
      </trkpt>
      <trkpt lat="32.608393" lon="35.117642">
        <ele>202.0</ele>
        <time>2011-06-30T18:39:35Z</time>
      </trkpt>
      <trkpt lat="32.608575" lon="35.117648">
        <ele>201.0</ele>
        <time>2011-06-30T18:39:39Z</time>
      </trkpt>
      <trkpt lat="32.608731" lon="35.117626">
        <ele>201.0</ele>
        <time>2011-06-30T18:39:43Z</time>
      </trkpt>
      <trkpt lat="32.608908" lon="35.117685">
        <ele>200.0</ele>
        <time>2011-06-30T18:39:47Z</time>
      </trkpt>
      <trkpt lat="32.608994" lon="35.117707">
        <ele>200.0</ele>
        <time>2011-06-30T18:39:50Z</time>
      </trkpt>
      <trkpt lat="32.609063" lon="35.117739">
        <ele>200.0</ele>
        <time>2011-06-30T18:39:53Z</time>
      </trkpt>
      <trkpt lat="32.609197" lon="35.11775">
        <ele>202.0</ele>
        <time>2011-06-30T18:40:01Z</time>
      </trkpt>
      <trkpt lat="32.609273" lon="35.117744">
        <ele>204.0</ele>
        <time>2011-06-30T18:40:04Z</time>
      </trkpt>
      <trkpt lat="32.609423" lon="35.117707">
        <ele>208.0</ele>
        <time>2011-06-30T18:40:10Z</time>
      </trkpt>
      <trkpt lat="32.609594" lon="35.117707">
        <ele>208.0</ele>
        <time>2011-06-30T18:40:14Z</time>
      </trkpt>
      <trkpt lat="32.609729" lon="35.117664">
        <ele>208.0</ele>
        <time>2011-06-30T18:40:19Z</time>
      </trkpt>
      <trkpt lat="32.609857" lon="35.117621">
        <ele>210.0</ele>
        <time>2011-06-30T18:40:22Z</time>
      </trkpt>
      <trkpt lat="32.610018" lon="35.117658">
        <ele>210.0</ele>
        <time>2011-06-30T18:40:26Z</time>
      </trkpt>
      <trkpt lat="32.610163" lon="35.117717">
        <ele>209.0</ele>
        <time>2011-06-30T18:40:31Z</time>
      </trkpt>
      <trkpt lat="32.610372" lon="35.117873">
        <ele>207.0</ele>
        <time>2011-06-30T18:40:38Z</time>
      </trkpt>
      <trkpt lat="32.610587" lon="35.118029">
        <ele>206.0</ele>
        <time>2011-06-30T18:40:47Z</time>
      </trkpt>
      <trkpt lat="32.610748" lon="35.11812">
        <ele>206.0</ele>
        <time>2011-06-30T18:40:51Z</time>
      </trkpt>
      <trkpt lat="32.610919" lon="35.118265">
        <ele>204.0</ele>
        <time>2011-06-30T18:40:55Z</time>
      </trkpt>
      <trkpt lat="32.611064" lon="35.118431">
        <ele>203.0</ele>
        <time>2011-06-30T18:40:59Z</time>
      </trkpt>
      <trkpt lat="32.611172" lon="35.118613">
        <ele>203.0</ele>
        <time>2011-06-30T18:41:03Z</time>
      </trkpt>
      <trkpt lat="32.611284" lon="35.118763">
        <ele>203.0</ele>
        <time>2011-06-30T18:41:07Z</time>
      </trkpt>
      <trkpt lat="32.611327" lon="35.118849">
        <ele>203.0</ele>
        <time>2011-06-30T18:41:09Z</time>
      </trkpt>
      <trkpt lat="32.61137" lon="35.119032">
        <ele>203.0</ele>
        <time>2011-06-30T18:41:15Z</time>
      </trkpt>
      <trkpt lat="32.611354" lon="35.119107">
        <ele>204.0</ele>
        <time>2011-06-30T18:41:18Z</time>
      </trkpt>
      <trkpt lat="32.611408" lon="35.119268">
        <ele>203.0</ele>
        <time>2011-06-30T18:41:25Z</time>
      </trkpt>
      <trkpt lat="32.611386" lon="35.119354">
        <ele>206.0</ele>
        <time>2011-06-30T18:41:31Z</time>
      </trkpt>
      <trkpt lat="32.611365" lon="35.119429">
        <ele>204.0</ele>
        <time>2011-06-30T18:41:34Z</time>
      </trkpt>
      <trkpt lat="32.611349" lon="35.119509">
        <ele>204.0</ele>
        <time>2011-06-30T18:41:38Z</time>
      </trkpt>
      <trkpt lat="32.61137" lon="35.119649">
        <ele>204.0</ele>
        <time>2011-06-30T18:41:44Z</time>
      </trkpt>
      <trkpt lat="32.611338" lon="35.119724">
        <ele>204.0</ele>
        <time>2011-06-30T18:41:49Z</time>
      </trkpt>
      <trkpt lat="32.611306" lon="35.119793">
        <ele>203.0</ele>
        <time>2011-06-30T18:41:55Z</time>
      </trkpt>
      <trkpt lat="32.611257" lon="35.119852">
        <ele>204.0</ele>
        <time>2011-06-30T18:42:01Z</time>
      </trkpt>
      <trkpt lat="32.611225" lon="35.119922">
        <ele>203.0</ele>
        <time>2011-06-30T18:42:07Z</time>
      </trkpt>
      <trkpt lat="32.611166" lon="35.11997">
        <ele>199.0</ele>
        <time>2011-06-30T18:42:11Z</time>
      </trkpt>
      <trkpt lat="32.611037" lon="35.120062">
        <ele>201.0</ele>
        <time>2011-06-30T18:42:23Z</time>
      </trkpt>
      <trkpt lat="32.610989" lon="35.120126">
        <ele>201.0</ele>
        <time>2011-06-30T18:42:27Z</time>
      </trkpt>
      <trkpt lat="32.610925" lon="35.120164">
        <ele>203.0</ele>
        <time>2011-06-30T18:42:34Z</time>
      </trkpt>
      <trkpt lat="32.61086" lon="35.120206">
        <ele>207.0</ele>
        <time>2011-06-30T18:42:41Z</time>
      </trkpt>
      <trkpt lat="32.610748" lon="35.120324">
        <ele>210.0</ele>
        <time>2011-06-30T18:42:52Z</time>
      </trkpt>
      <trkpt lat="32.6107" lon="35.120378">
        <ele>211.0</ele>
        <time>2011-06-30T18:42:56Z</time>
      </trkpt>
      <trkpt lat="32.610673" lon="35.120453">
        <ele>217.0</ele>
        <time>2011-06-30T18:43:03Z</time>
      </trkpt>
      <trkpt lat="32.610619" lon="35.120614">
        <ele>223.0</ele>
        <time>2011-06-30T18:43:16Z</time>
      </trkpt>
      <trkpt lat="32.610576" lon="35.120679">
        <ele>223.0</ele>
        <time>2011-06-30T18:43:22Z</time>
      </trkpt>
      <trkpt lat="32.610496" lon="35.120797">
        <ele>227.0</ele>
        <time>2011-06-30T18:43:34Z</time>
      </trkpt>
      <trkpt lat="32.610469" lon="35.120882">
        <ele>226.0</ele>
        <time>2011-06-30T18:43:42Z</time>
      </trkpt>
      <trkpt lat="32.610447" lon="35.120963">
        <ele>224.0</ele>
        <time>2011-06-30T18:43:45Z</time>
      </trkpt>
      <trkpt lat="32.610431" lon="35.121043">
        <ele>222.0</ele>
        <time>2011-06-30T18:43:51Z</time>
      </trkpt>
      <trkpt lat="32.610404" lon="35.121129">
        <ele>223.0</ele>
        <time>2011-06-30T18:43:55Z</time>
      </trkpt>
      <trkpt lat="32.610415" lon="35.12121">
        <ele>224.0</ele>
        <time>2011-06-30T18:44:39Z</time>
      </trkpt>
      <trkpt lat="32.610356" lon="35.121247">
        <ele>226.0</ele>
        <time>2011-06-30T18:44:51Z</time>
      </trkpt>
      <trkpt lat="32.610292" lon="35.121274">
        <ele>226.0</ele>
        <time>2011-06-30T18:44:55Z</time>
      </trkpt>
      <trkpt lat="32.610168" lon="35.121344">
        <ele>227.0</ele>
        <time>2011-06-30T18:45:08Z</time>
      </trkpt>
      <trkpt lat="32.610056" lon="35.12143">
        <ele>227.0</ele>
        <time>2011-06-30T18:45:17Z</time>
      </trkpt>
      <trkpt lat="32.609997" lon="35.121483">
        <ele>230.0</ele>
        <time>2011-06-30T18:45:24Z</time>
      </trkpt>
      <trkpt lat="32.609868" lon="35.121569">
        <ele>226.0</ele>
        <time>2011-06-30T18:45:31Z</time>
      </trkpt>
      <trkpt lat="32.60982" lon="35.121617">
        <ele>226.0</ele>
        <time>2011-06-30T18:45:36Z</time>
      </trkpt>
      <trkpt lat="32.609771" lon="35.121666">
        <ele>226.0</ele>
        <time>2011-06-30T18:45:40Z</time>
      </trkpt>
      <trkpt lat="32.609707" lon="35.121703">
        <ele>227.0</ele>
        <time>2011-06-30T18:45:44Z</time>
      </trkpt>
      <trkpt lat="32.609648" lon="35.12173">
        <ele>227.0</ele>
        <time>2011-06-30T18:45:50Z</time>
      </trkpt>
      <trkpt lat="32.609525" lon="35.121784">
        <ele>228.0</ele>
        <time>2011-06-30T18:46:00Z</time>
      </trkpt>
      <trkpt lat="32.609455" lon="35.121794">
        <ele>228.0</ele>
        <time>2011-06-30T18:46:04Z</time>
      </trkpt>
      <trkpt lat="32.609385" lon="35.1218">
        <ele>229.0</ele>
        <time>2011-06-30T18:46:08Z</time>
      </trkpt>
      <trkpt lat="32.609251" lon="35.121778">
        <ele>230.0</ele>
        <time>2011-06-30T18:46:16Z</time>
      </trkpt>
      <trkpt lat="32.609181" lon="35.121778">
        <ele>230.0</ele>
        <time>2011-06-30T18:46:21Z</time>
      </trkpt>
      <trkpt lat="32.609042" lon="35.121821">
        <ele>231.0</ele>
        <time>2011-06-30T18:46:30Z</time>
      </trkpt>
      <trkpt lat="32.608988" lon="35.121762">
        <ele>234.0</ele>
        <time>2011-06-30T18:46:36Z</time>
      </trkpt>
      <trkpt lat="32.608924" lon="35.121768">
        <ele>236.0</ele>
        <time>2011-06-30T18:46:40Z</time>
      </trkpt>
      <trkpt lat="32.608801" lon="35.121703">
        <ele>233.0</ele>
        <time>2011-06-30T18:46:49Z</time>
      </trkpt>
      <trkpt lat="32.60872" lon="35.121682">
        <ele>232.0</ele>
        <time>2011-06-30T18:46:53Z</time>
      </trkpt>
      <trkpt lat="32.608672" lon="35.121633">
        <ele>229.0</ele>
        <time>2011-06-30T18:46:56Z</time>
      </trkpt>
      <trkpt lat="32.608602" lon="35.121607">
        <ele>228.0</ele>
        <time>2011-06-30T18:47:02Z</time>
      </trkpt>
      <trkpt lat="32.608468" lon="35.121569">
        <ele>230.0</ele>
        <time>2011-06-30T18:47:13Z</time>
      </trkpt>
      <trkpt lat="32.608441" lon="35.121483">
        <ele>228.0</ele>
        <time>2011-06-30T18:47:16Z</time>
      </trkpt>
      <trkpt lat="32.608377" lon="35.121462">
        <ele>227.0</ele>
        <time>2011-06-30T18:47:26Z</time>
      </trkpt>
      <trkpt lat="32.608269" lon="35.121558">
        <ele>232.0</ele>
        <time>2011-06-30T18:49:53Z</time>
      </trkpt>
      <trkpt lat="32.608205" lon="35.121548">
        <ele>234.0</ele>
        <time>2011-06-30T18:50:10Z</time>
      </trkpt>
      <trkpt lat="32.608071" lon="35.121515">
        <ele>234.0</ele>
        <time>2011-06-30T18:50:35Z</time>
      </trkpt>
      <trkpt lat="32.608023" lon="35.121467">
        <ele>231.0</ele>
        <time>2011-06-30T18:51:17Z</time>
      </trkpt>
      <trkpt lat="32.607964" lon="35.121424">
        <ele>231.0</ele>
        <time>2011-06-30T18:51:43Z</time>
      </trkpt>
      <trkpt lat="32.607905" lon="35.121397">
        <ele>245.0</ele>
        <time>2011-06-30T18:53:28Z</time>
      </trkpt>
      <trkpt lat="32.608007" lon="35.121521">
        <ele>238.0</ele>
        <time>2011-06-30T18:55:12Z</time>
      </trkpt>
      <trkpt lat="32.608076" lon="35.121494">
        <ele>235.0</ele>
        <time>2011-06-30T18:55:58Z</time>
      </trkpt>
      <trkpt lat="32.608216" lon="35.121489">
        <ele>236.0</ele>
        <time>2011-06-30T18:56:07Z</time>
      </trkpt>
      <trkpt lat="32.60828" lon="35.121478">
        <ele>236.0</ele>
        <time>2011-06-30T18:56:11Z</time>
      </trkpt>
      <trkpt lat="32.608468" lon="35.121574">
        <ele>238.0</ele>
        <time>2011-06-30T18:56:23Z</time>
      </trkpt>
      <trkpt lat="32.608548" lon="35.121607">
        <ele>236.0</ele>
        <time>2011-06-30T18:56:26Z</time>
      </trkpt>
      <trkpt lat="32.608634" lon="35.121623">
        <ele>235.0</ele>
        <time>2011-06-30T18:56:29Z</time>
      </trkpt>
      <trkpt lat="32.608779" lon="35.12165">
        <ele>234.0</ele>
        <time>2011-06-30T18:56:35Z</time>
      </trkpt>
      <trkpt lat="32.608902" lon="35.121725">
        <ele>235.0</ele>
        <time>2011-06-30T18:56:39Z</time>
      </trkpt>
      <trkpt lat="32.609026" lon="35.121821">
        <ele>235.0</ele>
        <time>2011-06-30T18:56:43Z</time>
      </trkpt>
      <trkpt lat="32.60909" lon="35.121805">
        <ele>232.0</ele>
        <time>2011-06-30T18:56:46Z</time>
      </trkpt>
      <trkpt lat="32.60916" lon="35.121832">
        <ele>232.0</ele>
        <time>2011-06-30T18:56:51Z</time>
      </trkpt>
      <trkpt lat="32.609224" lon="35.121837">
        <ele>232.0</ele>
        <time>2011-06-30T18:56:53Z</time>
      </trkpt>
      <trkpt lat="32.609299" lon="35.121848">
        <ele>235.0</ele>
        <time>2011-06-30T18:56:56Z</time>
      </trkpt>
      <trkpt lat="32.609369" lon="35.121837">
        <ele>234.0</ele>
        <time>2011-06-30T18:57:00Z</time>
      </trkpt>
      <trkpt lat="32.609434" lon="35.121821">
        <ele>234.0</ele>
        <time>2011-06-30T18:57:04Z</time>
      </trkpt>
      <trkpt lat="32.609557" lon="35.121735">
        <ele>233.0</ele>
        <time>2011-06-30T18:57:12Z</time>
      </trkpt>
      <trkpt lat="32.609632" lon="35.121698">
        <ele>234.0</ele>
        <time>2011-06-30T18:57:16Z</time>
      </trkpt>
      <trkpt lat="32.609702" lon="35.121671">
        <ele>234.0</ele>
        <time>2011-06-30T18:57:20Z</time>
      </trkpt>
      <trkpt lat="32.609755" lon="35.121612">
        <ele>235.0</ele>
        <time>2011-06-30T18:57:25Z</time>
      </trkpt>
      <trkpt lat="32.609809" lon="35.121564">
        <ele>234.0</ele>
        <time>2011-06-30T18:57:29Z</time>
      </trkpt>
      <trkpt lat="32.609868" lon="35.121521">
        <ele>236.0</ele>
        <time>2011-06-30T18:57:34Z</time>
      </trkpt>
      <trkpt lat="32.609927" lon="35.121483">
        <ele>237.0</ele>
        <time>2011-06-30T18:57:37Z</time>
      </trkpt>
      <trkpt lat="32.610067" lon="35.121381">
        <ele>235.0</ele>
        <time>2011-06-30T18:57:42Z</time>
      </trkpt>
      <trkpt lat="32.610217" lon="35.121279">
        <ele>238.0</ele>
        <time>2011-06-30T18:57:47Z</time>
      </trkpt>
      <trkpt lat="32.610469" lon="35.121274">
        <ele>240.0</ele>
        <time>2011-06-30T18:57:51Z</time>
      </trkpt>
      <trkpt lat="32.610775" lon="35.121381">
        <ele>239.0</ele>
        <time>2011-06-30T18:57:55Z</time>
      </trkpt>
      <trkpt lat="32.610984" lon="35.121483">
        <ele>239.0</ele>
        <time>2011-06-30T18:57:58Z</time>
      </trkpt>
      <trkpt lat="32.611193" lon="35.121601">
        <ele>235.0</ele>
        <time>2011-06-30T18:58:02Z</time>
      </trkpt>
      <trkpt lat="32.611434" lon="35.12181">
        <ele>232.0</ele>
        <time>2011-06-30T18:58:07Z</time>
      </trkpt>
      <trkpt lat="32.611606" lon="35.12202">
        <ele>230.0</ele>
        <time>2011-06-30T18:58:11Z</time>
      </trkpt>
      <trkpt lat="32.61181" lon="35.12224">
        <ele>229.0</ele>
        <time>2011-06-30T18:58:18Z</time>
      </trkpt>
      <trkpt lat="32.611869" lon="35.122309">
        <ele>229.0</ele>
        <time>2011-06-30T18:58:21Z</time>
      </trkpt>
      <trkpt lat="32.612067" lon="35.122234">
        <ele>231.0</ele>
        <time>2011-06-30T18:58:31Z</time>
      </trkpt>
      <trkpt lat="32.612153" lon="35.122213">
        <ele>233.0</ele>
        <time>2011-06-30T18:58:34Z</time>
      </trkpt>
      <trkpt lat="32.612287" lon="35.122234">
        <ele>236.0</ele>
        <time>2011-06-30T18:58:39Z</time>
      </trkpt>
      <trkpt lat="32.612357" lon="35.122266">
        <ele>234.0</ele>
        <time>2011-06-30T18:58:42Z</time>
      </trkpt>
      <trkpt lat="32.612432" lon="35.122309">
        <ele>232.0</ele>
        <time>2011-06-30T18:58:46Z</time>
      </trkpt>
      <trkpt lat="32.612534" lon="35.122352">
        <ele>231.0</ele>
        <time>2011-06-30T18:58:49Z</time>
      </trkpt>
      <trkpt lat="32.612663" lon="35.12246">
        <ele>233.0</ele>
        <time>2011-06-30T18:58:55Z</time>
      </trkpt>
      <trkpt lat="32.612765" lon="35.122556">
        <ele>235.0</ele>
        <time>2011-06-30T18:59:01Z</time>
      </trkpt>
      <trkpt lat="32.612926" lon="35.122588">
        <ele>234.0</ele>
        <time>2011-06-30T18:59:07Z</time>
      </trkpt>
      <trkpt lat="32.613006" lon="35.122599">
        <ele>232.0</ele>
        <time>2011-06-30T18:59:10Z</time>
      </trkpt>
      <trkpt lat="32.613087" lon="35.122545">
        <ele>231.0</ele>
        <time>2011-06-30T18:59:15Z</time>
      </trkpt>
      <trkpt lat="32.61313" lon="35.122486">
        <ele>229.0</ele>
        <time>2011-06-30T18:59:19Z</time>
      </trkpt>
      <trkpt lat="32.613183" lon="35.122443">
        <ele>229.0</ele>
        <time>2011-06-30T18:59:22Z</time>
      </trkpt>
      <trkpt lat="32.613215" lon="35.122379">
        <ele>229.0</ele>
        <time>2011-06-30T18:59:25Z</time>
      </trkpt>
      <trkpt lat="32.613258" lon="35.122288">
        <ele>231.0</ele>
        <time>2011-06-30T18:59:29Z</time>
      </trkpt>
      <trkpt lat="32.613307" lon="35.122197">
        <ele>233.0</ele>
        <time>2011-06-30T18:59:33Z</time>
      </trkpt>
      <trkpt lat="32.613403" lon="35.121993">
        <ele>234.0</ele>
        <time>2011-06-30T18:59:38Z</time>
      </trkpt>
      <trkpt lat="32.613462" lon="35.121939">
        <ele>235.0</ele>
        <time>2011-06-30T18:59:41Z</time>
      </trkpt>
      <trkpt lat="32.613543" lon="35.121982">
        <ele>234.0</ele>
        <time>2011-06-30T18:59:44Z</time>
      </trkpt>
      <trkpt lat="32.61358" lon="35.121832">
        <ele>236.0</ele>
        <time>2011-06-30T18:59:53Z</time>
      </trkpt>
      <trkpt lat="32.613671" lon="35.121456">
        <ele>233.0</ele>
        <time>2011-06-30T18:59:57Z</time>
      </trkpt>
      <trkpt lat="32.613902" lon="35.121231">
        <ele>232.0</ele>
        <time>2011-06-30T19:00:02Z</time>
      </trkpt>
      <trkpt lat="32.614106" lon="35.121059">
        <ele>232.0</ele>
        <time>2011-06-30T19:00:06Z</time>
      </trkpt>
      <trkpt lat="32.614213" lon="35.120963">
        <ele>230.0</ele>
        <time>2011-06-30T19:00:09Z</time>
      </trkpt>
      <trkpt lat="32.614347" lon="35.120968">
        <ele>222.0</ele>
        <time>2011-06-30T19:00:14Z</time>
      </trkpt>
      <trkpt lat="32.614299" lon="35.120909">
        <ele>214.0</ele>
        <time>2011-06-30T19:00:22Z</time>
      </trkpt>
      <trkpt lat="32.614224" lon="35.120877">
        <ele>214.0</ele>
        <time>2011-06-30T19:00:25Z</time>
      </trkpt>
      <trkpt lat="32.614079" lon="35.12085">
        <ele>213.0</ele>
        <time>2011-06-30T19:00:30Z</time>
      </trkpt>
      <trkpt lat="32.613918" lon="35.120877">
        <ele>214.0</ele>
        <time>2011-06-30T19:00:34Z</time>
      </trkpt>
      <trkpt lat="32.613838" lon="35.120893">
        <ele>215.0</ele>
        <time>2011-06-30T19:00:37Z</time>
      </trkpt>
      <trkpt lat="32.613698" lon="35.120936">
        <ele>216.0</ele>
        <time>2011-06-30T19:00:43Z</time>
      </trkpt>
      <trkpt lat="32.613618" lon="35.120968">
        <ele>216.0</ele>
        <time>2011-06-30T19:00:46Z</time>
      </trkpt>
      <trkpt lat="32.613387" lon="35.121011">
        <ele>215.0</ele>
        <time>2011-06-30T19:00:51Z</time>
      </trkpt>
      <trkpt lat="32.613076" lon="35.121156">
        <ele>210.0</ele>
        <time>2011-06-30T19:00:55Z</time>
      </trkpt>
      <trkpt lat="32.613001" lon="35.121247">
        <ele>207.0</ele>
        <time>2011-06-30T19:00:57Z</time>
      </trkpt>
      <trkpt lat="32.612888" lon="35.121392">
        <ele>204.0</ele>
        <time>2011-06-30T19:01:02Z</time>
      </trkpt>
      <trkpt lat="32.612845" lon="35.121483">
        <ele>204.0</ele>
        <time>2011-06-30T19:01:06Z</time>
      </trkpt>
      <trkpt lat="32.612786" lon="35.12166">
        <ele>204.0</ele>
        <time>2011-06-30T19:01:11Z</time>
      </trkpt>
      <trkpt lat="32.612743" lon="35.121875">
        <ele>203.0</ele>
        <time>2011-06-30T19:01:15Z</time>
      </trkpt>
      <trkpt lat="32.612609" lon="35.121784">
        <ele>204.0</ele>
        <time>2011-06-30T19:01:22Z</time>
      </trkpt>
      <trkpt lat="32.612481" lon="35.121628">
        <ele>204.0</ele>
        <time>2011-06-30T19:01:27Z</time>
      </trkpt>
      <trkpt lat="32.612411" lon="35.121408">
        <ele>203.0</ele>
        <time>2011-06-30T19:01:30Z</time>
      </trkpt>
      <trkpt lat="32.612325" lon="35.12136">
        <ele>202.0</ele>
        <time>2011-06-30T19:01:33Z</time>
      </trkpt>
      <trkpt lat="32.612266" lon="35.121387">
        <ele>203.0</ele>
        <time>2011-06-30T19:01:38Z</time>
      </trkpt>
      <trkpt lat="32.612212" lon="35.121344">
        <ele>206.0</ele>
        <time>2011-06-30T19:01:42Z</time>
      </trkpt>
      <trkpt lat="32.612132" lon="35.121177">
        <ele>208.0</ele>
        <time>2011-06-30T19:01:47Z</time>
      </trkpt>
      <trkpt lat="32.612105" lon="35.121108">
        <ele>208.0</ele>
        <time>2011-06-30T19:01:49Z</time>
      </trkpt>
      <trkpt lat="32.612067" lon="35.121033">
        <ele>208.0</ele>
        <time>2011-06-30T19:01:52Z</time>
      </trkpt>
      <trkpt lat="32.612041" lon="35.120952">
        <ele>208.0</ele>
        <time>2011-06-30T19:01:56Z</time>
      </trkpt>
      <trkpt lat="32.611933" lon="35.120813">
        <ele>211.0</ele>
        <time>2011-06-30T19:02:03Z</time>
      </trkpt>
      <trkpt lat="32.611896" lon="35.120743">
        <ele>212.0</ele>
        <time>2011-06-30T19:02:06Z</time>
      </trkpt>
      <trkpt lat="32.611848" lon="35.120679">
        <ele>212.0</ele>
        <time>2011-06-30T19:02:09Z</time>
      </trkpt>
      <trkpt lat="32.611767" lon="35.120636">
        <ele>211.0</ele>
        <time>2011-06-30T19:02:12Z</time>
      </trkpt>
      <trkpt lat="32.611611" lon="35.120593">
        <ele>207.0</ele>
        <time>2011-06-30T19:02:19Z</time>
      </trkpt>
      <trkpt lat="32.61152" lon="35.120598">
        <ele>207.0</ele>
        <time>2011-06-30T19:02:23Z</time>
      </trkpt>
      <trkpt lat="32.611381" lon="35.12062">
        <ele>202.0</ele>
        <time>2011-06-30T19:02:25Z</time>
      </trkpt>
      <trkpt lat="32.611316" lon="35.120603">
        <ele>202.0</ele>
        <time>2011-06-30T19:02:28Z</time>
      </trkpt>
      <trkpt lat="32.611365" lon="35.120512">
        <ele>203.0</ele>
        <time>2011-06-30T19:02:33Z</time>
      </trkpt>
      <trkpt lat="32.611408" lon="35.120453">
        <ele>205.0</ele>
        <time>2011-06-30T19:02:36Z</time>
      </trkpt>
      <trkpt lat="32.611552" lon="35.120265">
        <ele>210.0</ele>
        <time>2011-06-30T19:02:43Z</time>
      </trkpt>
      <trkpt lat="32.611697" lon="35.120239">
        <ele>209.0</ele>
        <time>2011-06-30T19:02:46Z</time>
      </trkpt>
      <trkpt lat="32.611799" lon="35.120287">
        <ele>210.0</ele>
        <time>2011-06-30T19:02:48Z</time>
      </trkpt>
      <trkpt lat="32.612062" lon="35.120394">
        <ele>208.0</ele>
        <time>2011-06-30T19:02:55Z</time>
      </trkpt>
      <trkpt lat="32.612234" lon="35.120437">
        <ele>206.0</ele>
        <time>2011-06-30T19:02:59Z</time>
      </trkpt>
      <trkpt lat="32.612303" lon="35.120432">
        <ele>207.0</ele>
        <time>2011-06-30T19:03:02Z</time>
      </trkpt>
      <trkpt lat="32.612395" lon="35.12033">
        <ele>207.0</ele>
        <time>2011-06-30T19:03:06Z</time>
      </trkpt>
      <trkpt lat="32.612454" lon="35.12011">
        <ele>208.0</ele>
        <time>2011-06-30T19:03:10Z</time>
      </trkpt>
      <trkpt lat="32.612727" lon="35.119852">
        <ele>209.0</ele>
        <time>2011-06-30T19:03:18Z</time>
      </trkpt>
      <trkpt lat="32.612947" lon="35.119756">
        <ele>210.0</ele>
        <time>2011-06-30T19:03:22Z</time>
      </trkpt>
      <trkpt lat="32.613092" lon="35.119611">
        <ele>210.0</ele>
        <time>2011-06-30T19:03:25Z</time>
      </trkpt>
      <trkpt lat="32.613333" lon="35.119638">
        <ele>211.0</ele>
        <time>2011-06-30T19:03:31Z</time>
      </trkpt>
      <trkpt lat="32.613392" lon="35.11967">
        <ele>210.0</ele>
        <time>2011-06-30T19:03:33Z</time>
      </trkpt>
      <trkpt lat="32.613521" lon="35.11975">
        <ele>210.0</ele>
        <time>2011-06-30T19:03:38Z</time>
      </trkpt>
      <trkpt lat="32.613645" lon="35.119702">
        <ele>206.0</ele>
        <time>2011-06-30T19:03:43Z</time>
      </trkpt>
      <trkpt lat="32.613768" lon="35.119718">
        <ele>208.0</ele>
        <time>2011-06-30T19:03:46Z</time>
      </trkpt>
      <trkpt lat="32.613854" lon="35.119659">
        <ele>211.0</ele>
        <time>2011-06-30T19:03:50Z</time>
      </trkpt>
      <trkpt lat="32.613918" lon="35.119611">
        <ele>214.0</ele>
        <time>2011-06-30T19:03:54Z</time>
      </trkpt>
      <trkpt lat="32.614015" lon="35.119423">
        <ele>218.0</ele>
        <time>2011-06-30T19:03:58Z</time>
      </trkpt>
      <trkpt lat="32.614181" lon="35.119295">
        <ele>220.0</ele>
        <time>2011-06-30T19:04:02Z</time>
      </trkpt>
      <trkpt lat="32.614347" lon="35.119101">
        <ele>221.0</ele>
        <time>2011-06-30T19:04:06Z</time>
      </trkpt>
      <trkpt lat="32.614524" lon="35.119042">
        <ele>220.0</ele>
        <time>2011-06-30T19:04:10Z</time>
      </trkpt>
      <trkpt lat="32.614734" lon="35.11916">
        <ele>221.0</ele>
        <time>2011-06-30T19:04:14Z</time>
      </trkpt>
      <trkpt lat="32.614905" lon="35.119134">
        <ele>221.0</ele>
        <time>2011-06-30T19:04:19Z</time>
      </trkpt>
      <trkpt lat="32.614986" lon="35.119144">
        <ele>221.0</ele>
        <time>2011-06-30T19:04:22Z</time>
      </trkpt>
      <trkpt lat="32.615077" lon="35.119128">
        <ele>221.0</ele>
        <time>2011-06-30T19:04:25Z</time>
      </trkpt>
      <trkpt lat="32.615216" lon="35.11901">
        <ele>221.0</ele>
        <time>2011-06-30T19:04:31Z</time>
      </trkpt>
      <trkpt lat="32.615291" lon="35.118951">
        <ele>220.0</ele>
        <time>2011-06-30T19:04:34Z</time>
      </trkpt>
      <trkpt lat="32.615447" lon="35.118903">
        <ele>220.0</ele>
        <time>2011-06-30T19:04:38Z</time>
      </trkpt>
      <trkpt lat="32.615624" lon="35.118973">
        <ele>218.0</ele>
        <time>2011-06-30T19:04:42Z</time>
      </trkpt>
      <trkpt lat="32.615908" lon="35.119219">
        <ele>216.0</ele>
        <time>2011-06-30T19:04:47Z</time>
      </trkpt>
      <trkpt lat="32.616155" lon="35.119257">
        <ele>202.0</ele>
        <time>2011-06-30T19:04:51Z</time>
      </trkpt>
      <trkpt lat="32.6163" lon="35.119268">
        <ele>195.0</ele>
        <time>2011-06-30T19:04:54Z</time>
      </trkpt>
      <trkpt lat="32.616429" lon="35.11923">
        <ele>191.0</ele>
        <time>2011-06-30T19:04:58Z</time>
      </trkpt>
      <trkpt lat="32.616611" lon="35.119214">
        <ele>191.0</ele>
        <time>2011-06-30T19:05:02Z</time>
      </trkpt>
      <trkpt lat="32.616831" lon="35.119214">
        <ele>187.0</ele>
        <time>2011-06-30T19:05:06Z</time>
      </trkpt>
      <trkpt lat="32.616971" lon="35.119075">
        <ele>187.0</ele>
        <time>2011-06-30T19:05:10Z</time>
      </trkpt>
      <trkpt lat="32.617051" lon="35.119021">
        <ele>188.0</ele>
        <time>2011-06-30T19:05:12Z</time>
      </trkpt>
      <trkpt lat="32.617314" lon="35.118726">
        <ele>194.0</ele>
        <time>2011-06-30T19:05:19Z</time>
      </trkpt>
      <trkpt lat="32.617394" lon="35.118544">
        <ele>196.0</ele>
        <time>2011-06-30T19:05:22Z</time>
      </trkpt>
      <trkpt lat="32.617545" lon="35.118184">
        <ele>194.0</ele>
        <time>2011-06-30T19:05:27Z</time>
      </trkpt>
      <trkpt lat="32.617614" lon="35.118109">
        <ele>193.0</ele>
        <time>2011-06-30T19:05:29Z</time>
      </trkpt>
      <trkpt lat="32.61784" lon="35.11798">
        <ele>190.0</ele>
        <time>2011-06-30T19:05:34Z</time>
      </trkpt>
      <trkpt lat="32.618092" lon="35.117943">
        <ele>187.0</ele>
        <time>2011-06-30T19:05:39Z</time>
      </trkpt>
      <trkpt lat="32.618312" lon="35.11798">
        <ele>182.0</ele>
        <time>2011-06-30T19:05:43Z</time>
      </trkpt>
      <trkpt lat="32.618371" lon="35.118007">
        <ele>181.0</ele>
        <time>2011-06-30T19:05:46Z</time>
      </trkpt>
      <trkpt lat="32.618408" lon="35.117937">
        <ele>177.0</ele>
        <time>2011-06-30T19:05:50Z</time>
      </trkpt>
      <trkpt lat="32.618467" lon="35.117905">
        <ele>173.0</ele>
        <time>2011-06-30T19:05:57Z</time>
      </trkpt>
      <trkpt lat="32.618542" lon="35.1179">
        <ele>171.0</ele>
        <time>2011-06-30T19:06:02Z</time>
      </trkpt>
      <trkpt lat="32.618693" lon="35.117948">
        <ele>168.0</ele>
        <time>2011-06-30T19:06:07Z</time>
      </trkpt>
      <trkpt lat="32.618757" lon="35.117991">
        <ele>167.0</ele>
        <time>2011-06-30T19:06:09Z</time>
      </trkpt>
      <trkpt lat="32.618832" lon="35.118029">
        <ele>166.0</ele>
        <time>2011-06-30T19:06:12Z</time>
      </trkpt>
      <trkpt lat="32.618977" lon="35.118093">
        <ele>165.0</ele>
        <time>2011-06-30T19:06:18Z</time>
      </trkpt>
      <trkpt lat="32.619148" lon="35.118157">
        <ele>164.0</ele>
        <time>2011-06-30T19:06:23Z</time>
      </trkpt>
      <trkpt lat="32.61939" lon="35.11835">
        <ele>164.0</ele>
        <time>2011-06-30T19:06:27Z</time>
      </trkpt>
      <trkpt lat="32.619599" lon="35.118527">
        <ele>162.0</ele>
        <time>2011-06-30T19:06:31Z</time>
      </trkpt>
      <trkpt lat="32.619867" lon="35.118785">
        <ele>156.0</ele>
        <time>2011-06-30T19:06:39Z</time>
      </trkpt>
      <trkpt lat="32.620007" lon="35.118973">
        <ele>153.0</ele>
        <time>2011-06-30T19:06:43Z</time>
      </trkpt>
      <trkpt lat="32.620173" lon="35.119182">
        <ele>149.0</ele>
        <time>2011-06-30T19:06:47Z</time>
      </trkpt>
      <trkpt lat="32.620366" lon="35.119413">
        <ele>148.0</ele>
        <time>2011-06-30T19:06:51Z</time>
      </trkpt>
      <trkpt lat="32.620441" lon="35.119622">
        <ele>147.0</ele>
        <time>2011-06-30T19:06:55Z</time>
      </trkpt>
      <trkpt lat="32.620527" lon="35.119922">
        <ele>148.0</ele>
        <time>2011-06-30T19:06:59Z</time>
      </trkpt>
      <trkpt lat="32.620645" lon="35.120239">
        <ele>146.0</ele>
        <time>2011-06-30T19:07:03Z</time>
      </trkpt>
      <trkpt lat="32.620742" lon="35.120389">
        <ele>145.0</ele>
        <time>2011-06-30T19:07:06Z</time>
      </trkpt>
      <trkpt lat="32.620983" lon="35.12055">
        <ele>145.0</ele>
        <time>2011-06-30T19:07:11Z</time>
      </trkpt>
      <trkpt lat="32.621225" lon="35.120684">
        <ele>145.0</ele>
        <time>2011-06-30T19:07:15Z</time>
      </trkpt>
      <trkpt lat="32.621477" lon="35.120802">
        <ele>146.0</ele>
        <time>2011-06-30T19:07:19Z</time>
      </trkpt>
      <trkpt lat="32.62175" lon="35.120915">
        <ele>146.0</ele>
        <time>2011-06-30T19:07:23Z</time>
      </trkpt>
      <trkpt lat="32.621949" lon="35.121043">
        <ele>147.0</ele>
        <time>2011-06-30T19:07:27Z</time>
      </trkpt>
      <trkpt lat="32.622163" lon="35.121183">
        <ele>147.0</ele>
        <time>2011-06-30T19:07:31Z</time>
      </trkpt>
      <trkpt lat="32.622394" lon="35.121499">
        <ele>145.0</ele>
        <time>2011-06-30T19:07:35Z</time>
      </trkpt>
      <trkpt lat="32.622603" lon="35.121832">
        <ele>142.0</ele>
        <time>2011-06-30T19:07:39Z</time>
      </trkpt>
      <trkpt lat="32.622689" lon="35.121982">
        <ele>141.0</ele>
        <time>2011-06-30T19:07:41Z</time>
      </trkpt>
      <trkpt lat="32.622947" lon="35.122417">
        <ele>136.0</ele>
        <time>2011-06-30T19:07:47Z</time>
      </trkpt>
      <trkpt lat="32.623075" lon="35.122658">
        <ele>134.0</ele>
        <time>2011-06-30T19:07:50Z</time>
      </trkpt>
      <trkpt lat="32.623252" lon="35.123007">
        <ele>131.0</ele>
        <time>2011-06-30T19:07:55Z</time>
      </trkpt>
      <trkpt lat="32.623349" lon="35.123232">
        <ele>131.0</ele>
        <time>2011-06-30T19:07:59Z</time>
      </trkpt>
      <trkpt lat="32.62344" lon="35.123457">
        <ele>131.0</ele>
        <time>2011-06-30T19:08:03Z</time>
      </trkpt>
      <trkpt lat="32.623596" lon="35.123688">
        <ele>130.0</ele>
        <time>2011-06-30T19:08:07Z</time>
      </trkpt>
      <trkpt lat="32.623692" lon="35.123999">
        <ele>130.0</ele>
        <time>2011-06-30T19:08:11Z</time>
      </trkpt>
      <trkpt lat="32.623767" lon="35.124267">
        <ele>130.0</ele>
        <time>2011-06-30T19:08:15Z</time>
      </trkpt>
      <trkpt lat="32.623832" lon="35.12453">
        <ele>129.0</ele>
        <time>2011-06-30T19:08:19Z</time>
      </trkpt>
      <trkpt lat="32.623885" lon="35.124782">
        <ele>129.0</ele>
        <time>2011-06-30T19:08:23Z</time>
      </trkpt>
      <trkpt lat="32.623944" lon="35.125093">
        <ele>129.0</ele>
        <time>2011-06-30T19:08:27Z</time>
      </trkpt>
      <trkpt lat="32.624014" lon="35.125458">
        <ele>126.0</ele>
        <time>2011-06-30T19:08:31Z</time>
      </trkpt>
      <trkpt lat="32.624052" lon="35.125807">
        <ele>125.0</ele>
        <time>2011-06-30T19:08:35Z</time>
      </trkpt>
      <trkpt lat="32.623778" lon="35.126397">
        <ele>127.0</ele>
        <time>2011-06-30T19:08:39Z</time>
      </trkpt>
      <trkpt lat="32.623783" lon="35.126692">
        <ele>126.0</ele>
        <time>2011-06-30T19:08:43Z</time>
      </trkpt>
      <trkpt lat="32.623783" lon="35.127094">
        <ele>127.0</ele>
        <time>2011-06-30T19:08:47Z</time>
      </trkpt>
      <trkpt lat="32.623799" lon="35.127502">
        <ele>125.0</ele>
        <time>2011-06-30T19:08:51Z</time>
      </trkpt>
      <trkpt lat="32.623944" lon="35.127797">
        <ele>120.0</ele>
        <time>2011-06-30T19:08:55Z</time>
      </trkpt>
      <trkpt lat="32.624143" lon="35.12814">
        <ele>113.0</ele>
        <time>2011-06-30T19:08:59Z</time>
      </trkpt>
      <trkpt lat="32.624384" lon="35.128473">
        <ele>111.0</ele>
        <time>2011-06-30T19:09:03Z</time>
      </trkpt>
      <trkpt lat="32.624658" lon="35.128698">
        <ele>107.0</ele>
        <time>2011-06-30T19:09:07Z</time>
      </trkpt>
      <trkpt lat="32.624953" lon="35.128838">
        <ele>107.0</ele>
        <time>2011-06-30T19:09:11Z</time>
      </trkpt>
      <trkpt lat="32.625178" lon="35.129085">
        <ele>105.0</ele>
        <time>2011-06-30T19:09:15Z</time>
      </trkpt>
      <trkpt lat="32.625377" lon="35.129364">
        <ele>103.0</ele>
        <time>2011-06-30T19:09:19Z</time>
      </trkpt>
      <trkpt lat="32.625495" lon="35.129471">
        <ele>103.0</ele>
        <time>2011-06-30T19:09:21Z</time>
      </trkpt>
      <trkpt lat="32.625822" lon="35.12983">
        <ele>101.0</ele>
        <time>2011-06-30T19:09:27Z</time>
      </trkpt>
      <trkpt lat="32.625983" lon="35.12997">
        <ele>99.0</ele>
        <time>2011-06-30T19:09:30Z</time>
      </trkpt>
      <trkpt lat="32.626128" lon="35.130334">
        <ele>98.0</ele>
        <time>2011-06-30T19:09:35Z</time>
      </trkpt>
      <trkpt lat="32.626203" lon="35.130683">
        <ele>97.0</ele>
        <time>2011-06-30T19:09:39Z</time>
      </trkpt>
      <trkpt lat="32.626326" lon="35.130984">
        <ele>98.0</ele>
        <time>2011-06-30T19:09:43Z</time>
      </trkpt>
      <trkpt lat="32.626498" lon="35.131241">
        <ele>97.0</ele>
        <time>2011-06-30T19:09:47Z</time>
      </trkpt>
      <trkpt lat="32.626669" lon="35.131375">
        <ele>98.0</ele>
        <time>2011-06-30T19:09:50Z</time>
      </trkpt>
      <trkpt lat="32.62682" lon="35.131579">
        <ele>98.0</ele>
        <time>2011-06-30T19:09:54Z</time>
      </trkpt>
      <trkpt lat="32.626922" lon="35.13182">
        <ele>99.0</ele>
        <time>2011-06-30T19:09:58Z</time>
      </trkpt>
      <trkpt lat="32.627072" lon="35.132255">
        <ele>97.0</ele>
        <time>2011-06-30T19:10:06Z</time>
      </trkpt>
      <trkpt lat="32.62719" lon="35.132411">
        <ele>94.0</ele>
        <time>2011-06-30T19:10:10Z</time>
      </trkpt>
      <trkpt lat="32.62727" lon="35.132421">
        <ele>93.0</ele>
        <time>2011-06-30T19:10:12Z</time>
      </trkpt>
      <trkpt lat="32.627463" lon="35.132293">
        <ele>93.0</ele>
        <time>2011-06-30T19:10:19Z</time>
      </trkpt>
      <trkpt lat="32.627501" lon="35.132223">
        <ele>94.0</ele>
        <time>2011-06-30T19:10:23Z</time>
      </trkpt>
      <trkpt lat="32.627528" lon="35.132132">
        <ele>95.0</ele>
        <time>2011-06-30T19:10:26Z</time>
      </trkpt>
      <trkpt lat="32.627576" lon="35.132056">
        <ele>93.0</ele>
        <time>2011-06-30T19:10:29Z</time>
      </trkpt>
      <trkpt lat="32.627656" lon="35.131901">
        <ele>93.0</ele>
        <time>2011-06-30T19:10:34Z</time>
      </trkpt>
      <trkpt lat="32.627764" lon="35.131627">
        <ele>91.0</ele>
        <time>2011-06-30T19:10:43Z</time>
      </trkpt>
      <trkpt lat="32.627785" lon="35.131531">
        <ele>91.0</ele>
        <time>2011-06-30T19:10:46Z</time>
      </trkpt>
      <trkpt lat="32.627887" lon="35.131359">
        <ele>92.0</ele>
        <time>2011-06-30T19:10:52Z</time>
      </trkpt>
      <trkpt lat="32.628021" lon="35.13137">
        <ele>94.0</ele>
        <time>2011-06-30T19:10:57Z</time>
      </trkpt>
      <trkpt lat="32.628171" lon="35.131322">
        <ele>95.0</ele>
        <time>2011-06-30T19:11:03Z</time>
      </trkpt>
      <trkpt lat="32.628252" lon="35.131284">
        <ele>93.0</ele>
        <time>2011-06-30T19:11:06Z</time>
      </trkpt>
      <trkpt lat="32.628316" lon="35.131279">
        <ele>96.0</ele>
        <time>2011-06-30T19:11:09Z</time>
      </trkpt>
      <trkpt lat="32.628386" lon="35.131273">
        <ele>96.0</ele>
        <time>2011-06-30T19:11:13Z</time>
      </trkpt>
      <trkpt lat="32.628466" lon="35.131246">
        <ele>95.0</ele>
        <time>2011-06-30T19:11:17Z</time>
      </trkpt>
      <trkpt lat="32.628611" lon="35.131166">
        <ele>94.0</ele>
        <time>2011-06-30T19:11:23Z</time>
      </trkpt>
      <trkpt lat="32.628949" lon="35.131005">
        <ele>94.0</ele>
        <time>2011-06-30T19:11:31Z</time>
      </trkpt>
      <trkpt lat="32.629169" lon="35.130951">
        <ele>94.0</ele>
        <time>2011-06-30T19:11:35Z</time>
      </trkpt>
      <trkpt lat="32.629389" lon="35.130833">
        <ele>95.0</ele>
        <time>2011-06-30T19:11:39Z</time>
      </trkpt>
      <trkpt lat="32.629609" lon="35.130699">
        <ele>95.0</ele>
        <time>2011-06-30T19:11:43Z</time>
      </trkpt>
      <trkpt lat="32.629706" lon="35.130624">
        <ele>95.0</ele>
        <time>2011-06-30T19:11:45Z</time>
      </trkpt>
      <trkpt lat="32.629969" lon="35.130383">
        <ele>94.0</ele>
        <time>2011-06-30T19:11:51Z</time>
      </trkpt>
      <trkpt lat="32.630172" lon="35.130222">
        <ele>92.0</ele>
        <time>2011-06-30T19:11:55Z</time>
      </trkpt>
      <trkpt lat="32.630339" lon="35.130056">
        <ele>88.0</ele>
        <time>2011-06-30T19:11:59Z</time>
      </trkpt>
      <trkpt lat="32.630526" lon="35.1299">
        <ele>88.0</ele>
        <time>2011-06-30T19:12:03Z</time>
      </trkpt>
      <trkpt lat="32.63072" lon="35.129761">
        <ele>89.0</ele>
        <time>2011-06-30T19:12:07Z</time>
      </trkpt>
      <trkpt lat="32.630875" lon="35.129637">
        <ele>88.0</ele>
        <time>2011-06-30T19:12:11Z</time>
      </trkpt>
      <trkpt lat="32.631031" lon="35.129535">
        <ele>90.0</ele>
        <time>2011-06-30T19:12:15Z</time>
      </trkpt>
      <trkpt lat="32.63117" lon="35.129428">
        <ele>91.0</ele>
        <time>2011-06-30T19:12:19Z</time>
      </trkpt>
      <trkpt lat="32.63131" lon="35.129315">
        <ele>90.0</ele>
        <time>2011-06-30T19:12:23Z</time>
      </trkpt>
      <trkpt lat="32.631465" lon="35.129187">
        <ele>91.0</ele>
        <time>2011-06-30T19:12:27Z</time>
      </trkpt>
      <trkpt lat="32.631631" lon="35.129052">
        <ele>92.0</ele>
        <time>2011-06-30T19:12:31Z</time>
      </trkpt>
      <trkpt lat="32.631782" lon="35.128902">
        <ele>93.0</ele>
        <time>2011-06-30T19:12:35Z</time>
      </trkpt>
      <trkpt lat="32.631932" lon="35.128768">
        <ele>92.0</ele>
        <time>2011-06-30T19:12:39Z</time>
      </trkpt>
      <trkpt lat="32.632066" lon="35.128645">
        <ele>92.0</ele>
        <time>2011-06-30T19:12:43Z</time>
      </trkpt>
      <trkpt lat="32.632195" lon="35.128554">
        <ele>92.0</ele>
        <time>2011-06-30T19:12:47Z</time>
      </trkpt>
      <trkpt lat="32.632329" lon="35.128511">
        <ele>92.0</ele>
        <time>2011-06-30T19:12:51Z</time>
      </trkpt>
      <trkpt lat="32.632501" lon="35.128532">
        <ele>91.0</ele>
        <time>2011-06-30T19:12:55Z</time>
      </trkpt>
      <trkpt lat="32.632699" lon="35.128564">
        <ele>91.0</ele>
        <time>2011-06-30T19:12:59Z</time>
      </trkpt>
      <trkpt lat="32.63279" lon="35.128527">
        <ele>91.0</ele>
        <time>2011-06-30T19:13:01Z</time>
      </trkpt>
      <trkpt lat="32.632989" lon="35.128393">
        <ele>91.0</ele>
        <time>2011-06-30T19:13:06Z</time>
      </trkpt>
      <trkpt lat="32.633139" lon="35.128275">
        <ele>92.0</ele>
        <time>2011-06-30T19:13:10Z</time>
      </trkpt>
      <trkpt lat="32.633214" lon="35.12821">
        <ele>93.0</ele>
        <time>2011-06-30T19:13:12Z</time>
      </trkpt>
      <trkpt lat="32.633455" lon="35.128049">
        <ele>92.0</ele>
        <time>2011-06-30T19:13:18Z</time>
      </trkpt>
      <trkpt lat="32.633622" lon="35.127904">
        <ele>91.0</ele>
        <time>2011-06-30T19:13:22Z</time>
      </trkpt>
      <trkpt lat="32.63375" lon="35.127749">
        <ele>91.0</ele>
        <time>2011-06-30T19:13:26Z</time>
      </trkpt>
      <trkpt lat="32.633858" lon="35.127599">
        <ele>91.0</ele>
        <time>2011-06-30T19:13:30Z</time>
      </trkpt>
      <trkpt lat="32.633954" lon="35.127459">
        <ele>90.0</ele>
        <time>2011-06-30T19:13:34Z</time>
      </trkpt>
      <trkpt lat="32.63404" lon="35.127314">
        <ele>90.0</ele>
        <time>2011-06-30T19:13:38Z</time>
      </trkpt>
      <trkpt lat="32.634072" lon="35.127228">
        <ele>90.0</ele>
        <time>2011-06-30T19:13:40Z</time>
      </trkpt>
      <trkpt lat="32.634153" lon="35.127084">
        <ele>90.0</ele>
        <time>2011-06-30T19:13:44Z</time>
      </trkpt>
      <trkpt lat="32.634298" lon="35.126837">
        <ele>90.0</ele>
        <time>2011-06-30T19:13:50Z</time>
      </trkpt>
      <trkpt lat="32.634394" lon="35.126649">
        <ele>90.0</ele>
        <time>2011-06-30T19:13:54Z</time>
      </trkpt>
      <trkpt lat="32.634534" lon="35.126483">
        <ele>89.0</ele>
        <time>2011-06-30T19:13:58Z</time>
      </trkpt>
      <trkpt lat="32.634668" lon="35.1263">
        <ele>87.0</ele>
        <time>2011-06-30T19:14:02Z</time>
      </trkpt>
      <trkpt lat="32.634786" lon="35.126134">
        <ele>87.0</ele>
        <time>2011-06-30T19:14:06Z</time>
      </trkpt>
      <trkpt lat="32.634936" lon="35.125979">
        <ele>86.0</ele>
        <time>2011-06-30T19:14:10Z</time>
      </trkpt>
      <trkpt lat="32.635092" lon="35.125871">
        <ele>88.0</ele>
        <time>2011-06-30T19:14:14Z</time>
      </trkpt>
      <trkpt lat="32.635252" lon="35.125802">
        <ele>88.0</ele>
        <time>2011-06-30T19:14:18Z</time>
      </trkpt>
      <trkpt lat="32.635349" lon="35.125769">
        <ele>88.0</ele>
        <time>2011-06-30T19:14:20Z</time>
      </trkpt>
      <trkpt lat="32.635649" lon="35.125662">
        <ele>87.0</ele>
        <time>2011-06-30T19:14:26Z</time>
      </trkpt>
      <trkpt lat="32.635848" lon="35.125571">
        <ele>86.0</ele>
        <time>2011-06-30T19:14:30Z</time>
      </trkpt>
      <trkpt lat="32.635939" lon="35.125539">
        <ele>86.0</ele>
        <time>2011-06-30T19:14:32Z</time>
      </trkpt>
      <trkpt lat="32.636315" lon="35.125356">
        <ele>86.0</ele>
        <time>2011-06-30T19:14:39Z</time>
      </trkpt>
      <trkpt lat="32.636524" lon="35.125281">
        <ele>86.0</ele>
        <time>2011-06-30T19:14:43Z</time>
      </trkpt>
      <trkpt lat="32.636749" lon="35.125211">
        <ele>86.0</ele>
        <time>2011-06-30T19:14:47Z</time>
      </trkpt>
      <trkpt lat="32.636921" lon="35.125136">
        <ele>86.0</ele>
        <time>2011-06-30T19:14:50Z</time>
      </trkpt>
      <trkpt lat="32.637103" lon="35.125077">
        <ele>84.0</ele>
        <time>2011-06-30T19:14:54Z</time>
      </trkpt>
      <trkpt lat="32.637291" lon="35.124997">
        <ele>85.0</ele>
        <time>2011-06-30T19:14:58Z</time>
      </trkpt>
      <trkpt lat="32.637473" lon="35.124933">
        <ele>84.0</ele>
        <time>2011-06-30T19:15:02Z</time>
      </trkpt>
      <trkpt lat="32.63765" lon="35.124857">
        <ele>83.0</ele>
        <time>2011-06-30T19:15:06Z</time>
      </trkpt>
      <trkpt lat="32.637838" lon="35.124793">
        <ele>83.0</ele>
        <time>2011-06-30T19:15:10Z</time>
      </trkpt>
      <trkpt lat="32.638026" lon="35.124761">
        <ele>81.0</ele>
        <time>2011-06-30T19:15:14Z</time>
      </trkpt>
      <trkpt lat="32.638203" lon="35.124739">
        <ele>80.0</ele>
        <time>2011-06-30T19:15:18Z</time>
      </trkpt>
      <trkpt lat="32.638401" lon="35.124707">
        <ele>80.0</ele>
        <time>2011-06-30T19:15:22Z</time>
      </trkpt>
      <trkpt lat="32.6386" lon="35.124686">
        <ele>79.0</ele>
        <time>2011-06-30T19:15:26Z</time>
      </trkpt>
      <trkpt lat="32.638761" lon="35.12467">
        <ele>79.0</ele>
        <time>2011-06-30T19:15:31Z</time>
      </trkpt>
      <trkpt lat="32.638788" lon="35.124589">
        <ele>80.0</ele>
        <time>2011-06-30T19:15:38Z</time>
      </trkpt>
      <trkpt lat="32.638879" lon="35.124455">
        <ele>79.0</ele>
        <time>2011-06-30T19:15:46Z</time>
      </trkpt>
      <trkpt lat="32.639002" lon="35.124375">
        <ele>78.0</ele>
        <time>2011-06-30T19:15:50Z</time>
      </trkpt>
      <trkpt lat="32.639072" lon="35.124332">
        <ele>78.0</ele>
        <time>2011-06-30T19:15:52Z</time>
      </trkpt>
      <trkpt lat="32.63926" lon="35.124203">
        <ele>78.0</ele>
        <time>2011-06-30T19:15:58Z</time>
      </trkpt>
      <trkpt lat="32.639319" lon="35.124171">
        <ele>78.0</ele>
        <time>2011-06-30T19:16:00Z</time>
      </trkpt>
      <trkpt lat="32.63948" lon="35.124112">
        <ele>78.0</ele>
        <time>2011-06-30T19:16:05Z</time>
      </trkpt>
      <trkpt lat="32.639619" lon="35.124096">
        <ele>77.0</ele>
        <time>2011-06-30T19:16:09Z</time>
      </trkpt>
      <trkpt lat="32.639764" lon="35.124117">
        <ele>76.0</ele>
        <time>2011-06-30T19:16:14Z</time>
      </trkpt>
      <trkpt lat="32.639823" lon="35.124182">
        <ele>76.0</ele>
        <time>2011-06-30T19:16:17Z</time>
      </trkpt>
      <trkpt lat="32.639861" lon="35.124396">
        <ele>75.0</ele>
        <time>2011-06-30T19:16:22Z</time>
      </trkpt>
      <trkpt lat="32.64007" lon="35.124557">
        <ele>74.0</ele>
        <time>2011-06-30T19:16:29Z</time>
      </trkpt>
      <trkpt lat="32.640316" lon="35.124519">
        <ele>75.0</ele>
        <time>2011-06-30T19:16:34Z</time>
      </trkpt>
      <trkpt lat="32.640488" lon="35.124509">
        <ele>75.0</ele>
        <time>2011-06-30T19:16:38Z</time>
      </trkpt>
      <trkpt lat="32.640665" lon="35.124498">
        <ele>75.0</ele>
        <time>2011-06-30T19:16:42Z</time>
      </trkpt>
      <trkpt lat="32.640837" lon="35.124471">
        <ele>76.0</ele>
        <time>2011-06-30T19:16:46Z</time>
      </trkpt>
      <trkpt lat="32.641014" lon="35.124434">
        <ele>75.0</ele>
        <time>2011-06-30T19:16:50Z</time>
      </trkpt>
      <trkpt lat="32.6411" lon="35.124412">
        <ele>76.0</ele>
        <time>2011-06-30T19:16:52Z</time>
      </trkpt>
      <trkpt lat="32.641282" lon="35.124348">
        <ele>76.0</ele>
        <time>2011-06-30T19:16:56Z</time>
      </trkpt>
      <trkpt lat="32.641502" lon="35.124246">
        <ele>75.0</ele>
        <time>2011-06-30T19:17:01Z</time>
      </trkpt>
      <trkpt lat="32.641658" lon="35.124187">
        <ele>76.0</ele>
        <time>2011-06-30T19:17:05Z</time>
      </trkpt>
      <trkpt lat="32.641813" lon="35.124112">
        <ele>77.0</ele>
        <time>2011-06-30T19:17:09Z</time>
      </trkpt>
      <trkpt lat="32.641942" lon="35.124058">
        <ele>77.0</ele>
        <time>2011-06-30T19:17:13Z</time>
      </trkpt>
      <trkpt lat="32.642071" lon="35.123978">
        <ele>77.0</ele>
        <time>2011-06-30T19:17:18Z</time>
      </trkpt>
      <trkpt lat="32.642151" lon="35.123924">
        <ele>77.0</ele>
        <time>2011-06-30T19:17:21Z</time>
      </trkpt>
      <trkpt lat="32.64228" lon="35.123844">
        <ele>77.0</ele>
        <time>2011-06-30T19:17:26Z</time>
      </trkpt>
      <trkpt lat="32.6425" lon="35.123709">
        <ele>77.0</ele>
        <time>2011-06-30T19:17:33Z</time>
      </trkpt>
      <trkpt lat="32.642623" lon="35.123618">
        <ele>77.0</ele>
        <time>2011-06-30T19:17:37Z</time>
      </trkpt>
      <trkpt lat="32.642725" lon="35.123506">
        <ele>78.0</ele>
        <time>2011-06-30T19:17:41Z</time>
      </trkpt>
      <trkpt lat="32.642848" lon="35.123404">
        <ele>79.0</ele>
        <time>2011-06-30T19:17:45Z</time>
      </trkpt>
      <trkpt lat="32.643042" lon="35.123302">
        <ele>81.0</ele>
        <time>2011-06-30T19:17:53Z</time>
      </trkpt>
      <trkpt lat="32.643192" lon="35.12327">
        <ele>83.0</ele>
        <time>2011-06-30T19:17:58Z</time>
      </trkpt>
      <trkpt lat="32.643498" lon="35.123119">
        <ele>84.0</ele>
        <time>2011-06-30T19:18:08Z</time>
      </trkpt>
      <trkpt lat="32.643632" lon="35.123055">
        <ele>84.0</ele>
        <time>2011-06-30T19:18:13Z</time>
      </trkpt>
      <trkpt lat="32.643766" lon="35.122926">
        <ele>83.0</ele>
        <time>2011-06-30T19:18:18Z</time>
      </trkpt>
      <trkpt lat="32.643825" lon="35.122856">
        <ele>82.0</ele>
        <time>2011-06-30T19:18:20Z</time>
      </trkpt>
      <trkpt lat="32.644109" lon="35.12262">
        <ele>80.0</ele>
        <time>2011-06-30T19:18:28Z</time>
      </trkpt>
      <trkpt lat="32.6442" lon="35.122497">
        <ele>80.0</ele>
        <time>2011-06-30T19:18:34Z</time>
      </trkpt>
      <trkpt lat="32.644345" lon="35.122358">
        <ele>82.0</ele>
        <time>2011-06-30T19:18:39Z</time>
      </trkpt>
      <trkpt lat="32.64449" lon="35.122223">
        <ele>83.0</ele>
        <time>2011-06-30T19:18:43Z</time>
      </trkpt>
      <trkpt lat="32.644624" lon="35.122057">
        <ele>81.0</ele>
        <time>2011-06-30T19:18:47Z</time>
      </trkpt>
      <trkpt lat="32.644764" lon="35.121939">
        <ele>81.0</ele>
        <time>2011-06-30T19:18:51Z</time>
      </trkpt>
      <trkpt lat="32.644866" lon="35.12181">
        <ele>79.0</ele>
        <time>2011-06-30T19:18:55Z</time>
      </trkpt>
      <trkpt lat="32.644973" lon="35.121687">
        <ele>79.0</ele>
        <time>2011-06-30T19:18:59Z</time>
      </trkpt>
      <trkpt lat="32.645107" lon="35.121569">
        <ele>77.0</ele>
        <time>2011-06-30T19:19:03Z</time>
      </trkpt>
      <trkpt lat="32.645236" lon="35.121424">
        <ele>76.0</ele>
        <time>2011-06-30T19:19:07Z</time>
      </trkpt>
      <trkpt lat="32.64537" lon="35.121263">
        <ele>76.0</ele>
        <time>2011-06-30T19:19:11Z</time>
      </trkpt>
      <trkpt lat="32.64552" lon="35.121102">
        <ele>76.0</ele>
        <time>2011-06-30T19:19:15Z</time>
      </trkpt>
      <trkpt lat="32.645665" lon="35.120968">
        <ele>75.0</ele>
        <time>2011-06-30T19:19:19Z</time>
      </trkpt>
      <trkpt lat="32.645735" lon="35.120904">
        <ele>76.0</ele>
        <time>2011-06-30T19:19:21Z</time>
      </trkpt>
      <trkpt lat="32.645949" lon="35.120705">
        <ele>74.0</ele>
        <time>2011-06-30T19:19:27Z</time>
      </trkpt>
      <trkpt lat="32.646094" lon="35.120582">
        <ele>74.0</ele>
        <time>2011-06-30T19:19:31Z</time>
      </trkpt>
      <trkpt lat="32.646207" lon="35.120464">
        <ele>74.0</ele>
        <time>2011-06-30T19:19:35Z</time>
      </trkpt>
      <trkpt lat="32.64626" lon="35.120405">
        <ele>74.0</ele>
        <time>2011-06-30T19:19:37Z</time>
      </trkpt>
      <trkpt lat="32.6464" lon="35.120287">
        <ele>73.0</ele>
        <time>2011-06-30T19:19:43Z</time>
      </trkpt>
      <trkpt lat="32.646502" lon="35.12018">
        <ele>73.0</ele>
        <time>2011-06-30T19:19:47Z</time>
      </trkpt>
      <trkpt lat="32.646614" lon="35.120062">
        <ele>72.0</ele>
        <time>2011-06-30T19:19:51Z</time>
      </trkpt>
      <trkpt lat="32.646727" lon="35.119944">
        <ele>73.0</ele>
        <time>2011-06-30T19:19:55Z</time>
      </trkpt>
      <trkpt lat="32.646775" lon="35.11989">
        <ele>73.0</ele>
        <time>2011-06-30T19:19:57Z</time>
      </trkpt>
      <trkpt lat="32.646877" lon="35.119772">
        <ele>73.0</ele>
        <time>2011-06-30T19:20:01Z</time>
      </trkpt>
      <trkpt lat="32.646984" lon="35.119659">
        <ele>73.0</ele>
        <time>2011-06-30T19:20:06Z</time>
      </trkpt>
      <trkpt lat="32.647049" lon="35.119579">
        <ele>75.0</ele>
        <time>2011-06-30T19:20:09Z</time>
      </trkpt>
      <trkpt lat="32.647172" lon="35.119445">
        <ele>73.0</ele>
        <time>2011-06-30T19:20:15Z</time>
      </trkpt>
      <trkpt lat="32.647226" lon="35.11938">
        <ele>74.0</ele>
        <time>2011-06-30T19:20:18Z</time>
      </trkpt>
      <trkpt lat="32.647274" lon="35.119327">
        <ele>74.0</ele>
        <time>2011-06-30T19:20:24Z</time>
      </trkpt>
      <trkpt lat="32.647333" lon="35.119284">
        <ele>73.0</ele>
        <time>2011-06-30T19:20:30Z</time>
      </trkpt>
      <trkpt lat="32.647408" lon="35.119236">
        <ele>74.0</ele>
        <time>2011-06-30T19:20:33Z</time>
      </trkpt>
      <trkpt lat="32.647542" lon="35.119144">
        <ele>73.0</ele>
        <time>2011-06-30T19:20:39Z</time>
      </trkpt>
      <trkpt lat="32.647612" lon="35.119101">
        <ele>74.0</ele>
        <time>2011-06-30T19:20:42Z</time>
      </trkpt>
      <trkpt lat="32.647682" lon="35.119058">
        <ele>74.0</ele>
        <time>2011-06-30T19:20:45Z</time>
      </trkpt>
      <trkpt lat="32.647682" lon="35.119058">
        <time>2011-06-30T19:22:08Z</time>
      </trkpt>
    </trkseg>
  </trk>
</gpx>